Dossiers MTO

De Ressources aéronautiques.

Dossiers MTO
Cette page me sert pour animer des formations et ateliers MTO, et sert aussi de ressources complémentaires à mon ouvrage Supports météo du voyage aéronautique en France et en Europe.

Sommaire

Du même auteur :

Cette page contient un ensemble de supports MTO aéro (messages, cartes, images satellite, etc.) parfois regroupés en "dossier MTO" (on peut ainsi étudier un dossier entier en entier), parfois simplement listés par type de supports (ensemble de Metar, Taf, Sigmet, etc.) permettant de se focaliser sur chacun.

Certains des messages sont donnés en séquence sur des journées entières, l'idée étant de voir la dynamique des observations et prévisions correspondantes, mais aussi l'enchaînement de certaines syntaxes de messages (ex. AMD, CNL, etc.)

Tous ces exemples sont issus du monde réels, avec leurs bizareries, leurs erreurs parfois, mais ils sont la réalité...

Entraînez-vous à les lire et à les interpréter ! L'essemble de ces exemples n'ont pas été choisis au hasard :o)

Ensembles de Metar

Lot 1

Exemples de METAR et Metar Auto non commentés.

Montpellier-Méditerranée Airport, France

METAR LFMT 290630Z 05009KT 9999 -RA SCT030 SCT033TCU BKN110 18/15 Q1023 NOSIG=

METAR LFMT 290800Z 03010KT 8000 -RA FEW028 BKN053 FEW060TCU BKN080 18/15 Q1023 NOSIG=

METAR LFMT 291330Z 36004KT 290V040 0300 R30/1200U +RA BKN005 BKN013 BKN019 SCT026CB 17/17 Q1024 TEMPO +TSRA=

METAR LFMT 291400Z VRB03KT 0300 R30/0800U +RA FG BKN005 BKN010 BKN015 SCT026CB 17/17 Q1024 TEMPO +TSRA=

METAR COR LFMT 291405Z 07003KT 030V200 0300 R30/1000N +TSRA FG BKN005 BKN010 BKN015 SCT026CB 17/17 Q1024 TEMPO +TSRA=

METAR COR LFMT 291405Z 07003KT 030V200 0300 R30/1000N +TSRA FG BKN005 BKN010 BKN015 SCT026CB 17/17 Q1024 TEMPO +TSRA=

METAR LFMT 291430Z NIL=

METAR COR LFMT 291613Z 10015KT 3000 RA BR BKN010 BKN015 BKN020 SCT026CB 19/18 Q1024 TEMPO +TSRA=

METAR COR LFMT 291830Z 03010KT 4500 RA BR FEW010 BKN023 BKN030 FEW033CB 19/18 Q1024=

METAR LFMT 291430Z NIL=

METAR LFMT 290030Z AUTO 06007KT 9000 BKN017/// OVC098/// 20/18 Q1024=

METAR LFMT 290100Z AUTO 07007KT 4300 -RA BR NSC 20/18 Q1024=

Lot 2

METAR: LFLP 021430Z AUTO 34013KT 9999 FEW048/// BKN058/// BKN070/// ///TCU 14/08 Q1011 TAF LONG: LFLP 021100Z 0212/0312 02008KT 9999 BKN020 BKN040 BECMG 0212/0214 SCT030 BKN060 TEMPO 0215/0221 SHRA SCT030TCU OVC060 BECMG 0221/0223 BKN015

LFLL 021500Z 36020KT 9999 FEW026TCU SCT033 BKN140 16/09 Q1012 TEMPO 34015G25KT FEW025TCU

Ensembles de TAF

Lot 1

Exemples de TAF non commentés. Vous y trouverez des sequences de TAF, TAF AMD, TAF COR, TAF NIL. Je les ai mis en forme pour plus de clarté.

TAF LFOT 081400Z 0815/0824 22006KT 9999 NSC
	TEMPO 0815/0824 SHRA BKN030TCU
	PROB40 TEMPO 0818/0824 28020G40KT 3000 TSRAGR BKN020CB=
TAF LFMT 281100Z 2812/2912 11011KT 9999 SCT019 FEW050TCU
	BECMG 2818/2821 04005KT BKN010 OVC090
	PROB30 TEMPO 2821/2906 4000 -RA OVC010
	BECMG 2910/2912 NSW NSC=
TAF LFMT 292300Z 3000/3024 04005KT 7000 -RA BKN015 BKN020 BKN040
	TEMPO 3000/3012 1500 RA BR OVC005 SCT020TCU
	PROB30 TEMPO 3000/3004 VRB15G35KT 0300 TS +RA FG OVC003
	SCT020CB
	TEMPO 3012/3018 TS SHRA SCT020CB
	BECMG 3018/3021 NSW BKN040=
TAF LFMT 300500Z 3006/0106 04005KT 9999 OVC020
	TEMPO 3006/3012 3000 RA BR OVC004 SCT020TCU
	PROB30 TEMPO 3012/3017 TSRA SCT020CB
	BECMG 0100/0102 NSW NSC=
TAF LFMT 301100Z 3012/0112 01012KT 9999 FEW035 BKN053 BKN100
	PROB30 TEMPO 3015/3019 5000 TSRA SCT040CB BKN050
	BECMG 3023/0101 31005KT NSC
	PROB30 TEMPO 0102/0107 4000 BR=
TAF LFMT 301700Z 3018/0118 04010KT 9999 SCT026 BKN060
	BECMG 0100/0102 32005KT NSC
	TEMPO 0102/0107 4000 BR
	BECMG 0110/0113 SCT045TCU=
TAF AMD LFMT 280230Z 2802/2824 02008KT CAVOK
	TEMPO 2802/2809 BKN010
	PROB40 TEMPO 2802/2809 BKN003
	BECMG 2810/2812 14010KT
	BECMG 2818/2820 BKN010 OVC090=
TAF AMD LFMT 290807Z 2908/3006 04010KT 9000 FEW015 BKN040
         TEMPO 2908/3006 2000 RA BR OVC010 SCT020TCU
         PROB40 TEMPO 2908/2924 VRB15G25KT TSRA SCT020CB BKN050=
TAF AMD LFMT 291204Z 2912/3012 12015KT 9000 SCT015 BKN020 BKN040
          TEMPO 2912/2924 04015KT 0500 RA FG OVC008 SCT020TCU
         PROB40 TEMPO 2912/2920 VRB20G30KT TSRA SCT020CB
         TEMPO 3000/3012 3000 RA BR OVC010 SCT020TCU=
TAF AMD LFMT 291407Z 2914/3012 12015KT 9000 SCT015 BKN020 BKN040
          TEMPO 2914/2924 VRB05KT 0300 +RA FG OVC005 SCT020TCU
          PROB40
         TEMPO 2914/2920 VRB15G25KT TSRA SCT020CB
         TEMPO 3000/3012 3000 RA BR OVC010 SCT020TCU=

Lots 2

Vous noterez la longueur de certains TAF du fait d'un bon nombre de groupes d'évolution. Pas facile de se faire une image mentale de toutes ces évolutions dans des moments de météo perturbée !

TAF LFRD 031700Z 0318/0418 21020G30KT 9999 SCT030
	BECMG 0318/0321 18013KT
	TEMPO 0318/0324 4000 SHRA BKN020TCU
	PROB30 TEMPO 0318/0324 TSRA BKN020CB
	BECMG 0400/0403 18023G38KT
	BECMG 0409/0412 21010KT
	TEMPO 0407/0413 5000 SHRA SCT015TCU BKN020
	TEMPO 0407/0413 3000 TSRA BKN015CB=

TAF AMD LFRD 040228Z 0402/0424 19020G30KT 9999 SCT020
	TEMPO 0402/0406 5000 SHRA BKN020TCU
	TEMPO 0402/0406 3000 TSRA BKN015CB
	TEMPO 0402/0408 18025G40KT
	BECMG 0406/0408 5000 SHRA BKN015TCU
	TEMPO 0408/0414 3000 TSRA BKN012CB
	BECMG 0410/0412 21010KT
	BECMG 0414/0416 9999 NSW SCT020
	TEMPO 0419/0424 5000 SHRA BKN015TCU
	TEMPO 0419/0424 3000 TSRA BKN015CB
	BECMG 0420/0422 20020G30KT=

TAF AMD LFRD 040228Z 0402/0424 19020G30KT 9999 SCT020
	TEMPO 0402/0406 5000 SHRA BKN020TCU
	TEMPO 0402/0406 3000 TSRA BKN015CB
	TEMPO 0402/0408 18025G40KT
	BECMG 0406/0408 5000 SHRA BKN015TCU
	TEMPO 0408/0414 3000 TSRA BKN012CB
	BECMG 0410/0412 21010KT
	BECMG 0414/0416 9999 NSW SCT020
	TEMPO 0419/0424 5000 SHRA BKN015TCU
	TEMPO 0419/0424 3000 TSRA BKN015CB
	BECMG 0420/0422 20020G30KT=

TAF LFRD 040500Z 0406/0506 18020G40KT 5000 SHRA BKN015TCU
	TEMPO 0408/0414 3000 TSRA BKN012CB
	BECMG 0408/0410 21010KT 9999 SCT020
	TEMPO 0410/0418 5000 SHRA BKN015TCU
	TEMPO 0410/0416 3000 TSRA BKN015CB
	TEMPO 0421/0424 5000 SHRA BKN015TCU
	TEMPO 0421/0424 3000 TSRA BKN015CB
	BECMG 0422/0424 22015G30KT
	BECMG 0504/0506 18010KT=

LFBP PAU-PYRENEES
TAF LONG: AMD LFBP 240530Z 2406/2506 09005KT 9999 FEW050 BKN080 
TEMPO 2406/2408 BKN010 
BECMG 2410/2412 29010KT SCT050TCU 
TEMPO 2414/2506 28015G25KT 5000 -SHRA 
TEMPO 2414/2420 2500 TSRA SCT008 BKN020CB 
PROB40 TEMPO 2502/2506 3000 TSRA SCT010 SCT020CB=

LFPB PARIS-LE BOURGET
TAF LONG: AMD LFPB 261215Z 2612/2712 17010KT 9999 BKN008 
TEMPO 2612/2614 2000 -RADZ BKN005 
BECMG 2613/2615 BKN016 
TEMPO 2615/2619 16015G25KT 3000 SHRA SCT015TCU 
PROB30 TEMPO 2616/2619 22020G35KT 2000 -TSRA SCT020CB 
BECMG 2704/2706 BKN012 
BECMG 2707/2709 BKN020 
TEMPO 2709/2712 3000 SHRA SCT018TCU 
PROB40 TEMPO 2711/2712 VRB15G25KT 2000 -TSRA BKN015CB=

Lot 3

Séquence de Metaret TAF sur le terrain de LFSB qui utilise un grand nombr de codes d'évolutions dans ses TAF.

201409010000 METAR LFSB 010000Z AUTO 00000KT 9999 SCT036 BKN042 BKN068
                        12/11 Q1018=
201409010030 METAR LFSB 010030Z AUTO 00000KT 9999 SCT035 BKN068 BKN090
                        12/11 Q1018=
201409010100 METAR LFSB 010100Z AUTO 00000KT 9999 FEW010 SCT034 BKN041
                        12/12 Q1019=
201409010130 METAR LFSB 010130Z AUTO VRB02KT 9999 FEW035 BKN060 OVC080
                        12/12 Q1018=
201409010200 METAR LFSB 010200Z AUTO VRB02KT 9999 BKN043 BKN058 BKN068
                        12/12 Q1019=
201409010230 METAR LFSB 010230Z 00000KT 9999 FEW008 BKN046 13/12 Q1019
                        NOSIG=
201409010300 METAR LFSB 010300Z VRB02KT 9999 FEW003 BKN035 13/12 Q1019
                        NOSIG=
201409010330 METAR LFSB 010330Z 29002KT 9000 FEW003 BKN035 BKN056 13/12
                        Q1019 NOSIG=
201409010400 METAR LFSB 010400Z VRB02KT 9999 FEW003 BKN063 12/11 Q1019
                        NOSIG=
201409010430 METAR LFSB 010430Z VRB02KT 9999 FEW003 BKN024 BKN029 12/11
                        Q1019 NOSIG=
201409010500 METAR LFSB 010500Z VRB02KT 9999 FEW003 BKN023 BKN029 12/11
                        Q1019 NOSIG=
201409010530 METAR LFSB 010530Z 33003KT 300V020 9999 FEW002 SCT020 BKN100
                        12/12 Q1019 NOSIG=
201409010600 METAR LFSB 010600Z VRB02KT 9999 FEW002 SCT021 BKN036 13/12
                        Q1020 NOSIG=
201409010630 METAR LFSB 010630Z 00000KT 9999 FEW002 BKN015 BKN033 13/12
                        Q1020 NOSIG=
201409010700 METAR LFSB 010700Z VRB02KT 9999 FEW003 BKN013 BKN030 13/13
                        Q1020 NOSIG=
201409010730 METAR LFSB 010730Z 34004KT 310V020 9999 FEW005 BKN013 BKN076
                        14/12 Q1020 NOSIG=
201409010800 METAR LFSB 010800Z 36003KT 320V080 9999 FEW006 SCT013 BKN073
                        14/12 Q1020 NOSIG=
201409010830 METAR LFSB 010830Z 01006KT 330V050 9999 FEW008 FEW013TCU
                        SCT013 BKN073 15/12 Q1021 NOSIG=
201409010900 METAR LFSB 010900Z NIL=
201409010910 METAR COR LFSB 010910Z 33008KT 290V020 9999 FEW008 FEW013TCU
                        BKN013 BKN073 16/14 Q1021 NOSIG=
201409010930 METAR LFSB 010930Z 33009KT 300V020 9999 SCT015 BKN073 16/13
                        Q1021 NOSIG=
201409011000 METAR LFSB 011000Z 32008KT 270V020 9999 SCT013 BKN073 16/13
                        Q1021 NOSIG=
201409011030 METAR LFSB 011030Z 33009KT 300V020 9999 SCT020 SCT080 17/12
                        Q1021 NOSIG=
201409011100 METAR LFSB 011100Z 33007KT 300V020 9999 SCT023 17/11 Q1021
                        NOSIG=
201409011130 METAR LFSB 011130Z 33006KT 270V050 9999 SCT023 17/11 Q1021
                        NOSIG=
201409011200 METAR LFSB 011200Z 32006KT 300V020 9999 SCT030 SCT073 17/11
                        Q1021 NOSIG=
201409011230 METAR LFSB 011230Z 35006KT 310V050 9999 SCT030 SCT066 17/10
                        Q1021 NOSIG=
201409011300 METAR LFSB 011300Z 34009KT 320V020 9999 SCT033 SCT046 17/10
                        Q1021 NOSIG=
201409011330 METAR LFSB 011330Z 02007KT 330V050 9999 FEW036 SCT046 19/10
                        Q1021 NOSIG=
201409011400 METAR LFSB 011400Z 02008KT 330V060 9999 FEW036 SCT046 19/10
                        Q1021 NOSIG=
201409011430 METAR LFSB 011430Z 36007KT 330V060 9999 FEW036 18/11 Q1020
                        NOSIG=
201409011500 METAR LFSB 011500Z 36007KT 320V090 9999 FEW036 19/11 Q1021
                        NOSIG=
201409011530 METAR LFSB 011530Z 36006KT 320V050 9999 FEW036 19/11 Q1020
                        NOSIG=
201409011600 METAR LFSB 011600Z 36005KT 330V050 9999 FEW036 19/10 Q1021
                        NOSIG=
201409011630 METAR LFSB 011630Z 36007KT 340V050 9999 FEW036 18/11 Q1020
                        NOSIG=
201409011700 METAR LFSB 011700Z 35006KT 320V040 9999 FEW036 18/10 Q1020
                        NOSIG=
201409011730 METAR LFSB 011730Z 34007KT 9999 FEW036 17/10 Q1020 NOSIG=
201409011800 METAR LFSB 011800Z 34006KT 320V020 9999 FEW036 15/10 Q1021
                        NOSIG=
201409011830 METAR LFSB 011830Z 33006KT 320V020 9999 FEW036 13/10 Q1021
                        NOSIG=
201409011900 METAR LFSB 011900Z 33006KT 310V020 9999 FEW050 13/10 Q1021
                        NOSIG=
201409011930 METAR LFSB 011930Z 35003KT 290V050 9999 FEW050 13/10 Q1021
                        NOSIG=
201409012000 METAR LFSB 012000Z 32004KT 300V020 9999 FEW040 12/10 Q1021
                        NOSIG=
201409012030 METAR LFSB 012030Z 34004KT 9999 FEW046 12/10 Q1021 NOSIG=
201409012100 METAR LFSB 012100Z VRB01KT 9999 FEW048 11/10 Q1021 NOSIG=
201409012130 METAR LFSB 012130Z 30002KT 9999 SCT051 11/10 Q1021 NOSIG=
201409012200 METAR LFSB 012200Z 26002KT 9999 BKN053 11/10 Q1021 NOSIG=
201409012230 METAR LFSB 012230Z AUTO 26001KT 9999 SCT054 11/10 Q1021=
201409012300 METAR LFSB 012300Z AUTO 27002KT 9999 2200 NSC 10/09 Q1021=
201409012330 METAR LFSB 012330Z AUTO 24001KT 9999 NSC 09/08 Q1021=
201409020000 METAR LFSB 020000Z AUTO 15002KT 9999 FEW004 09/09 Q1020=
201409020030 METAR LFSB 020030Z AUTO VRB02KT 7000 FEW004 09/08 Q1021=
201409020100 METAR LFSB 020100Z AUTO VRB02KT 8000 1300 R15/P2000 R33/P2000
                        NSC 08/07 Q1021=
201409020130 METAR LFSB 020130Z AUTO 22001KT 5000 BR FEW003 SCT070 08/07
                        Q1021=
201409020200 METAR LFSB 020200Z AUTO 26001KT 8000 NSC 09/08 Q1020=
201409020230 METAR LFSB 020230Z 27001KT CAVOK 09/09 Q1021 NOSIG=
201409020300 METAR COR LFSB 020300Z VRB01KT 8000 FEW001 BKN073 08/08 Q1021
                        TEMPO 4000 MIFG=
201409020330 METAR LFSB 020330Z 24003KT 4000 NSC 08/08 Q1020 TEMPO 4000
                        MIFG=
201409020400 METAR LFSB 020400Z 00000KT 6000 FEW040 BKN073 09/08 Q1021
                        TEMPO 4000 BR=
201409020430 METAR LFSB 020430Z 28003KT 6000 FEW001 BKN076 09/08 Q1021
                        TEMPO 4000 BR=
201409020500 METAR LFSB 020500Z 25001KT 8000 VCFG FEW002 BKN075 09/09
                        Q1021 NOSIG=
201409020530 METAR LFSB 020530Z 21002KT 8000 VCFG FEW002 BKN076 09/09
                        Q1021 NOSIG=
201409020600 METAR LFSB 020600Z NIL=
201409020615 METAR LFSB 020615Z VRB01KT 8000 VCFG FEW002 BKN076 10/10
                        Q1021 NOSIG=
201409020630 METAR LFSB 020630Z 00000KT 8000 FEW002 SCT076 11/10 Q1021
                        NOSIG=
201409020700 METAR LFSB 020700Z VRB02KT 8000 FEW002 BKN076 11/11 Q1021
                        NOSIG=
201409020730 METAR LFSB 020730Z 32003KT 290V020 9000 FEW004 BKN080 12/11
                        Q1021 NOSIG=
201409020800 METAR LFSB 020800Z 34003KT 300V020 9000 FEW011 SCT083 13/12
                        Q1021 NOSIG=
201409020830 METAR LFSB 020830Z 33004KT 260V020 9999 FEW015 14/11 Q1021
                        NOSIG=
201409020900 METAR LFSB 020900Z VRB02KT 9999 FEW016 16/11 Q1021 NOSIG=
201409020930 METAR LFSB 020930Z VRB03KT 9999 FEW021 17/11 Q1021 NOSIG=
201409021000 METAR LFSB 021000Z 36003KT 280V070 9999 FEW028 18/10 Q1020
                        NOSIG=
201409021030 METAR LFSB 021030Z 36006KT 300V060 9999 FEW028 SCT083 19/13
                        Q1020 NOSIG=
201409021100 METAR LFSB 021100Z 01006KT 330V050 9999 FEW028 BKN080 19/13
                        Q1020 NOSIG=
201409021130 METAR LFSB 021130Z VRB04KT 9999 FEW029 BKN083 19/12 Q1020
                        NOSIG=
201409021200 METAR LFSB 021200Z 02005KT 330V080 9999 FEW030 BKN086 19/12
                        Q1020 NOSIG=
201409021230 METAR LFSB 021230Z 01005KT 330V070 9999 FEW033 SCT083 19/11
                        Q1020 NOSIG=
201409021300 METAR LFSB 021300Z VRB04KT 9999 SCT033 BKN083 20/12 Q1020
                        NOSIG=
201409021330 METAR LFSB 021330Z 03005KT 340V070 9999 FEW036 SCT053 BKN073
                        20/11 Q1020 NOSIG=
201409021400 METAR LFSB 021400Z 01006KT 330V050 9999 FEW026 BKN093 19/13
                        Q1020 NOSIG=
201409021430 METAR LFSB 021430Z 01006KT 330V100 9999 FEW046 SCT086 20/12
                        Q1020 NOSIG=
201409021500 METAR LFSB 021500Z 02007KT 330V070 9999 FEW033 BKN083 20/12
                        Q1020 NOSIG=
201409021530 METAR LFSB 021530Z 36005KT 340V050 9999 FEW033 SCT076 19/12
                        Q1020 NOSIG=
201409021600 METAR LFSB 021600Z 36005KT 330V050 9999 FEW033 BKN086 19/12
                        Q1019 NOSIG=
201409021630 METAR LFSB 021630Z 02006KT 340V090 9999 FEW035 BKN086 19/12
                        Q1020 NOSIG=
201409021700 METAR LFSB 021700Z 35005KT 9999 FEW035 BKN086 19/13 Q1020
                        NOSIG=
201409021730 METAR LFSB 021730Z 35006KT 320V020 9999 FEW033 BKN093 19/13
                        Q1020 NOSIG=
201409021800 METAR LFSB 021800Z NIL=
201409021810 METAR LFSB 021810Z 01004KT 340V050 9999 FEW033 BKN093 17/13
                        Q1020 NOSIG=
201409021830 METAR LFSB 021830Z 01004KT 340V050 9999 FEW033 SCT050 BKN093
                        17/13 Q1020 NOSIG=
201409021900 METAR LFSB 021900Z 36003KT 340V050 9999 FEW030 BKN046 BKN100
                        17/13 Q1020 NOSIG=
201409021930 METAR LFSB 021930Z 36003KT 330V050 9999 BKN040 BKN093 17/13
                        Q1020 NOSIG=
201409022000 METAR LFSB 022000Z VRB02KT 9999 BKN036 BKN073 16/14 Q1020
                        NOSIG=
201409022030 METAR LFSB 022030Z VRB03KT 9999 FEW036 BKN060 BKN093 17/13
                        Q1020 NOSIG=
201409022100 METAR LFSB 022100Z VRB02KT 9999 FEW043 BKN060 16/14 Q1020
                        NOSIG=
201409022130 METAR LFSB 022130Z VRB01KT 9999 FEW046 BKN060 15/14 Q1020
                        NOSIG=
201409022200 METAR LFSB 022200Z 28002KT 9999 FEW040 BKN053 15/14 Q1020
                        NOSIG=
201409022230 METAR LFSB 022230Z NIL=
201409022300 METAR LFSB 022300Z NIL=
201409022330 METAR LFSB 022330Z NIL=
201409030000 METAR LFSB 030000Z NIL=
201409030030 METAR LFSB 030030Z NIL=
201409030100 METAR LFSB 030100Z NIL=
201409030130 METAR LFSB 030130Z NIL=
201409030200 METAR LFSB 030200Z NIL=
201409030230 METAR LFSB 030230Z VRB02KT 4500 R33/1100D BR NSC 11/10 Q1019
                        TEMPO 0800 BCFG=
201409030300 METAR LFSB 030300Z 25003KT 230V290 4500 BR FEW004 10/09 Q1018
                        TEMPO 0800 BCFG=
201409030330 METAR LFSB 030330Z 27002KT 4500 BR FEW004 09/08 Q1019 TEMPO
                        0800 BCFG=
201409030400 METAR COR LFSB 030400Z VRB03KT 3000 VCFG SCT003 09/09 Q1019
                        TEMPO 0500 BCFG BKN001=
201409030430 METAR LFSB 030430Z VRB03KT 3000 VCFG SCT003 10/10 Q1019 TEMPO
                        0500 BCFG BKN001=
201409030500 METAR LFSB 030500Z 33006KT 320V020 3000 R33/1300U VCFG FEW004
                        SCT036 10/09 Q1019 TEMPO 0500 BCFG
                        BKN001=
201409030530 METAR LFSB 030530Z 33003KT 310V020 4500 VCFG FEW003 SCT035
                        10/10 Q1019 NOSIG=
201409030600 METAR LFSB 030600Z 33005KT 300V020 4500 BCFG FEW002 BKN040
                        11/11 Q1019 NOSIG=
201409030630 METAR LFSB 030630Z 31003KT 4500 VCFG BR FEW003 BKN040 12/11
                        Q1018 BECMG 9999 NSW=
201409030700 METAR LFSB 030700Z VRB02KT 5000 BR SCT003 BKN040 12/12 Q1018
                        BECMG 9999 NSW=
201409030730 METAR LFSB 030730Z 35004KT 310V050 7000 FEW003 BKN040 13/13
                        Q1018 NOSIG=
201409030800 METAR LFSB 030800Z 35004KT 310V050 8000 SCT006 BKN040 14/13
                        Q1018 NOSIG=
201409030830 METAR LFSB 030830Z 36007KT 330V040 9999 FEW008 BKN040 15/13
                        Q1018 NOSIG=
201409030900 METAR LFSB 030900Z 01006KT 330V060 9999 FEW012 BKN040 16/13
                        Q1018 NOSIG=
201409030930 METAR LFSB 030930Z 01006KT 350V050 9999 FEW013 BKN040 16/14
                        Q1018 NOSIG=
201409031000 METAR LFSB 031000Z 02006KT 340V060 9999 FEW015 BKN040 17/13
                        Q1018 NOSIG=
201409031030 METAR LFSB 031030Z 01005KT 330V070 9999 FEW018 BKN040 BKN050
                        18/14 Q1017 NOSIG=
201409031100 METAR LFSB 031100Z 02006KT 330V050 9999 FEW020 BKN040 BKN050
                        18/13 Q1017 NOSIG=
201409031130 METAR LFSB 031130Z 02005KT 340V060 9999 FEW021 SCT030 BKN040
                        18/14 Q1017 NOSIG=
201409031200 METAR LFSB 031200Z 36009KT 340V050 9999 FEW023 SCT030 BKN040
                        18/14 Q1017 NOSIG=
201409031230 METAR LFSB 031230Z 01008KT 330V060 9999 FEW022 SCT030 BKN040
                        18/14 Q1017 NOSIG=
201409031300 METAR LFSB 031300Z 36010KT 330V050 9999 FEW022 BKN030 BKN040
                        18/14 Q1017 NOSIG=
201409031330 METAR LFSB 031330Z 36009KT 330V050 9999 FEW022 BKN030 BKN040
                        17/14 Q1017 NOSIG=
201409031400 METAR LFSB 031400Z 36009KT 340V050 9999 FEW023 BKN033 BKN046
                        17/14 Q1017 NOSIG=
201409031430 METAR LFSB 031430Z 36009KT 340V050 9999 FEW025 SCT040 BKN050
                        18/14 Q1017 NOSIG=
201409031500 METAR LFSB 031500Z 36009KT 9999 FEW025 BKN040 BKN050 17/14
                        Q1017 NOSIG=
201409031530 METAR LFSB 031530Z 35010KT 9999 FEW025 BKN040 BKN050 17/14
                        Q1017 NOSIG=
201409031600 METAR LFSB 031600Z 36007KT 330V050 9999 FEW025 SCT040 BKN050
                        17/13 Q1017 NOSIG=
201409031630 METAR LFSB 031630Z 36008KT 9999 FEW025 SCT040 BKN046 17/13
                        Q1017 NOSIG=
201409031700 METAR LFSB 031700Z 35008KT 330V050 9999 FEW025 SCT040 BKN050
                        16/13 Q1017 NOSIG=
201409031730 METAR LFSB 031730Z 35009KT 9999 FEW025 SCT036 BKN045 16/13
                        Q1017 NOSIG=
201409031800 METAR LFSB 031800Z 36010KT 340V050 9999 FEW023 SCT036 BKN043
                        16/13 Q1017 NOSIG=
201409031830 METAR LFSB 031830Z 35010KT 9999 FEW023 SCT036 BKN043 16/13
                        Q1017 NOSIG=
201409031900 METAR LFSB 031900Z 33008KT 310V020 9999 OVC045 15/13 Q1017
                        NOSIG=
201409031930 METAR LFSB 031930Z 33006KT 300V020 9999 OVC045 15/13 Q1017
                        NOSIG=
201409032000 METAR LFSB 032000Z 33006KT 290V020 9999 OVC043 15/13 Q1017
                        NOSIG=
201409032030 METAR LFSB 032030Z 34005KT 310V020 9999 FEW033 OVC045 15/13
                        Q1017 NOSIG=
201409032100 METAR LFSB 032100Z 33006KT 310V020 9999 FEW033 OVC043 15/13
                        Q1017 NOSIG=
201409032130 METAR LFSB 032130Z 32004KT 300V020 9999 OVC040 15/13 Q1017
                        NOSIG=
201409032200 METAR LFSB 032200Z 33004KT 300V020 9999 FEW033 OVC040 15/13
                        Q1017 NOSIG=
201409032230 METAR LFSB 032230Z AUTO 30004KT 290V020 9999 FEW009 OVC043
                        14/13 Q1017=
201409032300 METAR LFSB 032300Z AUTO VRB03KT 9999 OVC042 14/13 Q1017=
201409032330 METAR LFSB 032330Z AUTO 29003KT 9999 OVC042 14/13 Q1017=
201409040000 METAR LFSB 040000Z AUTO 30003KT 9999 OVC043 14/13 Q1017=
201409040030 METAR LFSB 040030Z AUTO 30003KT 9999 OVC044 14/13 Q1017=
201409040100 METAR LFSB 040100Z AUTO VRB03KT 9999 OVC044 14/13 Q1016=
201409040130 METAR LFSB 040130Z AUTO VRB02KT 9999 FEW008 OVC044 14/13
                        Q1016=
201409040200 METAR LFSB 040200Z AUTO VRB02KT 9999 SCT008 OVC043 14/13
                        Q1016=
201409040230 METAR LFSB 040230Z VRB02KT 8000 BKN008 BKN042 14/13 Q1016
                        NOSIG=
201409040300 METAR LFSB 040300Z NIL=
201409040330 METAR LFSB 040330Z VRB02KT 8000 FEW009 BKN042 14/13 Q1016
                        NOSIG=
201409040400 METAR LFSB 040400Z VRB02KT 7000 SCT006 BKN040 14/13 Q1016
                        NOSIG=
201409040430 METAR LFSB 040430Z 29002KT 7000 SCT005 BKN038 14/14 Q1016
                        NOSIG=
201409040500 METAR LFSB 040500Z 27002KT 5000 BR BKN005 BKN038 14/13 Q1016
                        NOSIG=
201409040518 METAR COR LFSB 040518Z 26002KT 5000 BR OVC005 14/13 Q1016
                        NOSIG=
201409040530 METAR LFSB 040530Z 27002KT 4000 BR OVC006 14/13 Q1016 NOSIG=
201409040600 METAR LFSB 040600Z 27002KT 4000 BR BKN006 BKN036 14/14 Q1016
                        NOSIG=
201409040630 METAR LFSB 040630Z VRB02KT 4500 BR SCT007 BKN038 14/14 Q1016
                        NOSIG=
201409040700 METAR LFSB 040700Z VRB02KT 7000 FEW004 SCT008 BKN038 15/14
                        Q1016 NOSIG=
201409040730 METAR LFSB 040730Z VRB02KT 8000 SCT006 SCT025 BKN230 16/14
                        Q1016 NOSIG=
201409040800 METAR LFSB 040800Z VRB03KT 9999 FEW008 BKN250 16/14 Q1016
                        NOSIG=
201409040830 METAR LFSB 040830Z VRB02KT 9999 FEW036 BKN250 18/14 Q1016
                        NOSIG=
201409040900 METAR LFSB 040900Z VRB01KT 9999 FEW036 SCT250 19/14 Q1016
                        NOSIG=
201409040930 METAR LFSB 040930Z 13005KT 050V180 9999 FEW019 SCT160 20/14
                        Q1016 NOSIG=
201409041000 METAR LFSB 041000Z 12003KT 350V160 9999 FEW021 SCT028 20/14
                        Q1016 NOSIG=
201409041030 METAR LFSB 041030Z VRB03KT 9999 FEW021 SCT028 21/14 Q1016
                        NOSIG=
201409041100 METAR LFSB 041100Z 06004KT 320V120 9999 FEW025 SCT031 22/14
                        Q1016 NOSIG=
201409041130 METAR LFSB 041130Z 03005KT 330V110 9999 FEW025 SCT031 22/14
                        Q1016 NOSIG=
201409041200 METAR LFSB 041200Z VRB03KT 9999 FEW030 SCT250 22/15 Q1016
                        NOSIG=
201409041230 METAR LFSB 041230Z 35005KT 300V050 9999 FEW030 SCT250 22/15
                        Q1016 NOSIG=
201409041300 METAR LFSB 041300Z NIL=
201409041330 METAR LFSB 041330Z VRB04KT 9999 FEW030 SCT250 23/16 Q1015
                        NOSIG=
201409041400 METAR LFSB 041400Z 35005KT 320V050 9999 FEW030 SCT250 23/15
                        Q1015 NOSIG=
201409041430 METAR LFSB 041430Z 36005KT 300V050 9999 FEW040 SCT250 23/15
                        Q1015 NOSIG=
201409041500 METAR LFSB 041500Z 01005KT 300V070 9999 FEW040 SCT140 23/14
                        Q1015 NOSIG=
201409041530 METAR LFSB 041530Z 01004KT 310V060 9999 FEW040 SCT140 23/14
                        Q1015 NOSIG=
201409041600 METAR LFSB 041600Z 01005KT 330V090 CAVOK 23/15 Q1015 NOSIG=
201409041630 METAR LFSB 041630Z 35007KT CAVOK 23/15 Q1015 NOSIG=
201409041700 METAR LFSB 041700Z 34007KT CAVOK 22/15 Q1015 NOSIG=
201409041730 METAR LFSB 041730Z 35006KT CAVOK 21/15 Q1015 NOSIG=
201409041800 METAR LFSB 041800Z 35005KT CAVOK 19/14 Q1015 NOSIG=
201409041830 METAR LFSB 041830Z 34006KT 320V020 CAVOK 18/15 Q1015 NOSIG=
201409041900 METAR LFSB 041900Z 33005KT 310V020 CAVOK 17/15 Q1016 NOSIG=
201409041930 METAR LFSB 041930Z 32004KT 300V020 CAVOK 17/14 Q1016 NOSIG=
201409042000 METAR LFSB 042000Z 33005KT 320V020 CAVOK 16/14 Q1016 NOSIG=
201409042030 METAR LFSB 042030Z 33005KT 320V020 CAVOK 15/14 Q1016 NOSIG=
201409042100 METAR LFSB 042100Z 33004KT 290V020 CAVOK 16/14 Q1016 NOSIG=
201409042130 METAR LFSB 042130Z 32005KT 300V020 CAVOK 15/14 Q1016 NOSIG=
201409042200 METAR LFSB 042200Z 33004KT 320V020 CAVOK 14/13 Q1016 NOSIG=
201409042230 METAR LFSB 042230Z AUTO VRB02KT 9999 NSC 14/13 Q1016=
201409042300 METAR LFSB 042300Z AUTO VRB02KT 9999 NSC 14/13 Q1016=
201409042330 METAR LFSB 042330Z AUTO 28002KT 9999 NSC 14/13 Q1016=
201409050000 METAR LFSB 050000Z AUTO 26003KT 9999 NSC 14/13 Q1016=
201409050030 METAR LFSB 050030Z AUTO 26001KT 8000 NSC 13/12 Q1016=
201409050100 METAR LFSB 050100Z AUTO 23003KT 6000 FEW010 BKN130 13/12
                        Q1016=
201409050130 METAR LFSB 050130Z AUTO 00000KT 9000 NSC 12/12 Q1016=
201409050200 METAR LFSB 050200Z 00000KT 9000 NSC 13/12 Q1016 TEMPO 5000
                        BR=
201409050230 METAR LFSB 050230Z 23002KT 7000 NSC 12/12 Q1015 TEMPO 5000
                        BR=
201409050300 METAR LFSB 050300Z 00000KT 6000 MIFG NSC 12/12 Q1015 TEMPO
                        5000=
201409050330 METAR LFSB 050330Z 28003KT 7000 MIFG NSC 12/11 Q1015 TEMPO
                        5000=
201409050400 METAR LFSB 050400Z 00000KT 6000 MIFG NSC 12/11 Q1015 TEMPO
                        5000=
201409050430 METAR LFSB 050430Z 24003KT 4000 BR NSC 12/11 Q1015 TEMPO
                        5000=
201409050500 METAR LFSB 050500Z 00000KT 3000 BR NSC 12/11 Q1015 TEMPO
                        5000=
201409050530 METAR LFSB 050530Z 00000KT 6000 VCSH FEW046 FEW050TCU BKN150
                        13/12 Q1015 TEMPO 4000 -SHRA BR SCT040TCU=
201409050600 METAR LFSB 050600Z VRB01KT 7000 VCSH FEW046 FEW050TCU SCT060
                        BKN140 13/13 Q1016 TEMPO 5000 -SHRA
                        BR SCT040TCU=
201409050630 METAR LFSB 050630Z 00000KT 8000 VCSH FEW040 SCT060 BKN140
                        14/14 Q1016 TEMPO FEW040TCU=
201409050700 METAR LFSB 050700Z VRB01KT 9000 FEW040 BKN100 BKN200 14/14
                        Q1016 NOSIG=
201409050730 METAR LFSB 050730Z VRB01KT 9000 FEW003 BKN100 BKN200 15/15
                        Q1016 NOSIG=
201409050800 METAR LFSB 050800Z VRB01KT 9999 FEW003 SCT100 BKN200 17/16
                        Q1016 NOSIG=
201409050830 METAR LFSB 050830Z 13003KT 090V160 9999 FEW005 SCT100 BKN200
                        18/16 Q1016 NOSIG=
201409050900 METAR LFSB 050900Z 14004KT 050V180 9999 FEW005 BKN150 BKN200
                        19/16 Q1016 NOSIG=
201409050930 METAR COR LFSB 050930Z 13005KT 100V170 9999 FEW016 BKN150
                        BKN200 20/16 Q1016 BECMG FEW035TCU=
201409051000 METAR LFSB 051000Z 14005KT 090V180 9999 FEW020 BKN150 BKN200
                        21/17 Q1016 BECMG FEW035TCU=
201409051030 METAR LFSB 051030Z 12005KT 080V180 9999 FEW023 FEW026TCU
                        SCT150 BKN260 23/17 Q1015 NOSIG=
201409051100 METAR LFSB 051100Z 11005KT 050V170 9999 FEW026 FEW030TCU
                        SCT110 BKN260 24/16 Q1015 NOSIG=
201409051130 METAR LFSB 051130Z 11006KT 050V150 9999 FEW030 FEW035TCU
                        SCT110 BKN180 24/16 Q1015 NOSIG=
201409051200 METAR LFSB 051200Z 10005KT 050V140 9999 FEW033 FEW040TCU
                        BKN180 25/16 Q1015 NOSIG=
201409051230 METAR LFSB 051230Z VRB04KT 9999 FEW040 FEW045TCU BKN210 25/16
                        Q1014 NOSIG=
201409051300 METAR LFSB 051300Z VRB05KT 9999 FEW040 FEW045CB BKN230 25/16
                        Q1014 NOSIG=
201409051330 METAR LFSB 051330Z 08004KT 350V140 9999 FEW040 FEW045CB BKN230
                        25/15 Q1014 TEMPO 36005KT FEW045CB=
201409051400 METAR LFSB 051400Z 10005KT 050V130 9999 FEW040 FEW045TCU
                        BKN230 25/15 Q1013 TEMPO 36005KT
                        FEW045CB=
201409051430 METAR LFSB 051430Z 10005KT 050V180 9999 FEW040 FEW045CB BKN230
                        26/15 Q1013 TEMPO 36005KT=
201409051500 METAR LFSB 051500Z 07005KT 350V110 9999 FEW040 FEW045CB BKN230
                        26/15 Q1013 TEMPO 36005KT=
201409051530 METAR LFSB 051530Z 08004KT 350V140 9999 FEW040 FEW045CB BKN230
                        26/14 Q1013 TEMPO 36005KT=
201409051600 METAR LFSB 051600Z 08003KT 350V140 9999 FEW040 FEW045CB BKN230
                        26/13 Q1013 TEMPO 36005KT=
201409051630 METAR LFSB 051630Z VRB03KT 9999 FEW040 FEW045CB SCT230 26/13
                        Q1013 NOSIG=
201409051700 METAR LFSB 051700Z VRB02KT 9999 FEW040TCU FEW045CB SCT230
                        25/12 Q1013 NOSIG=
201409051730 METAR LFSB 051730Z VRB02KT 9999 FEW040TCU FEW045CB SCT230
                        22/15 Q1013 NOSIG=
201409051800 METAR LFSB 051800Z VRB02KT 9999 FEW040TCU FEW045CB SCT230
                        20/15 Q1013 NOSIG=
201409051830 METAR LFSB 051830Z 33003KT 320V020 9999 FEW040TCU FEW045CB
                        SCT090 18/15 Q1014 NOSIG=
201409051900 METAR LFSB 051900Z 32004KT 310V020 9999 FEW050 FEW053CB SCT090
                        17/15 Q1014 NOSIG=
201409051930 METAR LFSB 051930Z 33006KT 310V020 9999 FEW050 FEW083CB SCT090
                        18/16 Q1014 NOSIG=
201409052000 METAR LFSB 052000Z 33005KT 310V020 9999 FEW050 SCT090 17/15
                        Q1014 NOSIG=
201409052030 METAR LFSB 052030Z 34005KT 9999 FEW050 SCT090 17/15 Q1014
                        NOSIG=
201409052100 METAR LFSB 052100Z 33004KT 320V020 CAVOK 16/14 Q1014 NOSIG=
201409052130 METAR COR LFSB 052130Z 00000KT CAVOK 16/16 Q1014 NOSIG=
201409052200 METAR LFSB 052200Z 00000KT 9000 NSC 16/15 Q1014 NOSIG=
201409052230 METAR LFSB 052230Z AUTO 00000KT 9999 NSC 15/14 Q1014=
201409052300 METAR LFSB 052300Z AUTO VRB01KT 1700 0750 R15/P2000 R33/1600D
                        BCFG NSC 14/14 Q1014=
201409052330 METAR LFSB 052330Z AUTO VRB01KT 6000 FEW002 SCT008 14/13
                        Q1014=
201409060000 METAR LFSB 060000Z AUTO 23002KT 7000 FEW003 14/13 Q1014=
201409060030 METAR LFSB 060030Z AUTO 00000KT 8000 NSC 13/13 Q1014=
201409060100 METAR LFSB 060100Z AUTO VRB02KT 9000 NSC 14/13 Q1014=
201409060130 METAR LFSB 060130Z AUTO 00000KT 7000 NSC 13/13 Q1014=
201409060200 METAR LFSB 060200Z AUTO VRB02KT 9999 NSC 13/12 Q1014=
201409060230 METAR LFSB 060230Z VRB01KT 7000 NSC 13/12 Q1014 NOSIG=
201409060300 METAR LFSB 060300Z 19003KT 7000 NSC 13/13 Q1014 NOSIG=
201409060330 METAR LFSB 060330Z 00000KT 7000 NSC 13/12 Q1014 NOSIG=
201409060400 METAR LFSB 060400Z 17004KT 140V200 9000 FEW003 14/13 Q1014
                        NOSIG=
201409060430 METAR LFSB 060430Z 23004KT 6000 FEW003 13/12 Q1014 NOSIG=
201409060500 METAR LFSB 060500Z 18003KT 6000 MIFG FEW003 SCT300 13/13
                        Q1013 NOSIG=
201409060530 METAR LFSB 060530Z 19004KT CAVOK 13/13 Q1014 NOSIG=
201409060600 METAR LFSB 060600Z VRB03KT CAVOK 14/14 Q1014 NOSIG=
201409060630 METAR LFSB 060630Z VRB03KT CAVOK 16/15 Q1014 NOSIG=
201409060700 METAR LFSB 060700Z 13004KT 100V170 CAVOK 17/15 Q1014 NOSIG=
201409060730 METAR LFSB 060730Z 16004KT CAVOK 18/15 Q1014 NOSIG=
201409060800 METAR LFSB 060800Z 16003KT 110V250 9999 FEW025 19/16 Q1014
                        NOSIG=
201409060830 METAR LFSB 060830Z 15003KT 090V230 9999 FEW026 20/15 Q1014
                        NOSIG=
201409060900 METAR LFSB 060900Z VRB02KT 9999 FEW030 22/16 Q1014 NOSIG=
201409060930 METAR LFSB 060930Z VRB02KT 9999 FEW030 23/16 Q1014 NOSIG=
201409061000 METAR LFSB 061000Z VRB02KT 9999 FEW030 23/16 Q1014 NOSIG=
201409061030 METAR LFSB 061030Z VRB03KT 9999 FEW030TCU FEW033CB 24/17
                        Q1014 NOSIG=
201409061100 METAR LFSB 061100Z VRB02KT 9999 FEW033TCU FEW036CB 25/17
                        Q1013 NOSIG=
201409061130 METAR LFSB 061130Z VRB02KT 9999 FEW033TCU FEW040CB 25/17
                        Q1013 NOSIG=
201409061200 METAR LFSB 061200Z 32004KT 270V020 9999 FEW036TCU FEW043CB
                        24/16 Q1013 NOSIG=
201409061230 METAR LFSB 061230Z 26003KT 210V020 9999 FEW040 FEW046CB 26/17
                        Q1013 NOSIG=
201409061300 METAR LFSB 061300Z VRB03KT 9999 FEW043 FEW050TCU 26/16 Q1012
                        NOSIG=
201409061330 METAR LFSB 061330Z 29004KT 240V020 9999 FEW046 FEW050TCU
                        27/15 Q1012 NOSIG=
201409061400 METAR LFSB 061400Z VRB04KT 9999 FEW046 FEW050TCU 27/15 Q1012
                        NOSIG=
201409061430 METAR LFSB 061430Z 32003KT 230V020 9999 FEW050 FEW053TCU
                        27/15 Q1012 NOSIG=
201409061500 METAR LFSB 061500Z 32004KT 220V020 9999 FEW050 FEW053TCU
                        26/15 Q1012 NOSIG=
201409061530 METAR LFSB 061530Z 29004KT 240V020 9999 FEW053 FEW056TCU
                        26/15 Q1012 NOSIG=
201409061600 METAR LFSB 061600Z 29005KT 260V320 9999 FEW053 FEW056TCU
                        26/15 Q1012 NOSIG=
201409061630 METAR LFSB 061630Z 28004KT 250V310 9999 FEW053 FEW056TCU
                        26/15 Q1012 NOSIG=
201409061700 METAR LFSB 061700Z 28004KT 9999 FEW053 FEW056TCU 25/15 Q1012
                        NOSIG=
201409061730 METAR LFSB 061730Z 27005KT 9999 FEW053CB 24/15 Q1012 NOSIG=
201409061800 METAR LFSB 061800Z 29005KT 9999 FEW053TCU 21/15 Q1012 NOSIG=
201409061830 METAR LFSB 061830Z 30005KT 280V020 9999 FEW053TCU 20/15 Q1013
                        NOSIG=
201409061900 METAR LFSB 061900Z 31004KT 9999 FEW053TCU 18/15 Q1013 NOSIG=
201409061930 METAR LFSB 061930Z 28002KT 9999 FEW053CB 17/15 Q1013 NOSIG=
201409062000 METAR LFSB 062000Z 25004KT 9999 FEW053TCU SCT076 17/15 Q1013
                        NOSIG=
201409062030 METAR LFSB 062030Z VRB01KT CAVOK 18/15 Q1013 NOSIG=
201409062100 METAR LFSB 062100Z VRB02KT CAVOK 16/15 Q1013 NOSIG=
201409062130 METAR LFSB 062130Z VRB02KT CAVOK 15/14 Q1013 NOSIG=
201409062200 METAR LFSB 062200Z 00000KT CAVOK 16/15 Q1014 NOSIG=
201409062230 METAR LFSB 062230Z AUTO 24001KT 9999 NSC 15/14 Q1013=
201409062300 METAR LFSB 062300Z AUTO VRB02KT 9999 NSC 16/15 Q1014=
201409062330 METAR LFSB 062330Z AUTO 25003KT 9999 NSC 15/14 Q1014=
201409070000 METAR LFSB 070000Z AUTO 00000KT 9999 NSC 15/14 Q1014=
201409070030 METAR LFSB 070030Z AUTO 00000KT 9999 NSC 14/14 Q1014=
201409070100 METAR LFSB 070100Z AUTO VRB01KT 9999 NSC 14/14 Q1014=
201409070130 METAR LFSB 070130Z AUTO 25002KT 9999 NSC 14/13 Q1014=
201409070200 METAR LFSB 070200Z AUTO VRB01KT 9999 NSC 14/14 Q1014=
201409070230 METAR LFSB 070230Z VRB02KT CAVOK 15/14 Q1014 NOSIG=
201409070300 METAR LFSB 070300Z 21003KT 9999 FEW016 SCT080 BKN230 14/14
                        Q1014 NOSIG=
201409070330 METAR LFSB 070330Z 00000KT 9999 FEW016 BKN250 14/13 Q1014
                        NOSIG=
201409070400 METAR LFSB 070400Z 00000KT 9000 NSC 14/13 Q1014 TEMPO 6000=
201409070430 METAR LFSB 070430Z 00000KT 7000 MIFG FEW010 BKN250 13/13
                        Q1014 TEMPO 1500 BCFG=
201409070500 METAR LFSB 070500Z 00000KT 8000 FEW010 BKN056 BKN250 14/13
                        Q1014 NOSIG=
201409070530 METAR LFSB 070530Z VRB01KT 9000 FEW006 BKN055 BKN075 14/13
                        Q1014 NOSIG=
201409070600 METAR LFSB 070600Z 17003KT 140V230 9999 FEW007 SCT055 BKN080
                        15/14 Q1014 NOSIG=
201409070630 METAR LFSB 070630Z VRB02KT 9999 FEW008 SCT055 BKN080 16/15
                        Q1015 NOSIG=
201409070700 METAR LFSB 070700Z 17003KT 130V210 9999 FEW010 SCT060 17/16
                        Q1015 NOSIG=
201409070730 METAR LFSB 070730Z 12003KT 080V170 9999 FEW013 SCT055 19/15
                        Q1015 NOSIG=
201409070800 METAR LFSB 070800Z 12003KT 080V170 9999 FEW015 SCT055 18/15
                        Q1015 NOSIG=
201409070830 METAR LFSB 070830Z VRB02KT 9999 FEW020 20/16 Q1015 NOSIG=
201409070900 METAR LFSB 070900Z VRB02KT 9999 FEW025TCU SCT280 21/16 Q1015
                        NOSIG=
201409070930 METAR LFSB 070930Z VRB02KT 9999 FEW025TCU SCT280 22/16 Q1015
                        NOSIG=
201409071000 METAR LFSB 071000Z VRB03KT 9999 FEW025TCU SCT280 23/16 Q1015
                        TEMPO FM1100 FEW035CB=
201409071030 METAR LFSB 071030Z 01003KT 280V080 9999 FEW030TCU SCT280
                        23/16 Q1015 TEMPO FM1100 FEW035CB=
201409071100 METAR LFSB 071100Z VRB03KT 9999 FEW030 FEW035CB SCT280 24/16
                        Q1014 NOSIG=
201409071130 METAR LFSB 071130Z VRB02KT 9999 FEW030 FEW035CB SCT280 25/17
                        Q1014 NOSIG=
201409071200 METAR LFSB 071200Z 35003KT 9999 FEW035 FEW040CB SCT270 25/17
                        Q1014 NOSIG=
201409071230 METAR LFSB 071230Z 34003KT 9999 FEW035 FEW040CB SCT270 25/16
                        Q1014 NOSIG=
201409071300 METAR LFSB 071300Z 31004KT 270V020 9999 FEW040 FEW045CB SCT270
                        25/16 Q1014 NOSIG=
201409071330 METAR LFSB 071330Z 32004KT 9999 FEW040 FEW045CB SCT270 25/16
                        Q1013 NOSIG=
201409071400 METAR LFSB 071400Z 01004KT 320V110 9999 FEW040 FEW045TCU
                        SCT270 26/17 Q1013 NOSIG=
201409071430 METAR LFSB 071430Z VRB02KT 9999 FEW040 FEW045CB SCT270 26/15
                        Q1013 TEMPO FEW040=
201409071500 METAR LFSB 071500Z 32003KT 260V050 9999 FEW045 FEW050TCU
                        SCT270 26/15 Q1013 TEMPO FEW050CB=
201409071530 METAR LFSB 071530Z 32004KT 290V020 9999 FEW050 FEW050TCU
                        SCT280 26/15 Q1013 TEMPO FEW050CB=
201409071600 METAR LFSB 071600Z 33003KT 9999 FEW050 FEW050TCU SCT280 26/14
                        Q1013 NOSIG=
201409071630 METAR LFSB 071630Z 33005KT 300V020 9999 FEW050 SCT280 26/15
                        Q1013 NOSIG=
201409071700 METAR LFSB 071700Z 34003KT 300V020 9999 FEW050 SCT280 25/14
                        Q1013 NOSIG=
201409071730 METAR LFSB 071730Z 36003KT 330V060 CAVOK 24/16 Q1013 NOSIG=
201409071800 METAR LFSB 071800Z 34004KT 320V020 CAVOK 21/17 Q1013 NOSIG=
201409071830 METAR LFSB 071830Z 31005KT 300V020 CAVOK 20/16 Q1014 NOSIG=
201409071900 METAR LFSB 071900Z 32004KT 300V020 CAVOK 19/16 Q1014 NOSIG=
201409071930 METAR LFSB 071930Z 33004KT 310V020 CAVOK 19/16 Q1014 NOSIG=
201409072000 METAR LFSB 072000Z 32005KT 320V020 CAVOK 18/15 Q1015 NOSIG=
201409072030 METAR LFSB 072030Z 33006KT 320V020 CAVOK 18/15 Q1015 NOSIG=
201409072100 METAR LFSB 072100Z 33004KT 310V020 CAVOK 17/15 Q1015 NOSIG=
201409072130 METAR LFSB 072130Z 31006KT 290V020 CAVOK 17/15 Q1015 NOSIG=
201409072200 METAR LFSB 072200Z 32003KT 300V020 CAVOK 17/15 Q1015 NOSIG=
201409072230 METAR LFSB 072230Z AUTO 00000KT 9999 NSC 16/15 Q1015=
201409072300 METAR LFSB 072300Z AUTO 00000KT 9999 NSC 16/14 Q1015=
201409072330 METAR LFSB 072330Z AUTO 28002KT 8000 NSC 15/14 Q1015=
201409080000 METAR LFSB 080000Z AUTO 00000KT 5000 BR NSC 15/14 Q1015=
201409080030 METAR LFSB 080030Z AUTO 27001KT 4700 BR NSC 14/13 Q1015=
201409080100 METAR LFSB 080100Z AUTO 21001KT 5000 BR NSC 13/13 Q1015=
201409080130 METAR LFSB 080130Z AUTO 30002KT 6000 FEW010 13/13 Q1015=
201409080200 METAR LFSB 080200Z AUTO 25002KT 4500 0800 R15/P2000 R33/1800D
                        BCFG FEW011 13/12 Q1015=
201409080230 METAR LFSB 080230Z VRB02KT 8000 3000W BR FEW011 13/13 Q1015
                        NOSIG=
201409080300 METAR LFSB 080300Z 23003KT 8000 3000W BR NSC 13/12 Q1015
                        NOSIG=
201409080330 METAR LFSB 080330Z 21002KT 8000 3000W BR NSC 13/12 Q1015
                        NOSIG=
201409080400 METAR LFSB 080400Z VRB02KT 8000 3000SW BR NSC 13/12 Q1015
                        NOSIG=
201409080430 METAR LFSB 080430Z 23001KT 9999 MIFG FEW009 13/12 Q1015 NOSIG=
201409080500 METAR LFSB 080500Z 23001KT 9999 MIFG FEW005 12/12 Q1015 NOSIG=
201409080530 METAR LFSB 080530Z VRB01KT 9999 MIFG NSC 13/12 Q1015 NOSIG=
201409080600 METAR LFSB 080600Z NIL=
201409080630 METAR LFSB 080630Z VRB01KT CAVOK 15/15 Q1015 NOSIG=
201409080700 METAR LFSB 080700Z VRB01KT CAVOK 17/16 Q1016 NOSIG=
201409080730 METAR LFSB 080730Z VRB02KT CAVOK 18/16 Q1016 NOSIG=
201409080800 METAR LFSB 080800Z 00000KT CAVOK 20/16 Q1016 NOSIG=
201409080830 METAR LFSB 080830Z VRB02KT CAVOK 21/16 Q1016 NOSIG=
201409080900 METAR LFSB 080900Z VRB03KT CAVOK 22/16 Q1016 NOSIG=
201409080930 METAR LFSB 080930Z VRB01KT 9999 FEW028 23/17 Q1016 NOSIG=
201409081000 METAR LFSB 081000Z VRB03KT 9999 FEW028 23/16 Q1016 NOSIG=
201409081030 METAR LFSB 081030Z VRB03KT 9999 FEW028TCU 24/17 Q1016 NOSIG=
201409081100 METAR COR LFSB 081100Z VRB04KT 9999 FEW030 25/17 Q1016 NOSIG=
201409081130 METAR LFSB 081130Z 33004KT 240V050 9999 FEW030 25/18 Q1016
                        NOSIG=
201409081200 METAR LFSB 081200Z 33005KT 280V010 9999 FEW033 25/17 Q1016
                        NOSIG=
201409081230 METAR LFSB 081230Z 34005KT 280V050 9999 FEW033 26/18 Q1016
                        NOSIG=
201409081300 METAR COR LFSB 081300Z VRB04KT 9999 FEW040 FEW050CB 27/17
                        Q1016 NOSIG=
201409081330 METAR LFSB 081330Z 32003KT 250V020 9999 FEW040 27/16 Q1015
                        NOSIG=
201409081400 METAR LFSB 081400Z VRB03KT 9999 FEW050 27/16 Q1015 NOSIG=
201409081430 METAR LFSB 081430Z 32004KT 220V020 9999 FEW050 27/17 Q1015
                        NOSIG=
201409081500 METAR LFSB 081500Z VRB03KT 9999 FEW053 27/17 Q1015 NOSIG=
201409081530 METAR LFSB 081530Z 02005KT 320V060 9999 FEW053 SCT080 27/17
                        Q1015 NOSIG=
201409081600 METAR LFSB 081600Z 01003KT 320V050 9999 FEW053 SCT076 26/17
                        Q1015 NOSIG=
201409081630 METAR LFSB 081630Z 35004KT 9999 FEW053 25/18 Q1015 NOSIG=
201409081700 METAR LFSB 081700Z 36005KT 9999 FEW053 25/17 Q1015 NOSIG=
201409081730 METAR LFSB 081730Z 35005KT 330V050 9999 FEW050TCU 23/17 Q1015
                        TEMPO FEW050CB=
201409081800 METAR LFSB 081800Z 33004KT 300V020 9999 FEW050TCU 22/17 Q1016
                        TEMPO FEW050CB=
201409081830 METAR LFSB 081830Z 31003KT 9999 FEW050TCU 21/17 Q1016 TEMPO
                        FEW050CB=
201409081900 METAR LFSB 081900Z 32004KT 300V020 9999 FEW050 19/17 Q1016
                        NOSIG=
201409081930 METAR LFSB 081930Z 31005KT 290V020 9999 FEW050 19/17 Q1016
                        NOSIG=
201409082000 METAR LFSB 082000Z 33003KT 310V020 9999 FEW050 19/16 Q1016
                        NOSIG=
201409082030 METAR LFSB 082030Z 32003KT 9999 FEW050 19/16 Q1016 NOSIG=
201409082100 METAR LFSB 082100Z 33004KT 320V020 9999 SCT050 18/16 Q1016
                        NOSIG=
201409082130 METAR LFSB 082130Z 33005KT 310V020 9999 SCT050 19/17 Q1017
                        NOSIG=
201409082200 METAR LFSB 082200Z 32006KT 310V020 9999 SCT050 19/17 Q1017
                        NOSIG=
201409082230 METAR LFSB 082230Z 32006KT 310V020 9999 FEW050 18/16 Q1017
                        NOSIG=
201409082300 METAR LFSB 082300Z AUTO 31006KT 300V020 9999 FEW048 18/16
                        Q1017=
201409082330 METAR LFSB 082330Z AUTO 31007KT 300V020 9000 FEW042 18/16
                        Q1017=
201409090000 METAR LFSB 090000Z AUTO 30004KT 7000 FEW050 17/16 Q1017=
201409090030 METAR LFSB 090030Z AUTO 33005KT 310V020 6000 NSC 16/15 Q1017=
201409090100 METAR LFSB 090100Z AUTO VRB02KT 4700 BR NSC 16/15 Q1017=
201409090130 METAR LFSB 090130Z AUTO VRB01KT 4000 BR NSC 16/15 Q1017=
201409090200 METAR LFSB 090200Z AUTO 27002KT 3300 BR FEW048 15/14 Q1017=
201409090230 METAR LFSB 090230Z 17002KT 3000 FEW009 15/14 Q1017 NOSIG=
201409090300 METAR LFSB 090300Z 25003KT 2000 NSC 14/13 Q1017 NOSIG=
201409090330 METAR LFSB 090330Z VRB01KT 4000 BR FEW050 14/14 Q1017 NOSIG=
201409090400 METAR LFSB 090400Z VRB01KT 4000 BR FEW003 14/14 Q1017 TEMPO
                        3500 BCFG SCT002=
201409090430 METAR LFSB 090430Z 27003KT 4000 BR FEW003 SCT009 14/14 Q1017
                        NOSIG=
201409090500 METAR LFSB 090500Z VRB03KT 3500 BR SCT003 BKN009 15/15 Q1017
                        NOSIG=
201409090530 METAR LFSB 090530Z VRB02KT 2500 BR BKN002 16/15 Q1017 NOSIG=
201409090600 METAR LFSB 090600Z VRB03KT 2000 BR BKN001 16/16 Q1017 NOSIG=
201409090630 METAR LFSB 090630Z 30003KT 2500 BR BKN002 16/16 Q1017 TEMPO
                        0800 BCFG BKN001=
201409090700 METAR LFSB 090700Z 30003KT 280V020 2500 BR BKN003 17/16 Q1018
                        TEMPO 0800 BCFG BKN001=
201409090730 METAR LFSB 090730Z 30004KT 2500 BR BKN003 17/16 Q1018 TEMPO
                        0800 BCFG BKN001=
201409090800 METAR LFSB 090800Z 31004KT 280V020 2500 BR BKN003 17/16 Q1018
                        TEMPO 0800 BCFG BKN001=
201409090830 METAR LFSB 090830Z 33004KT 310V020 1500 BR BKN002 17/16 Q1018
                        TEMPO 0800 BCFG BKN001=
201409090900 METAR LFSB 090900Z VRB02KT 3000 BR BKN003 BKN006 17/16 Q1018
                        BECMG 6000 SCT005=
201409090930 METAR LFSB 090930Z VRB03KT 4500 BR SCT004 BKN007 18/16 Q1018
                        BECMG 6000 SCT005=
201409091000 METAR LFSB 091000Z VRB02KT 5000 BR BKN008 20/16 Q1018 BECMG
                        9999 SCT015=
201409091030 METAR LFSB 091030Z VRB02KT 8000 FEW009 21/17 Q1018 BECMG
                        9999 SCT015=
201409091100 METAR LFSB 091100Z VRB03KT 9000 FEW012 22/17 Q1018 BECMG
                        9999 SCT015=
201409091130 METAR LFSB 091130Z 04003KT 350V090 9999 FEW016 BKN083 22/17
                        Q1017 TEMPO SHRA SCT025TCU=
201409091200 METAR LFSB 091200Z 02004KT 320V080 9999 FEW030TCU SCT080
                        23/17 Q1017 TEMPO SHRA SCT025TCU=
201409091209 METAR COR LFSB 091209Z 02005KT 340V090 9999 FEW030CB FEW030
                        SCT080 23/17 Q1017 TEMPO SHRA SCT025TCU=
201409091230 METAR LFSB 091230Z 36004KT 300V100 9999 FEW026 FEW030CB BKN080
                        24/18 Q1017 TEMPO SHRA SCT025TCU=
201409091300 METAR LFSB 091300Z 36005KT 290V050 9999 FEW026 FEW033CB SCT200
                        25/18 Q1016 TEMPO SHRA SCT030CB=
201409091330 METAR LFSB 091330Z 35006KT 310V050 9999 FEW027 FEW033CB SCT200
                        25/18 Q1016 TEMPO SHRA SCT030CB=
201409091400 METAR LFSB 091400Z 36007KT 340V050 9999 FEW029 FEW033CB SCT200
                        24/17 Q1016 NOSIG=
201409091430 METAR LFSB 091430Z 36006KT 340V080 9999 FEW030 FEW040CB SCT200
                        25/17 Q1016 NOSIG=
201409091500 METAR LFSB 091500Z 36008KT 340V050 9999 FEW031 FEW040CB BKN200
                        23/17 Q1016 NOSIG=
201409091530 METAR LFSB 091530Z 36007KT 340V050 9999 FEW033 FEW040CB SCT200
                        23/17 Q1016 NOSIG=
201409091600 METAR LFSB 091600Z 33004KT 310V020 9999 FEW040CB 21/17 Q1016
                        NOSIG=
201409091630 METAR LFSB 091630Z 28002KT 9999 FEW040CB 22/18 Q1016 NOSIG=
201409091700 METAR LFSB 091700Z 31003KT 280V020 9999 FEW040CB 22/17 Q1016
                        NOSIG=
201409091730 METAR LFSB 091730Z 34006KT 310V020 9999 VCSH FEW040CB 21/17
                        Q1016 NOSIG=
201409091800 METAR LFSB 091800Z 33004KT 320V020 9999 FEW040CB 20/16 Q1016
                        NOSIG=
201409091830 METAR LFSB 091830Z 33005KT 310V020 9999 FEW040TCU 19/16 Q1016
                        NOSIG=
201409091900 METAR LFSB 091900Z 29004KT 260V320 9999 FEW040TCU SCT070
                        18/15 Q1017 NOSIG=
201409091930 METAR LFSB 091930Z 31005KT 280V020 9999 FEW040TCU SCT061
                        BKN078 19/15 Q1017 NOSIG=
201409092000 METAR LFSB 092000Z 33006KT 310V020 CAVOK 18/15 Q1017 NOSIG=
201409092030 METAR LFSB 092030Z 31008KT 280V020 CAVOK 18/15 Q1017 NOSIG=
201409092100 METAR LFSB 092100Z 32004KT 290V020 9999 SCT035 BKN078 17/14
                        Q1017 NOSIG=
201409092130 METAR LFSB 092130Z 32006KT 300V020 9999 SCT036 BKN073 17/14
                        Q1017 NOSIG=
201409092200 METAR LFSB 092200Z 31003KT 270V020 9999 FEW036 BKN071 17/14
                        Q1017 NOSIG=
201409092230 METAR LFSB 092230Z AUTO 33006KT 300V020 8000 FEW022 SCT040
                        BKN066 16/14 Q1017=
201409092300 METAR LFSB 092300Z AUTO 32005KT 300V020 8000 BKN040 BKN066
                        16/14 Q1017=
201409092330 METAR LFSB 092330Z AUTO 33004KT 310V020 8000 SCT023 SCT038
                        16/14 Q1017=
201409100000 METAR LFSB 100000Z AUTO 33004KT 300V020 8000 BKN024 BKN029
                        BKN034 16/14 Q1017=
201409100030 METAR LFSB 100030Z AUTO 32003KT 300V020 9000 BKN023 BKN028
                        OVC033 16/13 Q1017=
201409100100 METAR LFSB 100100Z AUTO 33004KT 310V020 9000 SCT025 BKN030
                        OVC038 16/13 Q1017=
201409100130 METAR LFSB 100130Z AUTO 30003KT 270V020 8000 BKN019 BKN026
                        BKN033 16/13 Q1017=
201409100200 METAR LFSB 100200Z AUTO 31003KT 280V020 7000 BKN020 BKN034
                        BKN042 15/13 Q1017=
201409100230 METAR LFSB 100230Z 29003KT 4500 BR FEW005 SCT020 BKN041 15/13
                        Q1017 NOSIG=
201409100300 METAR LFSB 100300Z 30004KT 6000 FEW005 SCT023 BKN030 15/13
                        Q1017 NOSIG=
201409100330 METAR LFSB 100330Z 31005KT 290V020 6000 FEW005 SCT015 BKN023
                        15/13 Q1017 NOSIG=
201409100400 METAR LFSB 100400Z 33005KT 310V020 8000 FEW005 BKN014 15/12
                        Q1016 NOSIG=
201409100430 METAR LFSB 100430Z 32006KT 300V020 9000 FEW005 BKN012 15/12
                        Q1016 NOSIG=
201409100500 METAR LFSB 100500Z 31004KT 280V020 9000 BKN013 15/12 Q1016
                        NOSIG=
201409100530 METAR LFSB 100530Z 32005KT 290V020 9999 BKN014 15/12 Q1016
                        NOSIG=
201409100600 METAR LFSB 100600Z 32006KT 290V020 9999 BKN013 14/12 Q1016
                        NOSIG=
201409100630 METAR LFSB 100630Z 32005KT 300V020 9999 BKN014 14/12 Q1017
                        NOSIG=
201409100700 METAR LFSB 100700Z 32006KT 290V020 9999 BKN014 14/12 Q1017
                        NOSIG=
201409100730 METAR LFSB 100730Z 35006KT 310V020 9999 BKN014 14/12 Q1017
                        NOSIG=
201409100800 METAR LFSB 100800Z 33005KT 310V020 9999 BKN013 15/12 Q1017
                        NOSIG=
201409100830 METAR LFSB 100830Z 35006KT 310V020 9999 BKN013 15/12 Q1017
                        NOSIG=
201409100900 METAR LFSB 100900Z 01004KT 320V080 9999 BKN011 15/12 Q1017
                        NOSIG=
201409100930 METAR LFSB 100930Z 34004KT 300V020 9999 BKN011 16/13 Q1017
                        NOSIG=
201409101000 METAR LFSB 101000Z VRB03KT 9999 BKN015 BKN028 17/13 Q1017
                        NOSIG=
201409101030 METAR LFSB 101030Z VRB01KT 9999 FEW015 BKN026 18/13 Q1016
                        NOSIG=
201409101100 METAR LFSB 101100Z 36005KT 310V080 9999 FEW021 BKN030 19/13
                        Q1016 NOSIG=
201409101130 METAR LFSB 101130Z 36007KT 320V050 9999 FEW025 20/13 Q1016
                        NOSIG=
201409101200 METAR LFSB 101200Z 01006KT 310V060 9999 FEW026 SCT260 20/13
                        Q1016 NOSIG=
201409101230 METAR LFSB 101230Z 02006KT 330V080 9999 FEW026 21/14 Q1015
                        NOSIG=
201409101300 METAR LFSB 101300Z 36007KT 320V060 9999 FEW026TCU 22/14 Q1015
                        NOSIG=
201409101330 METAR LFSB 101330Z 36008KT 330V060 9999 FEW026 22/14 Q1015
                        NOSIG=
201409101400 METAR LFSB 101400Z 36007KT 320V050 9999 FEW026CB 22/15 Q1015
                        NOSIG=
201409101430 METAR LFSB 101430Z 01008KT 330V050 9999 FEW033CB SCT160 22/13
                        Q1014 NOSIG=
201409101500 METAR LFSB 101500Z 36010KT 330V050 9999 FEW033TCU BKN160
                        21/13 Q1014 NOSIG=
201409101530 METAR LFSB 101530Z 36011KT 330V050 9999 FEW033TCU BKN160
                        21/12 Q1014 NOSIG=
201409101600 METAR LFSB 101600Z 35012KT 320V020 9999 FEW040CB BKN160 20/12
                        Q1014 NOSIG=
201409101630 METAR LFSB 101630Z 35012KT 310V020 9999 FEW040CB BKN160 19/11
                        Q1014 NOSIG=
201409101700 METAR LFSB 101700Z 35010KT 320V020 9999 FEW040TCU BKN160
                        18/11 Q1014 NOSIG=
201409101730 METAR LFSB 101730Z 33010KT 310V020 9999 FEW040TCU SCT160
                        18/11 Q1014 NOSIG=
201409101800 METAR LFSB 101800Z 33008KT 310V020 9999 FEW033 SCT160 16/11
                        Q1015 NOSIG=
201409101830 METAR LFSB 101830Z 33006KT 310V020 9999 FEW033 SCT160 15/10
                        Q1015 NOSIG=
201409101900 METAR LFSB 101900Z 33006KT 300V020 9999 FEW033 15/10 Q1015
                        NOSIG=
201409101930 METAR LFSB 101930Z 32005KT 290V020 9999 SCT043 14/10 Q1015
                        NOSIG=
201409102000 METAR LFSB 102000Z 31006KT 280V020 9999 SCT040 14/10 Q1015
                        NOSIG=
201409102030 METAR LFSB 102030Z 32006KT 290V020 9999 BKN036 SCT046 14/11
                        Q1015 NOSIG=
201409102100 METAR LFSB 102100Z 33007KT 290V020 9999 BKN036 14/10 Q1015
                        NOSIG=
201409102130 METAR LFSB 102130Z 34008KT 310V020 9999 BKN040 SCT050 14/10
                        Q1015 NOSIG=
201409102200 METAR COR LFSB 102200Z 33005KT 290V020 9999 BKN040 SCT048
                        14/10 Q1015 NOSIG=
201409102230 METAR LFSB 102230Z AUTO 33007KT 300V020 9999 BKN041 OVC048
                        14/10 Q1015=
201409102300 METAR LFSB 102300Z AUTO 33006KT 290V020 9999 SCT046 SCT058
                        13/09 Q1015=
201409102330 METAR LFSB 102330Z AUTO 34006KT 310V020 9999 OVC047 13/10
                        Q1016=
201409110000 METAR LFSB 110000Z AUTO 33007KT 310V020 9000 FEW042 BKN050
                        13/09 Q1015=
201409110030 METAR LFSB 110030Z AUTO 33005KT 310V020 8000 SCT040 BKN052
                        12/09 Q1015=
201409110100 METAR LFSB 110100Z AUTO 33006KT 310V020 8000 BKN041 BKN050
                        11/09 Q1015=
201409110130 METAR LFSB 110130Z AUTO 32005KT 300V020 7000 FEW043 11/09
                        Q1015=
201409110200 METAR LFSB 110200Z AUTO 33005KT 320V020 6000 NSC 10/08 Q1015=
201409110230 METAR LFSB 110230Z 33004KT 300V020 6000 FEW040 10/08 Q1015
                        NOSIG=
201409110300 METAR LFSB 110300Z 30004KT 6000 FEW040 10/08 Q1015 NOSIG=
201409110330 METAR LFSB 110330Z 29004KT 280V020 5000 FEW040 09/08 Q1015
                        NOSIG=
201409110400 METAR LFSB 110400Z VRB03KT 5000 FEW002 BKN040 09/09 Q1015
                        NOSIG=
201409110430 METAR LFSB 110430Z 30003KT 4000 BR SCT010 SCT040 09/08 Q1015
                        NOSIG=
201409110500 METAR LFSB 110500Z 31003KT 4000 BR BKN011 SCT040 10/09 Q1015
                        NOSIG=
201409110506 METAR COR LFSB 110506Z 30003KT 3500 BR BKN011 SCT040 10/09
                        Q1015 NOSIG=
201409110530 METAR LFSB 110530Z VRB03KT 4000 BR BKN009 BKN013 10/10 Q1015
                        NOSIG=
201409110600 METAR LFSB 110600Z 33004KT 310V020 4000 BR BKN010 11/10 Q1015
                        NOSIG=
201409110630 METAR LFSB 110630Z 33005KT 310V020 4500 BR SCT007 OVC011
                        11/10 Q1015 NOSIG=
201409110700 METAR LFSB 110700Z 35004KT 330V050 5000 BR OVC010 12/10 Q1015
                        NOSIG=
201409110730 METAR LFSB 110730Z 32005KT 300V020 5000 BR BKN010 BKN040
                        12/10 Q1016 NOSIG=
201409110800 METAR LFSB 110800Z 34004KT 300V050 7000 BKN011 BKN040 13/10
                        Q1016 NOSIG=
201409110830 METAR LFSB 110830Z VRB03KT 7000 OVC012 14/11 Q1016 NOSIG=
201409110900 METAR LFSB 110900Z 33004KT 280V020 8000 OVC013 14/11 Q1016
                        NOSIG=
201409110930 METAR LFSB 110930Z 01004KT 320V080 8000 BKN014 14/11 Q1016
                        NOSIG=
201409111000 METAR LFSB 111000Z 01004KT 330V070 8000 SCT014 SCT016 BKN040
                        15/11 Q1016 NOSIG=
201409111030 METAR LFSB 111030Z 05004KT 320V110 8000 BKN017 SCT060 16/11
                        Q1016 NOSIG=
201409111100 METAR LFSB 111100Z 02004KT 310V080 9000 SCT020 SCT060 17/11
                        Q1016 NOSIG=
201409111130 METAR LFSB 111130Z 36004KT 280V080 9999 FEW023 18/12 Q1016
                        NOSIG=
201409111200 METAR COR LFSB 111200Z 01005KT 290V070 9999 SCT025 SCT060
                        19/11 Q1015 NOSIG=
201409111230 METAR LFSB 111230Z 36006KT 320V060 9999 SCT031 SCT060 19/11
                        Q1015 NOSIG=
201409111300 METAR LFSB 111300Z 36008KT 310V050 9999 SCT033 SCT060 18/10
                        Q1015 NOSIG=
201409111330 METAR LFSB 111330Z 35008KT 300V060 9999 SCT040 20/10 Q1015
                        NOSIG=
201409111400 METAR LFSB 111400Z 36010KT 330V050 9999 SCT040 20/10 Q1015
                        NOSIG=
201409111430 METAR LFSB 111430Z 01009KT 340V050 9999 FEW040 SCT100 20/10
                        Q1015 NOSIG=
201409111500 METAR LFSB 111500Z 34008KT 300V020 9999 FEW040 FEW045TCU
                        SCT090 20/10 Q1015 NOSIG=
201409111530 METAR LFSB 111530Z 01008KT 340V060 9999 FEW040 FEW045TCU
                        SCT090 19/10 Q1015 NOSIG=
201409111600 METAR LFSB 111600Z 35008KT 320V050 9999 FEW040 FEW045TCU
                        SCT090 19/09 Q1015 NOSIG=
201409111630 METAR LFSB 111630Z 32007KT 290V020 9999 FEW040 FEW045TCU
                        SCT090 18/10 Q1015 NOSIG=
201409111700 METAR LFSB 111700Z 34005KT 310V020 9999 FEW040 FEW046TCU
                        SCT090 16/10 Q1015 NOSIG=
201409111730 METAR LFSB 111730Z 36007KT 320V050 9999 FEW040 FEW046TCU
                        SCT100 16/09 Q1016 NOSIG=
201409111800 METAR LFSB 111800Z 36010KT 330V050 9999 FEW040 FEW046TCU
                        BKN100 16/09 Q1016 NOSIG=
201409111830 METAR LFSB 111830Z 34007KT 310V020 9999 -RA NSC 15/10 Q1016
                        NOSIG=
201409111900 METAR LFSB 111900Z 31005KT 280V020 CAVOK 14/11 Q1017 NOSIG=
201409111930 METAR LFSB 111930Z 30003KT 270V020 CAVOK 13/11 Q1017 NOSIG=
201409112000 METAR LFSB 112000Z VRB02KT CAVOK 13/11 Q1017 NOSIG=
201409112030 METAR LFSB 112030Z 33003KT 300V020 CAVOK 13/11 Q1017 NOSIG=
201409112100 METAR LFSB 112100Z 33005KT 300V020 CAVOK 13/11 Q1017 NOSIG=
201409112130 METAR LFSB 112130Z 31004KT 290V020 CAVOK 13/11 Q1017 NOSIG=
201409112200 METAR LFSB 112200Z 32004KT 290V020 CAVOK 12/11 Q1017 NOSIG=
201409112230 METAR LFSB 112230Z AUTO 32007KT 290V020 9999 NSC 13/11 Q1017=
201409112300 METAR LFSB 112300Z AUTO 32009KT 300V020 9999 FEW021 BKN120
                        12/11 Q1017=
201409112330 METAR LFSB 112330Z AUTO 32003KT 300V020 9999 FEW008 SCT012
                        BKN110 12/11 Q1017=
201409120000 METAR LFSB 120000Z AUTO 32004KT 290V020 9999 BKN010 OVC050
                        12/11 Q1017=
201409120030 METAR LFSB 120030Z AUTO 33007KT 320V020 9999 BKN009 12/10
                        Q1017=
201409120100 METAR LFSB 120100Z AUTO 33006KT 310V020 9999 BKN008 BKN050
                        11/10 Q1017=
201409120130 METAR LFSB 120130Z AUTO 32006KT 300V020 9999 BKN007 BKN050
                        BKN076 11/11 Q1017=
201409120200 METAR LFSB 120200Z AUTO 31005KT 280V020 9999 BKN007 OVC076
                        11/11 Q1017=
201409120230 METAR LFSB 120230Z 33005KT 300V020 8000 FEW004 BKN005 11/11
                        Q1017 TEMPO 5000 BR OVC003=
201409120300 METAR LFSB 120300Z 33005KT 300V020 8000 FEW004 BKN005 11/11
                        Q1017 TEMPO 5000 BR OVC003=
201409120330 METAR LFSB 120330Z 34005KT 310V020 8000 FEW004 BKN005 11/10
                        Q1017 TEMPO 5000 BR OVC003=
201409120400 METAR LFSB 120400Z 33006KT 310V020 8000 FEW005 11/10 Q1017
                        TEMPO 5000 BR OVC003=
201409120430 METAR LFSB 120430Z 33005KT 280V020 6000 FEW005 11/10 Q1017
                        TEMPO 5000 BR OVC003=
201409120500 METAR COR LFSB 120500Z 01005KT 320V070 4500 BR OVC005 11/10
                        Q1018 TEMPO 5000 BR OVC003=
201409120530 METAR LFSB 120530Z 33003KT 290V020 8000 OVC007 11/10 Q1018
                        TEMPO 5000 BR OVC003=
201409120600 METAR LFSB 120600Z 36006KT 330V050 9000 OVC010 11/10 Q1018
                        NOSIG=
201409120630 METAR LFSB 120630Z VRB02KT 9999 OVC008 11/10 Q1018 NOSIG=
201409120700 METAR LFSB 120700Z 01004KT 330V060 9999 OVC008 12/10 Q1018
                        NOSIG=
201409120730 METAR LFSB 120730Z 36005KT 330V060 9999 OVC009 12/10 Q1018
                        NOSIG=
201409120800 METAR LFSB 120800Z 36005KT 320V050 9999 OVC010 12/10 Q1019
                        NOSIG=
201409120830 METAR LFSB 120830Z 35005KT 320V020 9999 OVC010 13/10 Q1019
                        NOSIG=
201409120900 METAR LFSB 120900Z 36004KT 9999 BKN011 12/10 Q1019 NOSIG=
201409120930 METAR LFSB 120930Z 34005KT 320V020 9999 -DZ BKN010 13/11
                        Q1019 NOSIG=
201409121000 METAR LFSB 121000Z 33005KT 300V020 9999 -DZ BKN011 BKN033
                        13/11 Q1019 NOSIG=
201409121030 METAR LFSB 121030Z 32004KT 290V020 8000 -RA BKN012 OVC033
                        13/11 Q1019 NOSIG=
201409121100 METAR LFSB 121100Z 29003KT 250V020 9000 -RA BKN014 OVC028
                        13/11 Q1018 NOSIG=
201409121130 METAR LFSB 121130Z VRB03KT 9000 -RA BKN013 OVC026 14/11 Q1018
                        NOSIG=
201409121200 METAR LFSB 121200Z NIL=
201409121230 METAR LFSB 121230Z 25003KT 220V280 7000 -RA BKN018 OVC026
                        14/12 Q1018 NOSIG=
201409121300 METAR LFSB 121300Z VRB03KT 7000 -RA FEW013 BKN023 OVC030
                        14/12 Q1018 NOSIG=
201409121330 METAR COR LFSB 121330Z VRB03KT 3000 RA FEW016 BKN023 OVC031
                        14/12 Q1018 NOSIG=
201409121400 METAR LFSB 121400Z 34006KT 300V020 7000 -RA FEW008 BKN018
                        OVC030 13/12 Q1019 NOSIG=
201409121430 METAR LFSB 121430Z 34005KT 310V020 9999 FEW011 BKN030 OVC050
                        13/12 Q1019 RERA NOSIG=
201409121500 METAR LFSB 121500Z 33003KT 290V020 9999 FEW010 BKN025 OVC031
                        13/12 Q1019 RERA NOSIG=
201409121530 METAR LFSB 121530Z 34003KT 300V050 9999 FEW011 BKN021 OVC033
                        14/11 Q1019 NOSIG=
201409121600 METAR LFSB 121600Z 01003KT 320V080 9999 FEW011 BKN019 BKN026
                        14/11 Q1019 NOSIG=
201409121630 METAR LFSB 121630Z VRB03KT 9999 -RA BKN015 BKN026 BKN033
                        14/11 Q1019 NOSIG=
201409121700 METAR COR LFSB 121700Z VRB01KT 9999 -RA BKN014 BKN026 BKN033
                        13/11 Q1019 NOSIG=
201409121730 METAR LFSB 121730Z 27003KT 7000 -RA BKN013 BKN018 13/12 Q1019
                        NOSIG=
201409121800 METAR LFSB 121800Z VRB03KT 3000 -RADZ BR SCT008 BKN018 OVC026
                        13/12 Q1019 NOSIG=
201409121830 METAR LFSB 121830Z VRB02KT 3500 -DZ BR FEW008 BKN013 OVC023
                        13/12 Q1019 NOSIG=
201409121900 METAR LFSB 121900Z VRB02KT 5000 -DZ BR FEW008 BKN020 OVC028
                        13/12 Q1019 NOSIG=
201409121930 METAR LFSB 121930Z VRB01KT 4000 -DZ BR FEW008 BKN020 OVC028
                        13/12 Q1019 NOSIG=
201409122000 METAR LFSB 122000Z 00000KT 6000 FEW008 BKN023 OVC036 13/12
                        Q1019 NOSIG=
201409122030 METAR LFSB 122030Z 00000KT 7000 FEW008 SCT013 BKN019 13/12
                        Q1019 NOSIG=
201409122100 METAR LFSB 122100Z NIL=
201409122104 METAR LFSB 122104Z 00000KT 6000 FEW008 BKN012 BKN018 13/12
                        Q1019 NOSIG=
201409122130 METAR LFSB 122130Z 16003KT 7000 FEW008 OVC013 13/12 Q1019
                        NOSIG=
201409122200 METAR LFSB 122200Z 00000KT 7000 FEW008 OVC014 13/12 Q1019
                        NOSIG=
201409122230 METAR LFSB 122230Z AUTO VRB02KT 9000 OVC012 13/12 Q1019=
201409122300 METAR LFSB 122300Z AUTO VRB02KT 9000 BKN014 OVC020 13/12
                        Q1019=
201409122330 METAR LFSB 122330Z AUTO VRB02KT 9999 OVC013 13/12 Q1020=
201409130000 METAR LFSB 130000Z AUTO VRB02KT 9000 -RADZ FEW007 OVC012
                        13/12 Q1020=
201409130030 METAR LFSB 130030Z AUTO 00000KT 5000 -DZ BR OVC012 13/12
                        Q1020=
201409130100 METAR LFSB 130100Z AUTO 00000KT 6000 -DZ BKN008 OVC012 13/12
                        Q1020=
201409130130 METAR LFSB 130130Z AUTO VRB02KT 2800 -RA BR BKN009 OVC013
                        13/12 Q1019=
201409130200 METAR LFSB 130200Z AUTO VRB01KT 6000 BKN007 OVC013 13/12
                        Q1019=
201409130230 METAR LFSB 130230Z 00000KT 8000 BKN010 13/12 Q1019 NOSIG=
201409130300 METAR LFSB 130300Z 10002KT 7000 BKN007 BKN012 13/13 Q1019
                        NOSIG=
201409130330 METAR COR LFSB 130330Z 11002KT 4000 -DZ OVC006 13/13 Q1019
                        NOSIG=
201409130400 METAR LFSB 130400Z VRB01KT 2000 -RADZ OVC006 13/13 Q1019
                        NOSIG=
201409130430 METAR LFSB 130430Z VRB02KT 3000 -RADZ SCT003 OVC005 13/13
                        Q1019 NOSIG=
201409130500 METAR LFSB 130500Z VRB02KT 3000 BR SCT002 OVC005 13/13 Q1020
                        NOSIG=
201409130530 METAR COR LFSB 130530Z 00000KT 3000 BR OVC005 13/13 Q1020
                        NOSIG=
201409130600 METAR LFSB 130600Z VRB01KT 4000 BR SCT001 BKN005 14/13 Q1020
                        NOSIG=
201409130630 METAR LFSB 130630Z 00000KT 4000 BR SCT002 BKN004 14/13 Q1020
                        NOSIG=
201409130700 METAR LFSB 130700Z 00000KT 4500 2000N BR BKN002 BKN004 14/13
                        Q1020 NOSIG=
201409130730 METAR LFSB 130730Z VRB02KT 4000 BR BKN002 BKN003 14/13 Q1020
                        NOSIG=
201409130800 METAR LFSB 130800Z VRB02KT 3500 BR OVC003 14/14 Q1021 NOSIG=
201409130830 METAR LFSB 130830Z 36003KT 320V050 7000 SCT003 SCT006 15/14
                        Q1021 NOSIG=
201409130900 METAR LFSB 130900Z 01003KT 330V060 8000 BKN006 SCT046 15/14
                        Q1021 NOSIG=
201409130930 METAR LFSB 130930Z VRB02KT 9000 BKN008 16/13 Q1021 NOSIG=
201409131000 METAR LFSB 131000Z VRB03KT 9999 BKN008 BKN014 16/13 Q1021
                        NOSIG=
201409131030 METAR LFSB 131030Z VRB02KT 9999 FEW007 SCT010 17/14 Q1021
                        NOSIG=
201409131100 METAR LFSB 131100Z VRB03KT 9999 BKN012 BKN044 18/14 Q1021
                        NOSIG=
201409131130 METAR LFSB 131130Z 36006KT 330V050 9999 BKN015 BKN043 18/15
                        Q1020 NOSIG=
201409131200 METAR LFSB 131200Z 01004KT 310V070 9999 SCT013 18/15 Q1020
                        NOSIG=
201409131230 METAR LFSB 131230Z 36006KT 310V070 9999 SCT015 19/15 Q1020
                        NOSIG=
201409131300 METAR LFSB 131300Z 01006KT 320V060 9999 SCT018 SCT028 20/15
                        Q1020 NOSIG=
201409131330 METAR LFSB 131330Z 35004KT 300V050 9999 SCT018 BKN046 19/14
                        Q1020 NOSIG=
201409131400 METAR LFSB 131400Z 01007KT 330V050 9999 SCT019 BKN053 19/14
                        Q1020 NOSIG=
201409131430 METAR LFSB 131430Z 36006KT 340V050 9999 SCT020 SCT058 19/15
                        Q1020 NOSIG=
201409131500 METAR LFSB 131500Z 03004KT 330V130 9999 SCT020 SCT045 20/15
                        Q1020 NOSIG=
201409131530 METAR LFSB 131530Z 01005KT 330V050 9999 SCT021 SCT046 19/15
                        Q1020 NOSIG=
201409131600 METAR LFSB 131600Z 36004KT 310V050 9999 FEW021 SCT032 19/15
                        Q1020 NOSIG=
201409131630 METAR LFSB 131630Z 35004KT 310V050 9999 FEW023 SCT030 19/15
                        Q1020 NOSIG=
201409131700 METAR LFSB 131700Z 33004KT 300V020 9999 FEW020 SCT061 19/15
                        Q1020 NOSIG=
201409131730 METAR LFSB 131730Z 34004KT 320V020 9999 FEW026 BKN070 18/15
                        Q1020 NOSIG=
201409131800 METAR LFSB 131800Z 36005KT 9999 FEW040 SCT065 BKN080 18/14
                        Q1020 NOSIG=
201409131830 METAR LFSB 131830Z 35006KT 9999 FEW040 SCT065 BKN080 17/14
                        Q1020 NOSIG=
201409131900 METAR LFSB 131900Z 36006KT 330V050 9999 FEW040 SCT056 BKN080
                        17/15 Q1020 NOSIG=
201409131930 METAR LFSB 131930Z 36004KT 330V050 9999 FEW036 SCT053 BKN080
                        16/14 Q1020 NOSIG=
201409132000 METAR LFSB 132000Z NIL=
201409132030 METAR LFSB 132030Z 01006KT 340V050 9999 FEW006 SCT050 BKN300
                        16/15 Q1020 NOSIG=
201409132100 METAR LFSB 132100Z 35006KT 330V050 9999 FEW006 SCT050 BKN300
                        16/14 Q1020 NOSIG=
201409132130 METAR COR LFSB 132130Z 34005KT 310V020 9999 SCT008 SCT050
                        BKN300 15/14 Q1020 NOSIG=
201409132200 METAR LFSB 132200Z 33004KT 320V020 5000 BKN008 BKN045 15/15
                        Q1020 NOSIG=
201409132230 METAR LFSB 132230Z AUTO 35005KT 5000 BR OVC006 15/15 Q1020=
201409132300 METAR LFSB 132300Z AUTO VRB02KT 5000 BR BKN006 OVC044 15/14
                        Q1020=
201409132330 METAR LFSB 132330Z AUTO 33005KT 310V020 3800 BR BKN007 BKN044
                        14/14 Q1020=
201409140000 METAR LFSB 140000Z AUTO 34004KT 5000 BR BKN006 OVC011 15/14
                        Q1020=
201409140030 METAR LFSB 140030Z AUTO 35005KT 320V050 7000 OVC005 15/14
                        Q1020=
201409140100 METAR LFSB 140100Z AUTO 02005KT 340V060 8000 OVC004 15/14
                        Q1020=
201409140130 METAR LFSB 140130Z AUTO 36004KT 330V050 9000 BKN004 BKN008
                        BKN037 15/14 Q1019=
201409140200 METAR LFSB 140200Z AUTO 01003KT 350V050 8000 BKN005 OVC045
                        15/14 Q1019=
201409140230 METAR LFSB 140230Z 01005KT 340V050 6000 BKN004 BKN043 15/14
                        Q1019 TEMPO 3000 BR BKN003=
201409140300 METAR LFSB 140300Z 01005KT 330V060 6000 BKN005 15/14 Q1019
                        TEMPO 3000 BR BKN003=
201409140330 METAR LFSB 140330Z 34004KT 320V050 6000 BKN005 15/14 Q1019
                        TEMPO 3000 BR BKN003=
201409140400 METAR LFSB 140400Z 34006KT 320V020 6000 OVC005 15/14 Q1019
                        TEMPO 3000 BR BKN003=
201409140430 METAR LFSB 140430Z 36005KT 330V050 5000 OVC004 15/14 Q1019
                        TEMPO 3000 BR=
201409140500 METAR LFSB 140500Z 35007KT 310V050 2500 BR OVC003 14/14 Q1018
                        NOSIG=
201409140530 METAR LFSB 140530Z 35005KT 1600 BR FEW001 OVC002 14/14 Q1019
                        NOSIG=
201409140600 METAR LFSB 140600Z 36006KT 340V050 2200 BR BKN002 OVC003
                        14/14 Q1018 NOSIG=
201409140630 METAR LFSB 140630Z 36005KT 330V050 2300 BR BKN002 OVC003
                        15/14 Q1018 NOSIG=
201409140700 METAR LFSB 140700Z 35005KT 330V050 2300 BR SCT002 OVC003
                        15/14 Q1018 NOSIG=
201409140730 METAR LFSB 140730Z 36005KT 2300 BR SCT002 OVC003 15/14 Q1018
                        BECMG 5000 OVC008=
201409140800 METAR LFSB 140800Z 35006KT 320V050 4800 BR OVC003 15/14 Q1018
                        BECMG 6000 OVC008=
201409140830 METAR LFSB 140830Z 36006KT 340V050 5000 BR OVC005 15/14 Q1018
                        BECMG 8000 NSW OVC010=
201409140900 METAR LFSB 140900Z 01006KT 330V050 8000 FEW008 BKN009 16/14
                        Q1019 BECMG 9999 BKN015=
201409140930 METAR LFSB 140930Z 34008KT 320V020 9000 FEW010 BKN011 16/14
                        Q1018 BECMG 9999 BKN015=
201409141000 METAR LFSB 141000Z 36006KT 330V050 9999 FEW010 BKN012 17/14
                        Q1018 BECMG 9999 BKN015=
201409141030 METAR LFSB 141030Z 36005KT 320V050 9999 FEW013 BKN014 18/14
                        Q1018 BECMG BKN015=
201409141100 METAR LFSB 141100Z 32003KT 240V050 9999 FEW013 BKN015 BKN031
                        18/14 Q1018 NOSIG=
201409141130 METAR LFSB 141130Z 30004KT 240V020 9999 FEW015 SCT016 BKN046
                        19/15 Q1017 NOSIG=
201409141200 METAR LFSB 141200Z 32005KT 280V020 9999 SCT018 BKN026 19/15
                        Q1017 NOSIG=
201409141230 METAR LFSB 141230Z 34005KT 290V050 9999 SCT021 BKN031 20/15
                        Q1017 NOSIG=
201409141300 METAR LFSB 141300Z 35004KT 300V050 9999 FEW020 SCT025 BKN036
                        20/15 Q1017 NOSIG=
201409141330 METAR LFSB 141330Z VRB03KT 9999 SCT026 BKN040 22/15 Q1016
                        NOSIG=
201409141400 METAR LFSB 141400Z VRB03KT 9999 SCT030 BKN040 22/14 Q1016
                        NOSIG=
201409141430 METAR LFSB 141430Z 34005KT 300V060 9999 SCT030 SCT040 21/15
                        Q1016 NOSIG=
201409141500 METAR LFSB 141500Z VRB03KT 9999 SCT032 BKN050 23/15 Q1016
                        NOSIG=
201409141530 METAR LFSB 141530Z 35003KT 320V050 9999 SCT033 BKN046 22/15
                        Q1016 NOSIG=
201409141600 METAR LFSB 141600Z VRB03KT 9999 FEW033 BKN050 22/14 Q1016
                        NOSIG=
201409141630 METAR LFSB 141630Z 33004KT 300V020 9999 FEW033 BKN050 21/14
                        Q1016 NOSIG=
201409141700 METAR LFSB 141700Z 35004KT 9999 FEW033 SCT050 20/14 Q1015
                        NOSIG=
201409141730 METAR LFSB 141730Z 36005KT 330V050 9999 FEW033 19/14 Q1015
                        NOSIG=
201409141800 METAR LFSB 141800Z 35004KT 9999 FEW033 17/14 Q1015 NOSIG=
201409141830 METAR LFSB 141830Z 33003KT 280V020 9999 FEW050 16/14 Q1015
                        NOSIG=
201409141900 METAR LFSB 141900Z 31004KT CAVOK 16/14 Q1016 NOSIG=
201409141930 METAR LFSB 141930Z 32003KT 300V020 9999 FEW043 15/14 Q1016
                        NOSIG=
201409142000 METAR LFSB 142000Z 32003KT 300V020 CAVOK 14/13 Q1016 NOSIG=
201409142030 METAR LFSB 142030Z 33004KT 310V020 CAVOK 14/13 Q1016 NOSIG=
201409142100 METAR LFSB 142100Z 33004KT 9000 FEW048 13/13 Q1016 NOSIG=
201409142130 METAR LFSB 142130Z VRB03KT 4000 BR FEW048 13/12 Q1016 NOSIG=
201409142200 METAR LFSB 142200Z VRB03KT 5000 1500W BR FEW048 13/12 Q1016
                        BECMG 0500 FG=
201409142230 METAR LFSB 142230Z AUTO VRB02KT 3000 0800 R15/1100D R33/P2000
                        BCFG NSC 12/11 Q1016=
201409142300 METAR LFSB 142300Z AUTO VRB02KT 0400 0350 R15/1000U R33/1200D
                        FG NSC 12/12 Q1016=
201409142330 METAR LFSB 142330Z AUTO VRB03KT 2200 0350 R15/1000U R33/P2000
                        BCFG NSC 12/11 Q1016=
201409150000 METAR LFSB 150000Z AUTO VRB02KT 0500 0450 R15/P2000 R33/1100D
                        FG NSC 11/11 Q1016=
201409150030 METAR LFSB 150030Z AUTO VRB02KT 0150 0100 R15/0450N R33/1200U
                        FG FEW004 11/11 Q1016=
201409150100 METAR LFSB 150100Z AUTO 00000KT 0200 0100 R15/0500N R33/1400U
                        FG BKN003 11/11 Q1015=
201409150130 METAR LFSB 150130Z AUTO VRB01KT 7000 2500 VV/// 12/11 Q1016=
201409150200 METAR LFSB 150200Z AUTO 11002KT 0350 0300 R15/1200D R33/P2000
                        FG VV/// 13/13 Q1016=
201409150230 METAR COR LFSB 150230Z VRB01KT 0150 R15/0350N R33/0450N FG
                        VV/// 13/13 Q1016 NOSIG=
201409150300 METAR LFSB 150300Z 00000KT 0150 R15/0550N R33/0450N FG VV///
                        13/13 Q1016 NOSIG=
201409150330 METAR LFSB 150330Z VRB01KT 0150 R15/0650N R33/0600N FG VV///
                        13/12 Q1015 NOSIG=
201409150400 METAR LFSB 150400Z VRB02KT 0150 R15/0650N R33/0600N FG VV///
                        12/12 Q1015 NOSIG=
201409150430 METAR LFSB 150430Z VRB02KT 0200 R15/0700N R33/0650N FG VV///
                        12/12 Q1016 NOSIG=
201409150500 METAR LFSB 150500Z VRB02KT 0200 R15/0650N R33/0700N FG VV///
                        13/12 Q1015 NOSIG=
201409150530 METAR LFSB 150530Z VRB02KT 0200 R15/0650N R33/0450N FG VV///
                        12/12 Q1016 NOSIG=
201409150600 METAR LFSB 150600Z 34003KT 300V020 0200 R15/0550N R33/0800N
                        FG VV/// 12/12 Q1016 NOSIG=
201409150630 METAR LFSB 150630Z VRB03KT 0200 R15/0600N R33/1000U FG VV///
                        12/12 Q1016 NOSIG=
201409150700 METAR LFSB 150700Z VRB02KT 0200 R15/0550N R33/1300U FG VV///
                        13/12 Q1016 NOSIG=
201409150730 METAR LFSB 150730Z VRB02KT 1200 R15/1400U R33/2000D BR OVC001
                        13/13 Q1016 BECMG 2000 BR BKN006=
201409150800 METAR LFSB 150800Z VRB02KT 3000 BR OVC002 14/13 Q1016 BECMG
                        4000 BR BKN006=
201409150830 METAR COR LFSB 150830Z VRB03KT 7000 3000N BR BKN004 14/14
                        Q1016 BECMG 8000 NSW BKN008=
201409150900 METAR LFSB 150900Z 33004KT 290V020 8000 SCT004 SCT250 15/14
                        Q1016 NOSIG=
201409150930 METAR LFSB 150930Z 34004KT 310V050 9999 FEW005 BKN250 16/15
                        Q1016 NOSIG=
201409151000 METAR LFSB 151000Z 33005KT 300V020 9999 FEW009 BKN260 17/15
                        Q1016 NOSIG=
201409151030 METAR LFSB 151030Z 34005KT 290V020 9999 FEW011 BKN260 18/15
                        Q1015 NOSIG=
201409151100 METAR LFSB 151100Z 33005KT 300V020 9999 FEW015 BKN230 19/15
                        Q1015 NOSIG=
201409151130 METAR LFSB 151130Z 36004KT 310V080 9999 FEW016 BKN250 21/16
                        Q1015 NOSIG=
201409151200 METAR LFSB 151200Z VRB03KT 9999 FEW023 BKN250 21/16 Q1015
                        NOSIG=
201409151230 METAR LFSB 151230Z 01003KT 320V090 9999 FEW026 BKN240 22/16
                        Q1015 NOSIG=
201409151300 METAR LFSB 151300Z 35003KT 290V060 9999 FEW030 BKN240 23/15
                        Q1014 NOSIG=
201409151330 METAR LFSB 151330Z VRB03KT 9999 FEW033 SCT240 24/15 Q1014
                        NOSIG=
201409151400 METAR LFSB 151400Z VRB03KT 9999 FEW036 SCT240 24/15 Q1014
                        NOSIG=
201409151430 METAR LFSB 151430Z 33003KT 260V060 9999 FEW040 SCT240 24/14
                        Q1014 NOSIG=
201409151500 METAR LFSB 151500Z 32004KT 260V020 9999 FEW043 SCT240 24/14
                        Q1014 NOSIG=
201409151530 METAR LFSB 151530Z VRB03KT 9999 FEW043 FEW046CB BKN240 24/14
                        Q1014 NOSIG=
201409151600 METAR LFSB 151600Z VRB03KT 9999 FEW043 FEW046CB BKN240 22/14
                        Q1014 NOSIG=
201409151630 METAR LFSB 151630Z 29002KT 9999 FEW043 FEW046CB SCT070 BKN240
                        20/16 Q1014 NOSIG=
201409151700 METAR LFSB 151700Z VRB03KT 9999 FEW043 SCT070 BKN240 19/16
                        Q1014 NOSIG=
201409151730 METAR LFSB 151730Z VRB02KT 9999 FEW043 FEW050CB BKN066 BKN240
                        19/16 Q1014 NOSIG=
201409151800 METAR LFSB 151800Z 34004KT 320V020 9999 FEW043 BKN066 BKN200
                        19/16 Q1014 NOSIG=
201409151830 METAR LFSB 151830Z 30004KT 9999 FEW043 BKN066 BKN200 18/16
                        Q1014 NOSIG=
201409151900 METAR LFSB 151900Z VRB03KT CAVOK 17/15 Q1015 NOSIG=
201409151930 METAR LFSB 151930Z 29003KT CAVOK 16/14 Q1015 NOSIG=
201409152000 METAR LFSB 152000Z VRB01KT CAVOK 16/14 Q1015 NOSIG=
201409152030 METAR LFSB 152030Z VRB02KT CAVOK 16/15 Q1015 NOSIG=
201409152100 METAR LFSB 152100Z 34005KT CAVOK 15/14 Q1015 NOSIG=
201409152130 METAR LFSB 152130Z VRB03KT CAVOK 15/13 Q1015 NOSIG=
201409152200 METAR LFSB 152200Z 28002KT CAVOK 14/13 Q1015 NOSIG=
201409152230 METAR LFSB 152230Z AUTO 25002KT 7000 NSC 13/12 Q1015=
201409152300 METAR LFSB 152300Z AUTO VRB01KT 2100 R15/1400U BR NSC 13/12
                        Q1015=
201409152330 METAR LFSB 152330Z AUTO 00000KT 8000 NSC 13/13 Q1015=
201409160000 METAR LFSB 160000Z AUTO VRB02KT 9000 NSC 12/11 Q1015=
201409160030 METAR LFSB 160030Z AUTO 24004KT 5000 BR FEW006 13/12 Q1015=
201409160100 METAR LFSB 160100Z AUTO VRB01KT 9000 0600 R15/1700N R33/P2000
                        BCFG FEW010 12/11 Q1015=
201409160130 METAR LFSB 160130Z AUTO 00000KT 6000 0500 R15/1100U R33/P2000
                        BCFG FEW008 12/12 Q1015=
201409160200 METAR LFSB 160200Z AUTO 00000KT 2200 0550 R15/1300U R33/1300D
                        BCFG FEW005 11/11 Q1015=
201409160230 METAR LFSB 160230Z 00000KT 6000 0500E R15/P2000 R33/1300U
                        BCFG SCT005 SCT150 11/10 Q1015 NOSIG=
201409160300 METAR LFSB 160300Z 00000KT 2500 0500S R15/1200U R33/0600N
                        BCFG SCT004 11/11 Q1015 TEMPO 0500
                        PRFG BKN001=
201409160330 METAR COR LFSB 160330Z 25003KT 2500 0500S R15/P2000 R33/1100U
                        BCFG BKN002 11/10 Q1015 TEMPO 0500
                        FG VV///=
201409160400 METAR LFSB 160400Z 23002KT 0150 R15/P2000 R33/P2000 FG VV///
                        11/10 Q1015 NOSIG=
201409160430 METAR LFSB 160430Z 24002KT 0200 R15/0600N R33/0550N FG VV///
                        12/11 Q1015 TEMPO 0500 PRFG BKN001=
201409160500 METAR LFSB 160500Z VRB03KT 0250 R15/0700N R33/0750N FG VV///
                        13/13 Q1015 TEMPO 0500 PRFG BKN001=
201409160530 METAR LFSB 160530Z 26002KT 0250 R15/0600N R33/0450N FG BKN001
                        13/13 Q1015 TEMPO 0500 PRFG BKN001=
201409160600 METAR LFSB 160600Z VRB01KT 0200 R15/0450N R33/0550U FG VV///
                        14/13 Q1015 TEMPO 0500 PRFG BKN001=
201409160630 METAR LFSB 160630Z VRB01KT 0200 R15/0600U R33/0350N FG VV///
                        14/14 Q1015 TEMPO 0500 PRFG BKN001=
201409160700 METAR LFSB 160700Z 00000KT 0350 R15/0700D R33/0900U FG BKN001
                        14/14 Q1016 TEMPO 0500 PRFG BKN001=
201409160730 METAR LFSB 160730Z VRB01KT 6000 SCT001 SCT250 15/15 Q1016
                        NOSIG=
201409160800 METAR LFSB 160800Z VRB01KT 9000 FEW002 BKN250 16/16 Q1016
                        NOSIG=
201409160830 METAR LFSB 160830Z VRB02KT 9999 FEW002 BKN250 18/15 Q1016
                        NOSIG=
201409160900 METAR LFSB 160900Z 16003KT 080V220 9999 FEW020 BKN250 20/15
                        Q1016 NOSIG=
201409160930 METAR LFSB 160930Z VRB03KT 9999 FEW020 BKN250 21/15 Q1015
                        NOSIG=
201409161000 METAR LFSB 161000Z VRB02KT 9999 FEW030 SCT250 22/15 Q1015
                        NOSIG=
201409161030 METAR LFSB 161030Z VRB02KT 9999 FEW030 SCT250 23/16 Q1015
                        NOSIG=
201409161100 METAR LFSB 161100Z VRB02KT 9999 FEW030 SCT250 23/15 Q1015
                        NOSIG=
201409161130 METAR LFSB 161130Z VRB03KT 9999 FEW033 23/15 Q1014 NOSIG=
201409161200 METAR LFSB 161200Z VRB02KT 9999 FEW033 24/15 Q1014 NOSIG=
201409161230 METAR LFSB 161230Z 02003KT 320V080 9999 FEW036 24/15 Q1014
                        NOSIG=
201409161300 METAR LFSB 161300Z VRB03KT 9999 FEW043 25/14 Q1014 NOSIG=
201409161330 METAR LFSB 161330Z VRB02KT 9999 SCT043 26/14 Q1013 NOSIG=
201409161400 METAR LFSB 161400Z VRB03KT 9999 SCT043 26/14 Q1013 NOSIG=
201409161430 METAR LFSB 161430Z VRB02KT 9999 SCT043 26/14 Q1013 NOSIG=
201409161500 METAR LFSB 161500Z 02003KT 330V080 9999 SCT043 26/14 Q1013
                        NOSIG=
201409161530 METAR LFSB 161530Z 32004KT 280V020 9999 FEW043 25/14 Q1013
                        NOSIG=
201409161600 METAR LFSB 161600Z VRB03KT 9999 FEW043 25/14 Q1013 NOSIG=
201409161630 METAR LFSB 161630Z 35003KT 330V050 9999 FEW043CB FEW043 25/15
                        Q1013 NOSIG=
201409161700 METAR LFSB 161700Z VRB03KT 9999 FEW043CB 24/14 Q1013 NOSIG=
201409161730 METAR LFSB 161730Z VRB03KT 9999 FEW043CB 21/16 Q1013 BECMG
                        CAVOK=
201409161800 METAR LFSB 161800Z VRB03KT CAVOK 19/16 Q1013 NOSIG=
201409161830 METAR LFSB 161830Z VRB02KT CAVOK 17/15 Q1013 NOSIG=
201409161900 METAR LFSB 161900Z 29004KT CAVOK 16/15 Q1013 NOSIG=
201409161930 METAR LFSB 161930Z VRB03KT CAVOK 16/15 Q1013 NOSIG=
201409162000 METAR LFSB 162000Z VRB01KT CAVOK 16/14 Q1013 NOSIG=
201409162030 METAR LFSB 162030Z 33003KT 300V020 CAVOK 15/14 Q1013 NOSIG=
201409162100 METAR LFSB 162100Z VRB02KT CAVOK 14/13 Q1013 NOSIG=
201409162130 METAR LFSB 162130Z VRB01KT CAVOK 15/14 Q1013 NOSIG=
201409162200 METAR LFSB 162200Z 26002KT CAVOK 14/13 Q1013 NOSIG=
201409162230 METAR LFSB 162230Z AUTO 23002KT 9999 NSC 13/12 Q1013=
201409162300 METAR LFSB 162300Z AUTO VRB01KT 4200 BR NSC 13/12 Q1013=
201409162330 METAR LFSB 162330Z AUTO VRB01KT 3400 0500 R15/P2000 R33/1800D
                        BCFG NSC 13/13 Q1013=
201409170000 METAR LFSB 170000Z AUTO 00000KT 0900 0800 R15/P2000 R33/1800D
                        FG VV/// 12/12 Q1013=
201409170030 METAR LFSB 170030Z AUTO 00000KT 0400 0250 R15/1300D R33/0600D
                        FG SCT003 12/11 Q1013=
201409170100 METAR LFSB 170100Z AUTO 25003KT 4900 BR SCT003 12/11 Q1013=
201409170130 METAR LFSB 170130Z AUTO 24003KT 2600 BR VV/// 11/11 Q1013=
201409170200 METAR LFSB 170200Z 00000KT 7000 2000N BCFG FEW001 11/11 Q1013
                        TEMPO 3000 BCFG=
201409170230 METAR LFSB 170230Z 26002KT 6000 1500N BCFG FEW001 11/11 Q1013
                        BECMG FM0300 1500 PRFG=
201409170300 METAR LFSB 170300Z 21003KT 6000 1500N VCFG FEW002 11/11 Q1013
                        TEMPO 1500 PRFG=
201409170330 METAR LFSB 170330Z 22001KT 7000 2500N VCFG FEW003 11/10 Q1013
                        TEMPO 3000 BCFG=
201409170400 METAR LFSB 170400Z VRB02KT 7000 3000N BCFG FEW002 11/10 Q1013
                        TEMPO 3000 BCFG=
201409170430 METAR LFSB 170430Z VRB01KT 7000 3000N R33/1100D VCFG FEW012
                        10/10 Q1013 TEMPO 3000 BCFG=
201409170500 METAR LFSB 170500Z 24003KT 9999 3000N VCFG FEW004 11/10 Q1013
                        BECMG 9999 NSW=
201409170530 METAR LFSB 170530Z 23003KT 9999 4000N VCFG FEW004 SCT100
                        11/11 Q1013 BECMG 9999 NSW=
201409170600 METAR LFSB 170600Z 00000KT 9999 VCFG FEW004 13/12 Q1013 BECMG
                        9999 NSW=
201409170630 METAR LFSB 170630Z 00000KT 9000 NSC 14/13 Q1013 NOSIG=
201409170700 METAR LFSB 170700Z VRB01KT CAVOK 15/14 Q1013 NOSIG=
201409170730 METAR LFSB 170730Z 00000KT CAVOK 16/15 Q1013 NOSIG=
201409170800 METAR LFSB 170800Z 07003KT 350V140 CAVOK 18/15 Q1013 NOSIG=
201409170830 METAR LFSB 170830Z VRB03KT 9999 FEW023 BKN260 20/15 Q1013
                        NOSIG=
201409170900 METAR LFSB 170900Z VRB02KT 9999 FEW023 BKN260 21/15 Q1013
                        NOSIG=
201409170930 METAR LFSB 170930Z VRB03KT 9999 FEW023 BKN230 21/15 Q1013
                        NOSIG=
201409171000 METAR LFSB 171000Z 06004KT 340V120 9999 FEW026 BKN230 22/15
                        Q1012 NOSIG=
201409171030 METAR LFSB 171030Z 06003KT 350V140 9999 FEW026 BKN250 22/16
                        Q1012 NOSIG=
201409171100 METAR LFSB 171100Z VRB03KT 9999 FEW030 BKN230 22/15 Q1012
                        NOSIG=
201409171130 METAR LFSB 171130Z VRB03KT 9999 FEW030 BKN230 23/16 Q1012
                        NOSIG=
201409171200 METAR LFSB 171200Z 02004KT 350V070 9999 FEW030 BKN200 23/16
                        Q1011 NOSIG=
201409171230 METAR LFSB 171230Z VRB02KT 9999 FEW031 FEW033TCU BKN190 24/16
                        Q1011 NOSIG=
201409171300 METAR LFSB 171300Z 06003KT 340V130 9999 FEW031 FEW033TCU
                        BKN190 24/15 Q1011 NOSIG=
201409171330 METAR LFSB 171330Z VRB04KT 9999 FEW031 FEW033TCU BKN220 25/14
                        Q1011 NOSIG=
201409171400 METAR LFSB 171400Z 04004KT 340V120 9999 FEW031 FEW033TCU
                        SCT160 BKN250 25/16 Q1011 NOSIG=
201409171430 METAR LFSB 171430Z 03004KT 320V080 9999 FEW033 FEW035CB SCT160
                        BKN250 25/17 Q1010 NOSIG=
201409171500 METAR LFSB 171500Z 35004KT 330V050 9999 FEW036 FEW040CB BKN150
                        BKN250 24/17 Q1010 NOSIG=
201409171530 METAR LFSB 171530Z 35005KT 330V050 9999 FEW036 FEW040CB BKN150
                        24/17 Q1010 NOSIG=
201409171600 METAR LFSB 171600Z 35005KT 9999 FEW040 SCT120 BKN140 23/17
                        Q1010 NOSIG=
201409171630 METAR LFSB 171630Z 01004KT 340V070 9999 FEW040 SCT120 BKN140
                        23/16 Q1010 NOSIG=
201409171700 METAR LFSB 171700Z 34003KT 310V050 9999 FEW040 SCT110 BKN130
                        22/16 Q1011 NOSIG=
201409171730 METAR LFSB 171730Z VRB03KT CAVOK 22/17 Q1011 NOSIG=
201409171800 METAR LFSB 171800Z 33005KT 310V020 CAVOK 20/17 Q1011 NOSIG=
201409171830 METAR LFSB 171830Z VRB02KT CAVOK 19/16 Q1011 NOSIG=
201409171900 METAR LFSB 171900Z VRB03KT CAVOK 19/16 Q1011 NOSIG=
201409171930 METAR LFSB 171930Z 32003KT 270V020 CAVOK 19/16 Q1011 NOSIG=
201409172000 METAR LFSB 172000Z VRB01KT CAVOK 18/16 Q1011 NOSIG=
201409172030 METAR LFSB 172030Z 00000KT CAVOK 18/16 Q1011 NOSIG=
201409172100 METAR LFSB 172100Z 00000KT CAVOK 17/16 Q1011 NOSIG=
201409172130 METAR LFSB 172130Z 29003KT CAVOK 17/16 Q1011 NOSIG=
201409172200 METAR LFSB 172200Z 23002KT CAVOK 17/16 Q1012 NOSIG=
201409172230 METAR LFSB 172230Z AUTO VRB03KT 9999 NSC 16/15 Q1012=
201409172300 METAR LFSB 172300Z AUTO VRB02KT 9999 NSC 16/15 Q1011=
201409172330 METAR LFSB 172330Z AUTO VRB02KT 7000 NSC 15/14 Q1012=
201409180000 METAR LFSB 180000Z AUTO 21002KT 8000 NSC 16/15 Q1011=
201409180030 METAR LFSB 180030Z AUTO 19003KT 9999 NSC 16/15 Q1011=
201409180100 METAR LFSB 180100Z AUTO 21002KT 9999 NSC 16/15 Q1011=
201409180130 METAR LFSB 180130Z AUTO 00000KT 9999 NSC 16/15 Q1011=
201409180200 METAR LFSB 180200Z AUTO 18003KT 9999 NSC 16/15 Q1011=
201409180230 METAR LFSB 180230Z 18003KT CAVOK 16/16 Q1011 NOSIG=
201409180300 METAR LFSB 180300Z 20003KT CAVOK 17/16 Q1011 NOSIG=
201409180330 METAR LFSB 180330Z VRB02KT 9999 -RA FEW050 OVC093 16/15 Q1011
                        NOSIG=
201409180400 METAR LFSB 180400Z VRB03KT 9999 FEW050 BKN096 OVC110 17/16
                        Q1011 NOSIG=
201409180430 METAR LFSB 180430Z NIL=
201409180434 METAR LFSB 180434Z 21004KT 150V250 9999 FEW050 BKN096 OVC110
                        17/16 Q1011 NOSIG=
201409180500 METAR LFSB 180500Z 17005KT 9999 -RA FEW050 BKN096 OVC110
                        17/16 Q1011 NOSIG=
201409180530 METAR LFSB 180530Z 19004KT 160V220 9999 -RA FEW050 SCT093
                        BKN100 17/16 Q1011 NOSIG=
201409180600 METAR LFSB 180600Z 19003KT 160V230 CAVOK 17/16 Q1012 NOSIG=
201409180630 METAR LFSB 180630Z VRB03KT 9999 -RA FEW050 BKN100 BKN120
                        17/16 Q1011 NOSIG=
201409180700 METAR LFSB 180700Z 11004KT 350V160 CAVOK 18/17 Q1011 NOSIG=
201409180730 METAR LFSB 180730Z VRB02KT CAVOK 18/16 Q1012 NOSIG=
201409180800 METAR LFSB 180800Z 00000KT CAVOK 19/17 Q1012 NOSIG=
201409180830 METAR LFSB 180830Z VRB03KT CAVOK 20/16 Q1012 NOSIG=
201409180900 METAR LFSB 180900Z 11004KT 050V170 CAVOK 21/16 Q1012 NOSIG=
201409180930 METAR LFSB 180930Z VRB02KT 9999 FEW026 BKN100 21/16 Q1012
                        NOSIG=
201409181000 METAR LFSB 181000Z VRB02KT 9999 -SHRA FEW030 FEW066TCU SCT100
                        21/16 Q1012 NOSIG=
201409181030 METAR LFSB 181030Z VRB01KT 9999 -SHRA FEW060TCU BKN095 21/17
                        Q1012 NOSIG=
201409181100 METAR LFSB 181100Z 00000KT 9999 FEW056TCU BKN091 21/17 Q1012
                        NOSIG=
201409181130 METAR LFSB 181130Z VRB02KT CAVOK 21/17 Q1012 NOSIG=
201409181200 METAR LFSB 181200Z 12004KT 080V160 9999 FEW050 BKN100 22/17
                        Q1012 NOSIG=
201409181230 METAR LFSB 181230Z 13004KT 090V180 9999 FEW050 BKN100 22/17
                        Q1012 NOSIG=
201409181300 METAR LFSB 181300Z 12003KT 090V170 9999 FEW050 BKN093 22/17
                        Q1012 NOSIG=
201409181330 METAR LFSB 181330Z 09003KT 050V140 9999 FEW050 BKN095 BKN180
                        23/17 Q1012 NOSIG=
201409181400 METAR LFSB 181400Z VRB02KT 9999 FEW050 SCT090 BKN180 23/17
                        Q1012 NOSIG=
201409181430 METAR LFSB 181430Z VRB02KT 9999 FEW050CB SCT090 24/17 Q1012
                        NOSIG=
201409181500 METAR LFSB 181500Z 11003KT 350V150 9999 FEW050CB SCT088 24/17
                        Q1012 NOSIG=
201409181530 METAR LFSB 181530Z 10005KT 050V140 9999 FEW050CB SCT071 25/14
                        Q1012 NOSIG=
201409181600 METAR LFSB 181600Z 11005KT 050V140 9999 FEW050CB SCT076 24/15
                        Q1012 NOSIG=
201409181630 METAR LFSB 181630Z 10003KT 050V130 9999 FEW050CB SCT096 23/15
                        Q1012 NOSIG=
201409181700 METAR LFSB 181700Z VRB03KT 9999 -SHRA FEW050CB SCT100 23/17
                        Q1012 NOSIG=
201409181730 METAR LFSB 181730Z 11005KT 050V130 9999 FEW050CB BKN100 BKN200
                        22/17 Q1012 NOSIG=
201409181800 METAR LFSB 181800Z 11005KT 080V140 9999 FEW050CB BKN095 22/17
                        Q1012 NOSIG=
201409181830 METAR LFSB 181830Z 12006KT CAVOK 21/17 Q1012 NOSIG=
201409181900 METAR LFSB 181900Z 13003KT CAVOK 20/17 Q1013 NOSIG=
201409181930 METAR LFSB 181930Z VRB02KT CAVOK 18/16 Q1013 NOSIG=
201409182000 METAR LFSB 182000Z VRB01KT CAVOK 18/16 Q1013 NOSIG=
201409182030 METAR LFSB 182030Z 16004KT 130V200 CAVOK 18/16 Q1013 NOSIG=
201409182100 METAR LFSB 182100Z 18003KT 150V210 CAVOK 17/15 Q1013 NOSIG=
201409182130 METAR LFSB 182130Z VRB03KT CAVOK 17/15 Q1013 NOSIG=
201409182200 METAR LFSB 182200Z 20004KT CAVOK 17/15 Q1013 NOSIG=
201409182230 METAR LFSB 182230Z AUTO 18004KT 140V210 9999 ///TCU 17/15
                        Q1013=
201409182300 METAR LFSB 182300Z AUTO 24003KT 9999 ///CB 17/15 Q1013=
201409182330 METAR LFSB 182330Z AUTO 23006KT 180V260 2800 RA BR VCTS FEW025///
                        SCT056/// BKN066/// ///CB 17/16 Q1014=
201409190000 METAR LFSB 190000Z AUTO VRB02KT 9999 -RA FEW042/// BKN072///
                        OVC090/// ///CB 17/16 Q1015=
201409190030 METAR LFSB 190030Z AUTO 09004KT 050V120 9999 -RA ///TCU 17/16
                        Q1014=
201409190100 METAR LFSB 190100Z AUTO VRB02KT 9999 NSC 17/16 Q1014=
201409190130 METAR LFSB 190130Z AUTO 21004KT 9999 NSC 16/15 Q1014=
201409190200 METAR LFSB 190200Z AUTO 19004KT 160V230 9999 NSC 16/15 Q1013=
201409190230 METAR LFSB 190230Z VRB02KT 9999 FEW050 BKN096 15/14 Q1013
                        NOSIG=
201409190300 METAR LFSB 190300Z 19002KT 9999 FEW050 BKN120 15/14 Q1013
                        NOSIG=
201409190330 METAR LFSB 190330Z VRB01KT 8000 R33/1200D VCFG FEW002 SCT120
                        15/14 Q1013 NOSIG=
201409190400 METAR LFSB 190400Z 24004KT 8000 VCFG FEW002 BKN120 14/14
                        Q1013 NOSIG=
201409190430 METAR LFSB 190430Z 23003KT 200V270 9999 VCFG FEW002 BKN120
                        15/15 Q1013 NOSIG=
201409190500 METAR LFSB 190500Z VRB02KT 9999 VCFG FEW002 BKN120 15/15
                        Q1014 NOSIG=
201409190530 METAR LFSB 190530Z 12004KT 080V180 9999 VCFG FEW002 BKN110
                        16/16 Q1014 NOSIG=
201409190600 METAR LFSB 190600Z VRB03KT 8000 VCFG FEW001 SCT080 BKN110
                        16/16 Q1014 NOSIG=
201409190630 METAR LFSB 190630Z 19004KT 160V220 CAVOK 16/16 Q1014 NOSIG=
201409190700 METAR LFSB 190700Z 18004KT 150V220 CAVOK 17/16 Q1014 NOSIG=
201409190730 METAR LFSB 190730Z NIL=
201409190735 METAR LFSB 190735Z 18005KT 140V230 CAVOK 18/17 Q1014 NOSIG=
201409190800 METAR LFSB 190800Z 13006KT 100V160 CAVOK 19/17 Q1014 NOSIG=
201409190830 METAR LFSB 190830Z 14006KT 110V180 CAVOK 20/17 Q1014 NOSIG=
201409190900 METAR LFSB 190900Z 15006KT 100V190 CAVOK 21/17 Q1014 NOSIG=
201409190930 METAR LFSB 190930Z 15005KT 100V190 CAVOK 22/17 Q1015 NOSIG=
201409191000 METAR LFSB 191000Z 12004KT 080V180 CAVOK 23/18 Q1014 NOSIG=
201409191030 METAR LFSB 191030Z 19003KT 140V250 9999 FEW051 SCT093 BKN210
                        23/16 Q1015 NOSIG=
201409191100 METAR LFSB 191100Z 00000KT 9999 FEW051 SCT093 BKN210 23/16
                        Q1015 NOSIG=
201409191130 METAR LFSB 191130Z NIL=
201409191200 METAR COR LFSB 191200Z VRB01KT 9999 FEW033 BKN100 23/17 Q1014
                        NOSIG=
201409191230 METAR LFSB 191230Z VRB03KT 9999 FEW033 BKN100 24/17 Q1014
                        NOSIG=
201409191300 METAR LFSB 191300Z 19004KT 160V240 9999 FEW033 BKN086 24/17
                        Q1015 NOSIG=
201409191330 METAR LFSB 191330Z 30006KT 270V020 9999 FEW033 FEW053TCU
                        BKN086 24/18 Q1014 NOSIG=
201409191400 METAR LFSB 191400Z 30010KT 260V020 9999 FEW030 FEW053TCU
                        BKN086 22/15 Q1015 NOSIG=
201409191430 METAR LFSB 191430Z NIL=
201409191500 METAR COR LFSB 191500Z 28004KT 230V310 9999 FEW030 BKN080
                        22/16 Q1015 NOSIG=
201409191530 METAR LFSB 191530Z VRB02KT 9999 FEW030 BKN080 21/16 Q1014
                        NOSIG=
201409191600 METAR LFSB 191600Z VRB03KT 9999 FEW030 BKN080 BKN130 21/16
                        Q1014 NOSIG=
201409191630 METAR LFSB 191630Z VRB01KT 9999 FEW050 BKN090 BKN130 21/17
                        Q1015 NOSIG=
201409191700 METAR LFSB 191700Z VRB02KT 9999 FEW050 SCT120 BKN210 21/16
                        Q1014 NOSIG=
201409191730 METAR LFSB 191730Z VRB03KT 9999 FEW053 SCT100 19/16 Q1015
                        NOSIG=
201409191800 METAR LFSB 191800Z 29004KT 270V020 9999 FEW053 SCT100 18/16
                        Q1015 NOSIG=
201409191830 METAR LFSB 191830Z VRB02KT CAVOK 18/16 Q1015 NOSIG=
201409191900 METAR LFSB 191900Z 24002KT CAVOK 17/16 Q1015 NOSIG=
201409191930 METAR LFSB 191930Z NIL=
201409191941 METAR LFSB 191941Z VRB02KT CAVOK 17/16 Q1015 NOSIG=
201409192000 METAR LFSB 192000Z 17002KT CAVOK 17/16 Q1015 NOSIG=
201409192030 METAR LFSB 192030Z 20004KT CAVOK 17/16 Q1015 NOSIG=
201409192100 METAR LFSB 192100Z 16005KT 9999 FEW060TCU SCT063 17/16 Q1016
                        NOSIG=
201409192130 METAR LFSB 192130Z 00000KT CAVOK 18/16 Q1016 NOSIG=
201409192200 METAR LFSB 192200Z 24003KT 9999 -SHRA FEW060TCU BKN070 17/16
                        Q1016 NOSIG=
201409192230 METAR LFSB 192230Z AUTO VRB02KT 9999 -RA FEW041/// SCT072///
                        BKN100/// ///TCU 17/17 Q1015=
201409192300 METAR LFSB 192300Z AUTO 26005KT 9999 FEW031/// BKN066///
                        BKN086/// ///CB 17/17 Q1016=
201409192330 METAR LFSB 192330Z AUTO VRB03KT 9999 -RA FEW031/// BKN068///
                        OVC090/// ///CB 17/17 Q1016=
201409200000 METAR LFSB 200000Z AUTO 21005KT 150V260 3400 0800 R15/P2000
                        R33/P2000 +RA BCFG VCTS FEW033///
                        BKN060/// BKN070/// ///CB 17/17 Q1017=
201409200030 METAR LFSB 200030Z AUTO 05005KT 320V070 7000 RA FEW039///
                        SCT074/// OVC100/// ///CB 17/16 Q1016=
201409200100 METAR LFSB 200100Z AUTO 17004KT 120V220 3700 +RA BR FEW037///
                        SCT060/// BKN072/// ///TCU 17/16
                        Q1016=
201409200130 METAR LFSB 200130Z AUTO 16004KT 120V220 7000 -RA FEW006///
                        SCT056/// BKN066/// ///CB 17/17 Q1016=
201409200200 METAR LFSB 200200Z AUTO 17003KT 140V200 9999 BKN004/// BKN058///
                        BKN078/// ///TCU 17/17 Q1016=
201409200230 METAR LFSB 200230Z VRB03KT 9999 BKN003 FEW033TCU BKN053 17/16
                        Q1016 TEMPO 2500 SHRA BR BKN003 SCT035CB=
201409200300 METAR LFSB 200300Z VRB02KT 9999 SCT003 FEW033TCU BKN110 16/16
                        Q1015 TEMPO 2500 SHRA BR BKN003 SCT035CB=
201409200330 METAR COR LFSB 200330Z VRB03KT 9999 FEW003 FEW033TCU BKN100
                        16/16 Q1015 TEMPO 2500 SHRA BR BKN003
                        SCT035CB=
201409200400 METAR LFSB 200400Z 14006KT 100V210 9999 FEW003 SCT110 16/16
                        Q1015 NOSIG=
201409200430 METAR LFSB 200430Z VRB02KT 9999 FEW012 SCT110 16/15 Q1015
                        NOSIG=
201409200500 METAR LFSB 200500Z VRB03KT 7000 MIFG FEW010 BKN100 15/14
                        Q1015 NOSIG=
201409200530 METAR LFSB 200530Z 21002KT 9999 MIFG FEW010 BKN100 BKN230
                        15/15 Q1016 NOSIG=
201409200600 METAR LFSB 200600Z VRB03KT 9999 MIFG FEW004 BKN110 16/15
                        Q1016 NOSIG=
201409200630 METAR LFSB 200630Z VRB01KT 9999 MIFG FEW003 BKN100 15/15
                        Q1016 NOSIG=
201409200700 METAR LFSB 200700Z VRB02KT 9999 FEW003 BKN100 BKN170 16/15
                        Q1016 NOSIG=
201409200730 METAR LFSB 200730Z 19004KT 160V220 9999 FEW010 SCT100 16/16
                        Q1016 NOSIG=
201409200800 METAR LFSB 200800Z 17003KT 140V220 9999 FEW010 SCT170 18/17
                        Q1016 NOSIG=
201409200830 METAR LFSB 200830Z 15004KT 100V200 9999 FEW010 SCT170 20/17
                        Q1017 NOSIG=
201409200900 METAR LFSB 200900Z 16003KT 110V220 9999 SCT016 SCT170 21/17
                        Q1017 NOSIG=
201409200930 METAR LFSB 200930Z 19003KT 120V230 9999 SCT019 SCT170 21/17
                        Q1017 NOSIG=
201409201000 METAR LFSB 201000Z VRB03KT 9999 FEW019 SCT026 23/17 Q1017
                        NOSIG=
201409201030 METAR LFSB 201030Z VRB05KT 9999 FEW020 BKN030 23/16 Q1017
                        NOSIG=
201409201100 METAR LFSB 201100Z 26008KT 220V300 9999 BKN030 SCT041 BKN100
                        23/17 Q1017 NOSIG=
201409201130 METAR LFSB 201130Z 29005KT 210V020 9999 SCT028 SCT033 BKN110
                        24/17 Q1016 NOSIG=
201409201200 METAR LFSB 201200Z 27008KT 210V320 9999 FEW030 SCT039 BKN110
                        24/17 Q1016 NOSIG=
201409201230 METAR LFSB 201230Z 28005KT 220V320 9999 FEW030 SCT039 24/17
                        Q1016 NOSIG=
201409201300 METAR LFSB 201300Z 26008KT 200V310 9999 SCT033 FEW033TCU
                        SCT110 25/17 Q1016 NOSIG=
201409201330 METAR LFSB 201330Z 25007KT 210V310 9999 SCT035 FEW036TCU
                        25/17 Q1016 NOSIG=
201409201400 METAR LFSB 201400Z 26006KT 210V020 9999 FEW036 FEW036TCU
                        25/16 Q1016 NOSIG=
201409201430 METAR LFSB 201430Z 27008KT 230V310 9999 FEW036 FEW036TCU
                        25/16 Q1015 NOSIG=
201409201500 METAR LFSB 201500Z 27005KT 230V320 9999 FEW040CB 25/17 Q1015
                        NOSIG=
201409201530 METAR LFSB 201530Z 26008KT 210V290 9999 FEW040TCU 25/15 Q1015
                        NOSIG=
201409201600 METAR LFSB 201600Z 26007KT 230V300 9999 FEW040TCU 24/15 Q1015
                        NOSIG=
201409201630 METAR LFSB 201630Z 27005KT 230V310 9999 FEW040TCU 24/15 Q1015
                        NOSIG=
201409201700 METAR LFSB 201700Z 26004KT 230V290 9999 FEW040TCU 23/15 Q1015
                        NOSIG=
201409201730 METAR LFSB 201730Z 23003KT 9999 FEW040TCU 20/15 Q1016 NOSIG=
201409201800 METAR LFSB 201800Z 24005KT 9999 FEW040TCU 19/16 Q1016 NOSIG=
201409201830 METAR LFSB 201830Z VRB02KT 9999 FEW040TCU 19/15 Q1017 NOSIG=
201409201900 METAR LFSB 201900Z 20003KT 9999 FEW040CB 18/15 Q1017 NOSIG=
201409201930 METAR LFSB 201930Z 22004KT CAVOK 17/15 Q1017 NOSIG=
201409202000 METAR LFSB 202000Z 21003KT CAVOK 17/15 Q1017 NOSIG=
201409202030 METAR LFSB 202030Z VRB02KT 9999 FEW033CB SCT200 16/15 Q1017
                        NOSIG=
201409202100 METAR LFSB 202100Z VRB02KT 9999 FEW033CB SCT200 16/14 Q1017
                        NOSIG=
201409202130 METAR LFSB 202130Z 20003KT 9999 FEW030CB SCT120 15/15 Q1017
                        NOSIG=
201409202200 METAR LFSB 202200Z 00000KT 9999 FEW030TCU BKN110 16/15 Q1017
                        NOSIG=
201409202230 METAR LFSB 202230Z AUTO 00000KT 9999 NSC 16/15 Q1017=
201409202300 METAR LFSB 202300Z AUTO 00000KT 9999 NSC 16/15 Q1017=
201409202330 METAR LFSB 202330Z AUTO VRB01KT 9999 -RA VCTS FEW054/// BKN090///
                        OVC110/// ///CB 16/16 Q1017=
201409210000 METAR LFSB 210000Z AUTO VRB01KT 9999 FEW037 SCT078 BKN100
                        17/16 Q1017=
201409210030 METAR LFSB 210030Z AUTO VRB02KT 9999 BKN036/// BKN076///
                        BKN100/// ///TCU 17/16 Q1017=
201409210100 METAR LFSB 210100Z AUTO VRB02KT 9999 VCTS FEW004/// BKN035///
                        BKN048/// ///CB 17/16 Q1016=
201409210130 METAR LFSB 210130Z AUTO 18004KT 160V220 9999 VCTS FEW024///
                        BKN042/// BKN056/// ///CB 17/16 Q1017=
201409210200 METAR LFSB 210200Z AUTO 16005KT 9999 ///CB 17/16 Q1017=
201409210230 METAR LFSB 210230Z 21003KT 180V250 CAVOK 17/16 Q1017 NOSIG=
201409210300 METAR LFSB 210300Z VRB02KT 9999 FEW028 BKN096 17/16 Q1016
                        NOSIG=
201409210330 METAR LFSB 210330Z 13003KT 9999 FEW053 BKN093 17/16 Q1016
                        NOSIG=
201409210400 METAR LFSB 210400Z 20003KT 160V250 9999 FEW053 BKN093 17/15
                        Q1017 NOSIG=
201409210430 METAR LFSB 210430Z 16004KT 130V190 9999 FEW030TCU SCT063
                        BKN093 17/16 Q1017 NOSIG=
201409210500 METAR LFSB 210500Z VRB02KT 9999 FEW030TCU SCT060 BKN093 17/15
                        Q1017 NOSIG=
201409210530 METAR LFSB 210530Z 23003KT 150V270 9999 FEW030TCU SCT060
                        BKN080 17/15 Q1017 NOSIG=
201409210600 METAR LFSB 210600Z VRB02KT 9999 -SHRA FEW030TCU SCT060 BKN086
                        17/15 Q1017 NOSIG=
201409210630 METAR LFSB 210630Z 13003KT 080V150 9999 FEW030TCU SCT060
                        BKN086 17/16 Q1017 NOSIG=
201409210700 METAR LFSB 210700Z 11005KT 9999 -SHRA FEW030TCU BKN080 17/16
                        Q1017 NOSIG=
201409210730 METAR LFSB 210730Z 13005KT 9999 FEW030TCU BKN080 17/16 Q1017
                        NOSIG=
201409210800 METAR LFSB 210800Z 15003KT 090V200 9999 FEW030TCU SCT100
                        18/16 Q1017 NOSIG=
201409210830 METAR LFSB 210830Z 15004KT 050V190 9999 FEW030TCU SCT100
                        19/15 Q1017 NOSIG=
201409210900 METAR LFSB 210900Z VRB02KT 9999 FEW030TCU SCT100 21/15 Q1017
                        NOSIG=
201409210930 METAR LFSB 210930Z 24008KT 190V270 9999 FEW030TCU FEW030
                        BKN046 BKN100 21/14 Q1017 TEMPO 4000
                        SHRA=
201409211000 METAR LFSB 211000Z 25006KT 190V300 9999 3000S R33/1300D SHRA
                        SCT026TCU SCT030 BKN046 20/15 Q1017
                        TEMPO 4000 SHRA=
201409211030 METAR LFSB 211030Z 26005KT 220V310 9999 FEW026CB FEW026 BKN046
                        BKN100 20/16 Q1017 RESHRA TEMPO 4000
                        SHRA=
201409211100 METAR LFSB 211100Z 29008KT 240V020 9999 FEW026CB FEW026 BKN040
                        BKN100 20/15 Q1016 TEMPO 4000 SHRA=
201409211130 METAR LFSB 211130Z 29009KT 240V320 9999 FEW026CB FEW026 BKN040
                        BKN100 21/15 Q1016 TEMPO 4000 SHRA=
201409211200 METAR LFSB 211200Z 26010KT 220V300 9999 VCSH FEW026CB FEW026
                        BKN040 BKN100 20/15 Q1016 TEMPO 1500
                        TSRA BKN020CB=
201409211230 METAR LFSB 211230Z 28008KT 250V320 9999 FEW026CB FEW026 BKN040
                        BKN100 19/16 Q1016 TEMPO 1500 TSRA
                        BKN020CB=
201409211300 METAR LFSB 211300Z 32010KT 290V020 9000 VCSH FEW026CB FEW026
                        SCT040 BKN080 20/16 Q1016 TEMPO 1500
                        TSRA BKN020CB=
201409211330 METAR LFSB 211330Z 29005KT 270V020 9000 VCTS FEW025CB SCT040
                        BKN080 18/16 Q1016 RESHRA TEMPO 1500
                        TSRA BKN020CB=
201409211400 METAR LFSB 211400Z 29007KT 250V020 9999 -SHRA FEW025CB SCT040
                        BKN080 17/15 Q1016 RETS TEMPO 1500
                        TSRA BKN020CB=
201409211430 METAR LFSB 211430Z 28007KT 230V320 9999 FEW025CB SCT040 BKN080
                        17/15 Q1016 RETS TEMPO 1500 TSRA
                        BKN020CB=
201409211500 METAR LFSB 211500Z 27006KT 250V310 9999 FEW026TCU SCT040
                        BKN100 17/15 Q1016 TEMPO 4000 SHRA=
201409211530 METAR LFSB 211530Z 27005KT 200V320 9999 FEW026TCU SCT040
                        BKN100 17/15 Q1016 TEMPO 4000 SHRA=
201409211600 METAR LFSB 211600Z 27005KT 230V310 9999 -SHRA FEW026TCU SCT040
                        BKN100 17/15 Q1016 TEMPO 4000 SHRA=
201409211630 METAR LFSB 211630Z 26007KT 200V320 9999 FEW026TCU SCT040
                        BKN100 17/15 Q1016 TEMPO 4000 SHRA=
201409211700 METAR LFSB 211700Z 27008KT 240V300 9999 -RA FEW026TCU BKN050
                        BKN060 17/15 Q1016 TEMPO 4000 SHRA=
201409211730 METAR LFSB 211730Z 28007KT 250V320 8000 RA FEW015 FEW033TCU
                        BKN043 17/15 Q1017 TEMPO 4000 SHRA=
201409211800 METAR LFSB 211800Z 29007KT 250V320 9999 -RA FEW033 FEW040TCU
                        SCT040 BKN046 16/15 Q1017 TEMPO 4000
                        SHRA=
201409211830 METAR LFSB 211830Z 27006KT 240V310 9999 -RA FEW036 FEW040TCU
                        SCT066 BKN086 16/15 Q1017 TEMPO 4000
                        SHRA=
201409211900 METAR LFSB 211900Z 28007KT 9999 FEW036 FEW040TCU SCT066 BKN086
                        16/15 Q1017 TEMPO 4000 SHRA=
201409211930 METAR LFSB 211930Z 36010KT 300V050 6000 RA FEW010 BKN026
                        FEW033TCU BKN036 15/13 Q1018 TEMPO
                        4000 SHRA=
201409212000 METAR LFSB 212000Z 32006KT 280V020 8000 -RA SCT005 BKN013
                        BKN023 FEW033CB 14/14 Q1019 TEMPO
                        4000 SHRA=
201409212030 METAR LFSB 212030Z 33005KT 300V020 8000 BKN007 BKN016 FEW033TCU
                        BKN046 14/14 Q1019 TEMPO 4000 SHRA=
201409212100 METAR LFSB 212100Z 34006KT 320V020 9999 BKN008 BKN028 FEW033TCU
                        BKN056 14/13 Q1019 TEMPO 4000 SHRA=
201409212130 METAR LFSB 212130Z 32005KT 280V020 9999 BKN008 BKN014 BKN056
                        14/13 Q1019 TEMPO 4000 SHRA=
201409212200 METAR LFSB 212200Z 33005KT 300V020 6000 -RA BKN010 BKN023
                        BKN060 14/13 Q1020 TEMPO 4000 SHRA=
201409212230 METAR LFSB 212230Z AUTO 31005KT 270V020 9999 FEW007/// SCT011///
                        BKN020/// ///TCU 14/13 Q1020=
201409212300 METAR LFSB 212300Z AUTO 33005KT 300V020 9999 FEW014 BKN025
                        BKN032 14/13 Q1020=
201409212330 METAR LFSB 212330Z AUTO 30003KT 260V020 9999 FEW011 BKN028
                        BKN033 14/13 Q1020=
201409220000 METAR LFSB 220000Z AUTO 32003KT 290V020 9999 FEW010 BKN066
                        BKN094 13/12 Q1020=
201409220030 METAR LFSB 220030Z AUTO VRB02KT 9999 FEW015 BKN058 OVC076
                        13/12 Q1020=
201409220100 METAR LFSB 220100Z AUTO 30003KT 270V020 9999 FEW014 SCT062
                        BKN074 13/12 Q1020=
201409220130 METAR LFSB 220130Z AUTO 32004KT 280V020 9999 FEW023 BKN070
                        13/12 Q1020=
201409220200 METAR LFSB 220200Z AUTO 31003KT 270V020 9999 FEW025 OVC074
                        13/11 Q1020=
201409220230 METAR LFSB 220230Z 29003KT 260V020 9999 FEW025 BKN076 12/11
                        Q1020 NOSIG=
201409220300 METAR LFSB 220300Z 31003KT 280V020 CAVOK 12/11 Q1020 NOSIG=
201409220330 METAR LFSB 220330Z VRB03KT CAVOK 11/10 Q1020 NOSIG=
201409220400 METAR LFSB 220400Z VRB02KT CAVOK 11/11 Q1020 NOSIG=
201409220430 METAR LFSB 220430Z 27003KT CAVOK 11/10 Q1020 NOSIG=
201409220500 METAR LFSB 220500Z VRB03KT CAVOK 11/11 Q1021 NOSIG=
201409220530 METAR LFSB 220530Z VRB03KT CAVOK 11/10 Q1021 NOSIG=
201409220600 METAR LFSB 220600Z VRB02KT 9999 FEW015 BKN070 11/10 Q1021
                        NOSIG=
201409220630 METAR LFSB 220630Z VRB02KT 9999 FEW015 BKN066 12/10 Q1021
                        NOSIG=
201409220700 METAR LFSB 220700Z VRB02KT CAVOK 12/10 Q1021 NOSIG=
201409220716 METAR COR LFSB 220716Z VRB01KT 9999 FEW015 SCT066 12/10 Q1021
                        NOSIG=
201409220730 METAR LFSB 220730Z VRB01KT 9999 FEW015 SCT066 13/10 Q1021
                        NOSIG=
201409220800 METAR LFSB 220800Z VRB03KT 9999 FEW013 14/09 Q1021 NOSIG=
201409220830 METAR LFSB 220830Z 36006KT 320V060 9999 FEW013 14/10 Q1021
                        NOSIG=
201409220900 METAR LFSB 220900Z 36008KT 320V060 9999 FEW022 15/10 Q1021
                        NOSIG=
201409220930 METAR LFSB 220930Z 35006KT 300V020 9999 FEW023 15/09 Q1021
                        NOSIG=
201409221000 METAR LFSB 221000Z 03007KT 330V070 9999 SCT026 16/10 Q1021
                        NOSIG=
201409221030 METAR COR LFSB 221030Z 02005KT 330V080 9999 SCT030 16/09
                        Q1021 NOSIG=
201409221100 METAR LFSB 221100Z NIL=
201409221114 METAR LFSB 221114Z 35005KT 260V050 9999 SCT030 16/09 Q1021
                        NOSIG=
201409221130 METAR COR LFSB 221130Z VRB03KT 9999 FEW038 SCT060 16/07 Q1020
                        NOSIG=
201409221200 METAR LFSB 221200Z VRB03KT 9999 FEW038 BKN060 17/08 Q1020
                        NOSIG=
201409221230 METAR LFSB 221230Z 01007KT 350V050 9999 SCT040 BKN053 16/08
                        Q1020 NOSIG=
201409221300 METAR LFSB 221300Z 36007KT 320V050 9999 SCT040 SCT053 16/09
                        Q1019 NOSIG=
201409221330 METAR LFSB 221330Z VRB04KT 9999 SCT040 17/08 Q1019 NOSIG=
201409221400 METAR LFSB 221400Z 35007KT 310V020 9999 SCT043 BKN053 17/09
                        Q1019 NOSIG=
201409221430 METAR LFSB 221430Z 36006KT 320V050 9999 SCT040 BKN053 16/08
                        Q1019 NOSIG=
201409221500 METAR LFSB 221500Z 36010KT 330V050 9999 SCT040 BKN053 16/06
                        Q1020 NOSIG=
201409221530 METAR LFSB 221530Z 01007KT 320V070 9999 FEW040 BKN053 15/07
                        Q1020 NOSIG=
201409221600 METAR COR LFSB 221600Z 01005KT 340V060 9999 FEW028 SCT053
                        BKN066 15/07 Q1020 NOSIG=
201409221630 METAR LFSB 221630Z VRB01KT 9999 FEW030 SCT060 15/08 Q1020
                        NOSIG=
201409221700 METAR LFSB 221700Z VRB02KT 9999 FEW040 SCT063 14/09 Q1020
                        NOSIG=
201409221730 METAR LFSB 221730Z VRB02KT 9999 FEW040 SCT063 13/08 Q1021
                        NOSIG=
201409221800 METAR LFSB 221800Z 24002KT 9999 FEW040 SCT063 11/08 Q1021
                        NOSIG=
201409221830 METAR LFSB 221830Z 25004KT 9999 FEW040 BKN053 10/09 Q1021
                        NOSIG=
201409221900 METAR LFSB 221900Z 03010KT 350V070 9000 -RA FEW040 BKN046
                        12/09 Q1022 NOSIG=
201409221930 METAR LFSB 221930Z 00000KT 9999 -RA FEW040 BKN050 11/09 Q1022
                        NOSIG=
201409222000 METAR LFSB 222000Z 26003KT 9999 FEW040 BKN056 11/09 Q1022
                        NOSIG=
201409222030 METAR LFSB 222030Z VRB02KT 9999 FEW040 BKN056 09/08 Q1021
                        NOSIG=
201409222100 METAR LFSB 222100Z 33005KT 320V020 9999 FEW040 SCT056 09/08
                        Q1022 NOSIG=
201409222130 METAR LFSB 222130Z 34007KT 9999 FEW026 08/07 Q1022 NOSIG=
201409222200 METAR LFSB 222200Z 32006KT 300V020 9999 FEW020 08/08 Q1021
                        BECMG 4000 BR=
201409222230 METAR LFSB 222230Z AUTO 34004KT 310V020 7000 FEW005 08/07
                        Q1021=
201409222300 METAR LFSB 222300Z AUTO VRB02KT 7000 SCT004 08/07 Q1021=
201409222330 METAR LFSB 222330Z AUTO 31004KT 290V020 7000 FEW004 07/07
                        Q1022=
201409230000 METAR LFSB 230000Z AUTO 33003KT 320V020 4100 2000 BR FEW011
                        07/06 Q1021=
201409230030 METAR LFSB 230030Z AUTO 35008KT 7000 BKN004 BKN009 08/08
                        Q1022=
201409230100 METAR LFSB 230100Z AUTO 32004KT 290V020 4500 BR OVC003 08/08
                        Q1022=
201409230130 METAR LFSB 230130Z AUTO 35005KT 5000 BR BKN002 07/06 Q1022=
201409230200 METAR LFSB 230200Z AUTO 00000KT 3900 1400 R15/P2000 R33/P2000
                        BR BKN002 BKN006 07/07 Q1022=
201409230230 METAR LFSB 230230Z VRB02KT 4000 BR BKN002 08/08 Q1022 TEMPO
                        0700 BCFG VV///=
201409230300 METAR LFSB 230300Z VRB02KT 4500 BR FEW002 BKN005 08/08 Q1022
                        TEMPO 0700 BCFG VV///=
201409230330 METAR LFSB 230330Z 00000KT 9000 4000E BR FEW002 BKN005 08/07
                        Q1021 TEMPO 0700 BCFG VV///=
201409230400 METAR LFSB 230400Z VRB03KT 9000 4000E BR FEW002 BKN005 08/07
                        Q1022 TEMPO 0700 BCFG VV///=
201409230430 METAR COR LFSB 230430Z VRB02KT 9000 4000W BR FEW002 BKN004
                        07/07 Q1022 TEMPO 0700 BCFG VV///=
201409230500 METAR LFSB 230500Z VRB01KT 9000 4000W BR FEW002 BKN007 07/06
                        Q1022 TEMPO 0700 BCFG VV///=
201409230530 METAR LFSB 230530Z VRB03KT 9000 4000NW BR FEW002 BKN006 07/06
                        Q1022 TEMPO 0700 BCFG VV///=
201409230600 METAR LFSB 230600Z 00000KT 9000 4000N BR FEW002 BKN007 07/06
                        Q1022 TEMPO 0700 BCFG VV///=
201409230630 METAR LFSB 230630Z VRB02KT 6000 FEW003 08/07 Q1022 NOSIG=
201409230700 METAR LFSB 230700Z VRB02KT 8000 FEW004 09/07 Q1023 NOSIG=
201409230730 METAR LFSB 230730Z 15003KT 080V180 9999 FEW006 10/07 Q1022
                        NOSIG=
201409230800 METAR LFSB 230800Z 06004KT 350V110 9999 FEW006 10/06 Q1022
                        NOSIG=
201409230830 METAR LFSB 230830Z 06004KT 350V130 9999 FEW008 11/07 Q1022
                        NOSIG=
201409230900 METAR LFSB 230900Z 07005KT 350V140 9999 FEW008 12/07 Q1021
                        NOSIG=
201409230930 METAR LFSB 230930Z VRB04KT 9999 FEW010 13/06 Q1021 NOSIG=
201409231000 METAR LFSB 231000Z VRB03KT 9999 FEW013 14/06 Q1020 NOSIG=
201409231030 METAR LFSB 231030Z VRB03KT 9999 FEW016 15/08 Q1020 NOSIG=
201409231100 METAR LFSB 231100Z 33007KT 280V020 9999 FEW023 14/08 Q1020
                        NOSIG=
201409231130 METAR LFSB 231130Z 01007KT 330V050 9999 FEW025 15/08 Q1019
                        NOSIG=
201409231200 METAR LFSB 231200Z 02005KT 340V060 9999 FEW026 16/09 Q1019
                        NOSIG=
201409231230 METAR LFSB 231230Z 35007KT 310V040 9999 FEW026 16/10 Q1018
                        NOSIG=
201409231300 METAR LFSB 231300Z 35008KT 310V040 9999 FEW030 17/09 Q1018
                        NOSIG=
201409231330 METAR LFSB 231330Z 35009KT 320V050 9999 FEW030 17/09 Q1018
                        NOSIG=
201409231400 METAR LFSB 231400Z 36008KT 320V050 9999 FEW033 18/09 Q1017
                        NOSIG=
201409231430 METAR LFSB 231430Z 35007KT 320V050 9999 FEW033 18/10 Q1017
                        NOSIG=
201409231500 METAR LFSB 231500Z NIL=
201409231515 METAR LFSB 231515Z 36007KT 320V050 9999 FEW033 18/09 Q1016
                        NOSIG=
201409231530 METAR LFSB 231530Z 01008KT 340V050 CAVOK 18/09 Q1016 NOSIG=
201409231600 METAR LFSB 231600Z 35007KT CAVOK 17/09 Q1016 NOSIG=
201409231630 METAR LFSB 231630Z 35008KT CAVOK 17/09 Q1016 NOSIG=
201409231700 METAR LFSB 231700Z 34007KT 320V020 CAVOK 15/09 Q1016 NOSIG=
201409231730 METAR LFSB 231730Z 33006KT 300V020 CAVOK 13/09 Q1017 NOSIG=
201409231800 METAR LFSB 231800Z 32005KT 300V020 CAVOK 13/09 Q1017 NOSIG=
201409231830 METAR LFSB 231830Z 33006KT 310V020 CAVOK 12/09 Q1017 NOSIG=
201409231900 METAR LFSB 231900Z NIL=
201409231930 METAR COR LFSB 231930Z 33005KT 300V020 CAVOK 11/09 Q1017
                        NOSIG=
201409232000 METAR LFSB 232000Z 32005KT 300V020 CAVOK 10/08 Q1018 NOSIG=
201409232030 METAR LFSB 232030Z 33003KT 290V020 CAVOK 09/08 Q1018 NOSIG=
201409232100 METAR LFSB 232100Z 31004KT CAVOK 08/07 Q1018 NOSIG=
201409232130 METAR LFSB 232130Z 29004KT CAVOK 08/07 Q1018 NOSIG=
201409232200 METAR LFSB 232200Z 27003KT CAVOK 08/07 Q1018 NOSIG=
201409232230 METAR LFSB 232230Z NIL=
201409232300 METAR LFSB 232300Z NIL=
201409232330 METAR LFSB 232330Z NIL=
201409240000 METAR LFSB 240000Z NIL=
201409240030 METAR LFSB 240030Z NIL=
201409240100 METAR LFSB 240100Z NIL=
201409240130 METAR LFSB 240130Z NIL=
201409240200 METAR LFSB 240200Z NIL=
201409240230 METAR LFSB 240230Z VRB01KT 9000 NSC 04/03 Q1016 NOSIG=
201409240300 METAR LFSB 240300Z VRB01KT 4000 NSC 05/04 Q1016 TEMPO 0500
                        BCFG VV///=
201409240330 METAR LFSB 240330Z 30001KT 4000 NSC 04/04 Q1015 TEMPO 0500
                        BCFG VV///=
201409240400 METAR LFSB 240400Z 24002KT 6000 FEW004 BKN310 04/04 Q1015
                        NOSIG=
201409240430 METAR LFSB 240430Z 22002KT 6000 FEW004 BKN310 05/05 Q1015
                        NOSIG=
201409240500 METAR LFSB 240500Z 20005KT 9000 FEW004 BKN260 06/06 Q1015
                        NOSIG=
201409240530 METAR LFSB 240530Z 21006KT 9000 FEW001 BKN260 06/06 Q1015
                        NOSIG=
201409240600 METAR LFSB 240600Z 20005KT CAVOK 07/07 Q1015 NOSIG=
201409240630 METAR LFSB 240630Z 19003KT 160V220 CAVOK 08/07 Q1015 NOSIG=
201409240700 METAR LFSB 240700Z 18004KT 150V210 CAVOK 09/08 Q1015 NOSIG=
201409240730 METAR LFSB 240730Z 17005KT 150V210 CAVOK 11/08 Q1015 NOSIG=
201409240800 METAR LFSB 240800Z 16007KT 130V190 CAVOK 12/08 Q1015 NOSIG=
201409240830 METAR LFSB 240830Z 16007KT 120V190 CAVOK 13/08 Q1015 NOSIG=
201409240900 METAR LFSB 240900Z 15005KT 120V210 CAVOK 15/08 Q1015 NOSIG=
201409240930 METAR LFSB 240930Z 13004KT 080V170 CAVOK 16/09 Q1015 NOSIG=
201409241000 METAR LFSB 241000Z VRB02KT CAVOK 17/09 Q1015 NOSIG=
201409241030 METAR LFSB 241030Z VRB02KT CAVOK 18/10 Q1015 NOSIG=
201409241100 METAR LFSB 241100Z 23005KT 150V280 CAVOK 19/09 Q1014 NOSIG=
201409241130 METAR LFSB 241130Z 25006KT 220V300 CAVOK 19/09 Q1014 NOSIG=
201409241200 METAR LFSB 241200Z 27006KT 210V320 CAVOK 20/10 Q1013 NOSIG=
201409241230 METAR LFSB 241230Z 27007KT 220V320 CAVOK 20/10 Q1014 NOSIG=
201409241300 METAR LFSB 241300Z 28005KT 220V320 CAVOK 19/10 Q1013 NOSIG=
201409241330 METAR LFSB 241330Z 31008KT 250V020 CAVOK 18/11 Q1014 NOSIG=
201409241400 METAR LFSB 241400Z 29006KT 240V320 9999 FEW033 SCT060 BKN100
                        18/11 Q1014 NOSIG=
201409241430 METAR LFSB 241430Z 27008KT 230V310 9999 SCT050 BKN100 18/11
                        Q1014 NOSIG=
201409241500 METAR LFSB 241500Z 29008KT 230V320 9999 FEW040 SCT050 BKN090
                        17/11 Q1014 NOSIG=
201409241530 METAR LFSB 241530Z 31006KT 270V020 9999 -RA FEW040 SCT050
                        BKN066 16/11 Q1014 NOSIG=
201409241600 METAR LFSB 241600Z 29007KT 260V320 9999 -RA FEW040 SCT050
                        FEW066TCU BKN070 15/11 Q1014 NOSIG=
201409241630 METAR LFSB 241630Z 31004KT 280V020 9999 -RA FEW016 BKN070
                        14/12 Q1014 NOSIG=
201409241700 METAR COR LFSB 241700Z 31004KT 270V020 9999 -RA FEW016 BKN073
                        14/12 Q1015 NOSIG=
201409241730 METAR LFSB 241730Z NIL=
201409241800 METAR LFSB 241800Z 30003KT 270V020 9999 -RA FEW018 BKN073
                        14/12 Q1015 NOSIG=
201409241830 METAR LFSB 241830Z 00000KT 9999 -RA FEW020 BKN066 13/12 Q1015
                        NOSIG=
201409241900 METAR LFSB 241900Z VRB02KT 9999 -RA SCT041 BKN063 BKN070
                        13/12 Q1015 NOSIG=
201409241930 METAR LFSB 241930Z VRB03KT 9999 SCT013 SCT046 BKN073 13/12
                        Q1016 NOSIG=
201409242000 METAR LFSB 242000Z 26004KT 200V300 9999 FEW016 SCT053 13/11
                        Q1016 NOSIG=
201409242030 METAR LFSB 242030Z 28004KT CAVOK 12/11 Q1016 NOSIG=
201409242100 METAR LFSB 242100Z NIL=
201409242130 METAR LFSB 242130Z 28006KT 9000 SCT021 SCT053 12/11 Q1016
                        TEMPO 3000 BR=
201409242136 METAR COR LFSB 242136Z 28006KT 9000 SCT021 SCT053 12/11 Q1016
                        TEMPO 3000 BR=
201409242140 METAR COR LFSB 242140Z 28006KT 250V310 9000 SCT021 SCT053
                        12/11 Q1016 NOSIG=
201409242200 METAR LFSB 242200Z 27005KT 8000 SCT036 SCT055 12/10 Q1016
                        NOSIG=
201409242230 METAR LFSB 242230Z AUTO 26007KT 9999 FEW019 SCT036 BKN058
                        12/11 Q1017=
201409242300 METAR LFSB 242300Z AUTO 27007KT 230V290 9999 FEW018 SCT023
                        BKN028 12/11 Q1017=
201409242330 METAR LFSB 242330Z AUTO 26007KT 9999 FEW021 12/10 Q1017=
201409250000 METAR LFSB 250000Z AUTO 26007KT 240V300 9999 FEW025 BKN033
                        12/10 Q1017=
201409250030 METAR LFSB 250030Z AUTO 22003KT 190V270 9999 BKN028 BKN035
                        BKN049 12/10 Q1017=
201409250100 METAR LFSB 250100Z AUTO 00000KT 9999 OVC024 12/10 Q1018=
201409250130 METAR LFSB 250130Z AUTO 16003KT 9000 SCT024 OVC068 12/11
                        Q1018=
201409250200 METAR LFSB 250200Z AUTO VRB02KT 9999 NSC 12/11 Q1018=
201409250230 METAR LFSB 250230Z VRB02KT 9999 OVC050 12/11 Q1018 NOSIG=
201409250300 METAR LFSB 250300Z VRB03KT 9999 SCT041 OVC050 12/10 Q1018
                        NOSIG=
201409250330 METAR LFSB 250330Z VRB01KT 9999 BKN043 OVC051 12/11 Q1018
                        NOSIG=
201409250400 METAR LFSB 250400Z 25002KT 9999 BKN038 SCT046 12/11 Q1018
                        NOSIG=
201409250430 METAR LFSB 250430Z VRB02KT 9999 -RA NSC 12/11 Q1018 NOSIG=
201409250500 METAR LFSB 250500Z VRB01KT 9999 BKN021 SCT046 12/10 Q1019
                        NOSIG=
201409250530 METAR LFSB 250530Z 25005KT 210V290 9999 BKN021 SCT046 12/10
                        Q1019 NOSIG=
201409250600 METAR LFSB 250600Z 26006KT 230V290 9999 SCT016 BKN035 12/10
                        Q1019 NOSIG=
201409250630 METAR LFSB 250630Z 26008KT 230V300 9999 FEW016 BKN045 BKN075
                        12/11 Q1019 NOSIG=
201409250700 METAR LFSB 250700Z 25004KT 220V290 9999 FEW046 BKN071 12/11
                        Q1020 NOSIG=
201409250730 METAR LFSB 250730Z VRB01KT 9999 BKN033 BKN043 BKN080 13/11
                        Q1020 NOSIG=
201409250800 METAR LFSB 250800Z VRB02KT 9999 FEW013 BKN033 BKN080 13/10
                        Q1020 NOSIG=
201409250830 METAR LFSB 250830Z 00000KT 9999 SCT013 BKN033 BKN080 14/11
                        Q1021 NOSIG=
201409250900 METAR LFSB 250900Z VRB03KT 9999 SCT016 BKN041 15/11 Q1021
                        NOSIG=
201409250930 METAR LFSB 250930Z NIL=
201409251000 METAR LFSB 251000Z VRB03KT 9999 BKN020 BKN053 15/11 Q1021
                        NOSIG=
201409251030 METAR LFSB 251030Z 34003KT 290V020 9999 BKN030 BKN070 16/10
                        Q1021 NOSIG=
201409251100 METAR LFSB 251100Z VRB04KT 9999 SCT033 BKN260 17/10 Q1021
                        NOSIG=
201409251130 METAR LFSB 251130Z 02005KT 340V060 9999 SCT033 BKN070 BKN260
                        16/09 Q1022 NOSIG=
201409251200 METAR LFSB 251200Z 36005KT 330V060 9999 SCT035 SCT073 BKN260
                        16/09 Q1022 NOSIG=
201409251230 METAR LFSB 251230Z VRB02KT 9999 SCT035 BKN260 17/09 Q1022
                        NOSIG=
201409251300 METAR LFSB 251300Z 01005KT 340V050 9999 SCT036 BKN260 17/09
                        Q1022 NOSIG=
201409251330 METAR LFSB 251330Z 35005KT 290V050 9999 FEW036 SCT073 BKN260
                        17/08 Q1022 NOSIG=
201409251400 METAR LFSB 251400Z 32005KT 250V020 9999 FEW036 BKN260 18/08
                        Q1022 NOSIG=
201409251430 METAR LFSB 251430Z VRB03KT 9999 FEW041 BKN260 18/09 Q1022
                        NOSIG=
201409251500 METAR LFSB 251500Z 30004KT 230V020 9999 FEW041 BKN260 18/07
                        Q1022 NOSIG=
201409251530 METAR LFSB 251530Z 31004KT 270V020 9999 FEW041 BKN260 17/09
                        Q1022 NOSIG=
201409251600 METAR LFSB 251600Z 30003KT 260V020 9999 FEW041 BKN260 17/09
                        Q1022 NOSIG=
201409251630 METAR LFSB 251630Z 35006KT 9999 FEW041 BKN260 16/09 Q1022
                        NOSIG=
201409251700 METAR COR LFSB 251700Z VRB03KT 9999 FEW041 BKN260 14/10 Q1023
                        NOSIG=
201409251730 METAR LFSB 251730Z VRB02KT 9999 FEW046 BKN260 13/10 Q1023
                        NOSIG=
201409251800 METAR LFSB 251800Z 27003KT 9999 FEW046 BKN260 12/10 Q1023
                        NOSIG=
201409251830 METAR LFSB 251830Z 25004KT 9999 FEW046 BKN260 11/09 Q1023
                        NOSIG=
201409251900 METAR LFSB 251900Z 24004KT CAVOK 10/09 Q1023 NOSIG=
201409251930 METAR LFSB 251930Z VRB02KT CAVOK 10/09 Q1024 NOSIG=
201409252000 METAR LFSB 252000Z 23002KT CAVOK 09/08 Q1024 NOSIG=
201409252030 METAR LFSB 252030Z VRB01KT CAVOK 09/08 Q1024 NOSIG=
201409252100 METAR LFSB 252100Z 00000KT CAVOK 08/08 Q1024 NOSIG=
201409252130 METAR LFSB 252130Z 26003KT CAVOK 07/06 Q1024 NOSIG=
201409252200 METAR LFSB 252200Z 27003KT CAVOK 07/07 Q1024 NOSIG=
201409252230 METAR LFSB 252230Z AUTO 24002KT 9999 NSC 07/07 Q1024=
201409252300 METAR LFSB 252300Z AUTO 22003KT 8000 NSC 07/06 Q1024=
201409252330 METAR LFSB 252330Z AUTO 00000KT 9000 4300 NSC 06/06 Q1025=
201409260000 METAR LFSB 260000Z AUTO 24002KT 6000 R33/1400U NCD 06/05
                        Q1025=
201409260030 METAR LFSB 260030Z AUTO 25003KT 9999 FEW003 06/05 Q1025=
201409260100 METAR LFSB 260100Z AUTO 00000KT 8000 SCT004 05/05 Q1025=
201409260130 METAR LFSB 260130Z AUTO 00000KT 3500 0750 R15/P2000 R33/P2000
                        BCFG SCT003 05/05 Q1025=
201409260200 METAR LFSB 260200Z AUTO 24001KT 4500 0750 R15/P2000 R33/1600D
                        BCFG FEW004 05/05 Q1025=
201409260230 METAR LFSB 260230Z VRB02KT 8000 3000N VCFG FEW005 05/05 Q1025
                        TEMPO 1000 BCFG=
201409260300 METAR LFSB 260300Z 00000KT 8000 3000N R33/1100D VCFG FEW005
                        05/04 Q1025 TEMPO 0500 BCFG=
201409260330 METAR LFSB 260330Z 20001KT 8000 3000N VCFG FEW002 05/05 Q1025
                        TEMPO 0500 BCFG=
201409260400 METAR LFSB 260400Z VRB01KT 8000 3000N VCFG FEW002 05/05 Q1025
                        TEMPO 0500 BCFG=
201409260430 METAR LFSB 260430Z 19001KT 8000 3000N VCFG FEW002 BKN260
                        05/05 Q1025 TEMPO 0500 BCFG=
201409260500 METAR LFSB 260500Z 22002KT 8000 3000N VCFG FEW002 BKN260
                        05/04 Q1025 TEMPO 0500 BCFG=
201409260530 METAR LFSB 260530Z 21003KT 9000 4000N VCFG FEW002 BKN260
                        05/04 Q1025 TEMPO 0500 BCFG=
201409260600 METAR LFSB 260600Z VRB02KT 9000 VCFG FEW002 BKN260 06/05
                        Q1026 NOSIG=
201409260630 METAR LFSB 260630Z 19003KT 9999 VCFG FEW002 SCT260 08/08
                        Q1026 NOSIG=
201409260700 METAR LFSB 260700Z VRB03KT 9999 FEW002 SCT260 09/09 Q1026
                        NOSIG=
201409260730 METAR LFSB 260730Z VRB02KT 9999 FEW002 SCT260 10/09 Q1026
                        NOSIG=
201409260800 METAR LFSB 260800Z 13004KT 100V180 9999 FEW002 SCT260 12/09
                        Q1026 NOSIG=
201409260830 METAR LFSB 260830Z VRB03KT 9999 FEW002 SCT100 13/09 Q1026
                        NOSIG=
201409260900 METAR LFSB 260900Z VRB03KT CAVOK 14/09 Q1026 NOSIG=
201409260930 METAR LFSB 260930Z VRB03KT CAVOK 15/09 Q1026 NOSIG=
201409261000 METAR LFSB 261000Z VRB02KT CAVOK 16/09 Q1026 NOSIG=
201409261030 METAR LFSB 261030Z VRB03KT CAVOK 17/10 Q1026 NOSIG=
201409261100 METAR LFSB 261100Z VRB01KT 9999 FEW033 18/10 Q1026 NOSIG=
201409261130 METAR LFSB 261130Z VRB01KT 9999 FEW036 19/08 Q1026 NOSIG=
201409261200 METAR LFSB 261200Z 03003KT 320V080 9999 FEW036 19/08 Q1026
                        NOSIG=
201409261230 METAR LFSB 261230Z 34003KT 280V070 9999 FEW040 19/08 Q1025
                        NOSIG=
201409261300 METAR LFSB 261300Z 32003KT 240V010 9999 FEW040 19/08 Q1025
                        NOSIG=
201409261330 METAR LFSB 261330Z VRB03KT CAVOK 20/08 Q1025 NOSIG=
201409261400 METAR LFSB 261400Z 01003KT 290V090 CAVOK 20/08 Q1025 NOSIG=
201409261430 METAR LFSB 261430Z 36005KT 330V110 CAVOK 20/08 Q1025 NOSIG=
201409261500 METAR LFSB 261500Z 01005KT 330V050 CAVOK 20/08 Q1025 NOSIG=
201409261530 METAR LFSB 261530Z 01006KT 340V050 CAVOK 19/08 Q1025 NOSIG=
201409261600 METAR LFSB 261600Z 01006KT 340V050 CAVOK 19/09 Q1025 NOSIG=
201409261630 METAR LFSB 261630Z 36005KT 340V050 CAVOK 18/09 Q1025 NOSIG=
201409261700 METAR LFSB 261700Z 34005KT CAVOK 16/09 Q1025 NOSIG=
201409261730 METAR LFSB 261730Z 31004KT 300V020 CAVOK 14/10 Q1025 NOSIG=
201409261800 METAR LFSB 261800Z 27003KT CAVOK 12/09 Q1026 NOSIG=
201409261830 METAR LFSB 261830Z VRB03KT CAVOK 12/10 Q1026 NOSIG=
201409261900 METAR LFSB 261900Z VRB02KT CAVOK 11/09 Q1026 NOSIG=
201409261930 METAR LFSB 261930Z 22003KT CAVOK 11/09 Q1026 NOSIG=
201409262000 METAR LFSB 262000Z 26002KT CAVOK 10/08 Q1027 NOSIG=
201409262030 METAR LFSB 262030Z VRB02KT CAVOK 09/08 Q1027 NOSIG=
201409262100 METAR LFSB 262100Z VRB02KT CAVOK 09/08 Q1027 NOSIG=
201409262130 METAR LFSB 262130Z 00000KT 9999 FEW013 09/08 Q1027 NOSIG=
201409262200 METAR LFSB 262200Z 24001KT CAVOK 08/07 Q1027 NOSIG=
201409262230 METAR LFSB 262230Z AUTO 25001KT 9999 NSC 08/07 Q1027=
201409262300 METAR LFSB 262300Z AUTO 23002KT 9999 NSC 08/07 Q1027=
201409262330 METAR LFSB 262330Z AUTO 23003KT 9999 NSC 08/07 Q1027=
201409270000 METAR LFSB 270000Z AUTO 26002KT 9999 1200 R15/P2000 R33/P2000
                        NSC 07/07 Q1027=
201409270030 METAR LFSB 270030Z AUTO 27002KT 9999 NSC 07/06 Q1027=
201409270100 METAR LFSB 270100Z AUTO 23003KT 9999 FEW002 07/07 Q1027=
201409270130 METAR LFSB 270130Z AUTO 18003KT 9999 NSC 07/07 Q1027=
201409270200 METAR LFSB 270200Z AUTO 00000KT 9999 NSC 07/07 Q1027=
201409270230 METAR LFSB 270230Z 00000KT CAVOK 07/06 Q1027 NOSIG=
201409270300 METAR LFSB 270300Z 00000KT CAVOK 07/06 Q1026 NOSIG=
201409270330 METAR LFSB 270330Z 26002KT CAVOK 06/05 Q1026 NOSIG=
201409270400 METAR LFSB 270400Z VRB01KT CAVOK 07/06 Q1026 NOSIG=
201409270430 METAR LFSB 270430Z 23003KT CAVOK 06/06 Q1026 NOSIG=
201409270500 METAR LFSB 270500Z 23004KT 9999 FEW001 06/06 Q1026 NOSIG=
201409270530 METAR LFSB 270530Z 00000KT 9999 FEW002 SCT280 06/06 Q1027
                        NOSIG=
201409270600 METAR LFSB 270600Z 00000KT 9999 FEW002 SCT280 07/06 Q1027
                        NOSIG=
201409270630 METAR LFSB 270630Z 00000KT 9999 FEW003 09/08 Q1027 NOSIG=
201409270700 METAR LFSB 270700Z VRB02KT 9999 FEW004 10/09 Q1027 NOSIG=
201409270730 METAR LFSB 270730Z VRB02KT CAVOK 11/09 Q1027 NOSIG=
201409270800 METAR LFSB 270800Z 00000KT CAVOK 13/10 Q1028 NOSIG=
201409270830 METAR LFSB 270830Z 34002KT CAVOK 14/10 Q1028 NOSIG=
201409270900 METAR LFSB 270900Z 34003KT 290V050 CAVOK 15/10 Q1028 NOSIG=
201409270930 METAR LFSB 270930Z 31003KT 250V020 CAVOK 16/10 Q1028 NOSIG=
201409271000 METAR LFSB 271000Z VRB03KT CAVOK 17/11 Q1027 NOSIG=
201409271030 METAR LFSB 271030Z 35003KT 300V050 CAVOK 18/11 Q1027 NOSIG=
201409271100 METAR LFSB 271100Z VRB03KT CAVOK 19/12 Q1027 NOSIG=
201409271130 METAR LFSB 271130Z VRB02KT CAVOK 19/11 Q1027 NOSIG=
201409271200 METAR LFSB 271200Z 35004KT CAVOK 20/12 Q1027 NOSIG=
201409271230 METAR LFSB 271230Z 01004KT 300V080 CAVOK 20/12 Q1026 NOSIG=
201409271300 METAR LFSB 271300Z 03004KT 320V130 CAVOK 21/12 Q1026 NOSIG=
201409271330 METAR LFSB 271330Z 36004KT 300V070 9999 FEW040 SCT280 21/12
                        Q1026 NOSIG=
201409271400 METAR LFSB 271400Z 02005KT 350V070 9999 FEW040 SCT280 21/12
                        Q1026 NOSIG=
201409271430 METAR LFSB 271430Z 36005KT 330V050 9999 FEW040 SCT280 21/11
                        Q1026 NOSIG=
201409271500 METAR LFSB 271500Z 35006KT 320V050 9999 FEW040 SCT280 21/11
                        Q1026 NOSIG=
201409271530 METAR LFSB 271530Z 01005KT 340V060 9999 FEW040 SCT280 21/11
                        Q1025 NOSIG=
201409271600 METAR LFSB 271600Z 36005KT 330V050 9999 FEW040 SCT280 21/12
                        Q1025 NOSIG=
201409271630 METAR LFSB 271630Z 01004KT 340V060 CAVOK 20/12 Q1025 NOSIG=
201409271700 METAR LFSB 271700Z 36003KT 340V050 CAVOK 19/12 Q1025 NOSIG=
201409271730 METAR LFSB 271730Z VRB03KT CAVOK 16/12 Q1025 NOSIG=
201409271800 METAR LFSB 271800Z VRB02KT CAVOK 15/12 Q1025 NOSIG=
201409271830 METAR LFSB 271830Z VRB02KT CAVOK 14/12 Q1025 NOSIG=
201409271900 METAR LFSB 271900Z VRB02KT CAVOK 14/12 Q1026 NOSIG=
201409271930 METAR LFSB 271930Z 25002KT CAVOK 13/11 Q1026 NOSIG=
201409272000 METAR LFSB 272000Z VRB01KT CAVOK 12/11 Q1026 NOSIG=
201409272030 METAR LFSB 272030Z VRB02KT CAVOK 11/10 Q1026 NOSIG=
201409272100 METAR LFSB 272100Z 24002KT CAVOK 11/10 Q1026 NOSIG=
201409272130 METAR LFSB 272130Z 26001KT CAVOK 10/10 Q1026 NOSIG=
201409272200 METAR LFSB 272200Z 27002KT CAVOK 10/10 Q1026 NOSIG=
201409272230 METAR LFSB 272230Z AUTO 24002KT 9999 FEW001 10/09 Q1026=
201409272300 METAR LFSB 272300Z AUTO 26002KT 9000 VV/// 10/09 Q1026=
201409272330 METAR LFSB 272330Z AUTO 31001KT 8000 FEW001 09/09 Q1026=
201409280000 METAR LFSB 280000Z AUTO 28002KT 9999 NSC 09/08 Q1026=
201409280030 METAR LFSB 280030Z AUTO 00000KT 3400 0900 R15/P2000 R33/P2000
                        BCFG NSC 09/09 Q1026=
201409280100 METAR LFSB 280100Z AUTO 26002KT 9999 1200 R15/P2000 R33/P2000
                        NSC 09/08 Q1025=
201409280130 METAR LFSB 280130Z AUTO 25002KT 3000 BR NSC 08/08 Q1025=
201409280200 METAR LFSB 280200Z AUTO 25002KT 6000 0900 R15/P2000 R33/1600U
                        BCFG VV/// 08/07 Q1025=
201409280230 METAR LFSB 280230Z 22002KT 9000 R33/1000U MIFG NSC 08/07
                        Q1025 NOSIG=
201409280300 METAR LFSB 280300Z 20002KT 9000 MIFG NSC 08/08 Q1025 NOSIG=
201409280330 METAR LFSB 280330Z 18003KT 9999 MIFG NSC 08/08 Q1025 NOSIG=
201409280400 METAR LFSB 280400Z 20003KT CAVOK 08/08 Q1025 NOSIG=
201409280430 METAR LFSB 280430Z 19003KT CAVOK 09/08 Q1025 NOSIG=
201409280500 METAR LFSB 280500Z 19004KT CAVOK 10/10 Q1025 NOSIG=
201409280530 METAR LFSB 280530Z 18005KT CAVOK 11/10 Q1025 NOSIG=
201409280600 METAR LFSB 280600Z 19004KT CAVOK 11/10 Q1025 NOSIG=
201409280630 METAR LFSB 280630Z 21004KT CAVOK 12/11 Q1025 NOSIG=
201409280700 METAR LFSB 280700Z 16003KT CAVOK 14/13 Q1025 NOSIG=
201409280730 METAR LFSB 280730Z 14004KT 090V230 CAVOK 15/13 Q1025 NOSIG=
201409280800 METAR LFSB 280800Z 16004KT 110V200 CAVOK 17/13 Q1026 NOSIG=
201409280830 METAR LFSB 280830Z 18004KT 140V220 CAVOK 18/13 Q1026 NOSIG=
201409280900 METAR LFSB 280900Z 14004KT 100V200 CAVOK 18/14 Q1026 NOSIG=
201409280930 METAR LFSB 280930Z 14006KT 080V180 CAVOK 19/14 Q1026 NOSIG=
201409281000 METAR LFSB 281000Z 15003KT 090V210 CAVOK 20/13 Q1026 NOSIG=
201409281030 METAR LFSB 281030Z 14003KT 050V180 CAVOK 21/13 Q1026 NOSIG=
201409281100 METAR LFSB 281100Z 12003KT 050V190 CAVOK 22/14 Q1026 NOSIG=
201409281130 METAR LFSB 281130Z VRB02KT CAVOK 23/14 Q1025 NOSIG=
201409281200 METAR LFSB 281200Z 28006KT 260V020 CAVOK 24/13 Q1025 NOSIG=
201409281230 METAR LFSB 281230Z 29006KT 220V020 9999 FEW045 BKN260 24/13
                        Q1025 NOSIG=
201409281300 METAR LFSB 281300Z VRB04KT 9999 FEW045 BKN260 25/13 Q1024
                        NOSIG=
201409281330 METAR LFSB 281330Z 32005KT 260V020 9999 FEW050 BKN260 24/12
                        Q1024 NOSIG=
201409281400 METAR LFSB 281400Z NIL=
201409281411 METAR COR LFSB 281411Z VRB02KT 9999 FEW050 BKN260 25/12 Q1024
                        NOSIG=
201409281430 METAR LFSB 281430Z VRB03KT 9999 FEW050 BKN260 25/12 Q1024
                        NOSIG=
201409281500 METAR LFSB 281500Z VRB02KT 9999 FEW050 BKN260 25/12 Q1024
                        NOSIG=
201409281530 METAR LFSB 281530Z 00000KT 9999 FEW050 BKN260 25/11 Q1024
                        NOSIG=
201409281600 METAR LFSB 281600Z VRB02KT CAVOK 24/13 Q1024 NOSIG=
201409281630 METAR LFSB 281630Z 17001KT CAVOK 24/13 Q1024 NOSIG=
201409281700 METAR LFSB 281700Z VRB02KT CAVOK 22/15 Q1024 NOSIG=
201409281730 METAR LFSB 281730Z VRB02KT CAVOK 18/14 Q1024 NOSIG=
201409281800 METAR LFSB 281800Z 25003KT CAVOK 16/14 Q1024 NOSIG=
201409281830 METAR LFSB 281830Z VRB01KT CAVOK 16/14 Q1024 NOSIG=
201409281900 METAR LFSB 281900Z VRB02KT CAVOK 15/13 Q1025 NOSIG=
201409281930 METAR LFSB 281930Z NIL=
201409281935 METAR LFSB 281935Z VRB01KT CAVOK 14/13 Q1025 NOSIG=
201409282000 METAR LFSB 282000Z 19003KT CAVOK 14/12 Q1025 NOSIG=
201409282030 METAR LFSB 282030Z NIL=
201409282100 METAR LFSB 282100Z 19005KT CAVOK 14/13 Q1025 NOSIG=
201409282130 METAR LFSB 282130Z VRB02KT CAVOK 14/12 Q1025 NOSIG=
201409282200 METAR LFSB 282200Z 21003KT CAVOK 13/12 Q1025 NOSIG=
201409282230 METAR LFSB 282230Z AUTO 19004KT 9999 NSC 14/13 Q1025=
201409282300 METAR LFSB 282300Z AUTO 20005KT 9999 NSC 14/13 Q1025=
201409282330 METAR LFSB 282330Z AUTO 18004KT 140V210 9999 NSC 14/13 Q1025=
201409290000 METAR LFSB 290000Z AUTO 16006KT 9999 NSC 13/12 Q1025=
201409290030 METAR LFSB 290030Z AUTO 17004KT 9999 NSC 13/12 Q1025=
201409290100 METAR LFSB 290100Z AUTO 19005KT 9999 NSC 13/12 Q1025=
201409290130 METAR LFSB 290130Z AUTO 20005KT 170V230 9999 NSC 13/12 Q1025=
201409290200 METAR LFSB 290200Z AUTO 19005KT 160V220 9999 NSC 13/12 Q1025=
201409290230 METAR LFSB 290230Z 20005KT CAVOK 13/12 Q1025 NOSIG=
201409290300 METAR LFSB 290300Z 19006KT CAVOK 13/12 Q1025 NOSIG=
201409290330 METAR LFSB 290330Z 19004KT CAVOK 13/12 Q1025 NOSIG=
201409290400 METAR LFSB 290400Z 20006KT 8000 NSC 13/12 Q1025 NOSIG=
201409290430 METAR LFSB 290430Z 20006KT CAVOK 13/12 Q1025 NOSIG=
201409290500 METAR LFSB 290500Z 19006KT CAVOK 13/12 Q1025 NOSIG=
201409290530 METAR LFSB 290530Z 18004KT 150V210 CAVOK 12/11 Q1025 NOSIG=
201409290600 METAR LFSB 290600Z 20005KT CAVOK 12/12 Q1025 NOSIG=
201409290630 METAR LFSB 290630Z 18005KT 150V210 CAVOK 13/12 Q1026 NOSIG=
201409290700 METAR LFSB 290700Z 17005KT 150V210 CAVOK 15/13 Q1026 NOSIG=
201409290730 METAR LFSB 290730Z 13007KT CAVOK 16/14 Q1026 NOSIG=
201409290800 METAR LFSB 290800Z 14006KT CAVOK 17/14 Q1026 NOSIG=
201409290830 METAR LFSB 290830Z 15005KT 100V180 CAVOK 18/14 Q1026 NOSIG=
201409290900 METAR LFSB 290900Z 14006KT CAVOK 19/15 Q1026 NOSIG=
201409290930 METAR LFSB 290930Z 15005KT 100V180 CAVOK 20/14 Q1026 NOSIG=
201409291000 METAR LFSB 291000Z 13005KT 090V170 CAVOK 21/15 Q1025 NOSIG=
201409291030 METAR LFSB 291030Z 13004KT 080V170 CAVOK 22/14 Q1025 NOSIG=
201409291100 METAR LFSB 291100Z VRB02KT CAVOK 23/13 Q1025 NOSIG=
201409291130 METAR LFSB 291130Z VRB03KT CAVOK 24/13 Q1025 NOSIG=
201409291200 METAR LFSB 291200Z VRB02KT CAVOK 25/12 Q1025 NOSIG=
201409291230 METAR LFSB 291230Z VRB03KT CAVOK 26/13 Q1024 NOSIG=
201409291300 METAR LFSB 291300Z VRB02KT CAVOK 25/15 Q1024 NOSIG=
201409291330 METAR LFSB 291330Z VRB03KT CAVOK 25/13 Q1024 NOSIG=
201409291400 METAR LFSB 291400Z 31007KT 280V020 CAVOK 24/14 Q1024 NOSIG=
201409291430 METAR LFSB 291430Z 29007KT 270V020 CAVOK 23/14 Q1024 NOSIG=
201409291500 METAR LFSB 291500Z 30006KT 260V020 CAVOK 22/14 Q1024 NOSIG=
201409291530 METAR LFSB 291530Z 28004KT 250V310 CAVOK 22/14 Q1025 NOSIG=
201409291600 METAR LFSB 291600Z 28003KT 230V310 CAVOK 22/14 Q1025 NOSIG=
201409291630 METAR LFSB 291630Z 27004KT 240V310 CAVOK 21/14 Q1025 NOSIG=
201409291700 METAR LFSB 291700Z VRB02KT CAVOK 21/13 Q1025 NOSIG=
201409291730 METAR LFSB 291730Z VRB01KT CAVOK 20/13 Q1025 NOSIG=
201409291800 METAR LFSB 291800Z VRB02KT 9999 -RA NSC 20/13 Q1025 NOSIG=
201409291830 METAR LFSB 291830Z VRB03KT 9999 -RA NSC 19/13 Q1025 NOSIG=
201409291900 METAR LFSB 291900Z VRB03KT 9999 -RA NSC 18/14 Q1025 NOSIG=
201409291930 METAR LFSB 291930Z 24004KT CAVOK 18/15 Q1025 NOSIG=
201409292000 METAR LFSB 292000Z 24004KT 200V260 CAVOK 17/14 Q1026 NOSIG=
201409292030 METAR LFSB 292030Z VRB03KT CAVOK 17/15 Q1026 NOSIG=
201409292100 METAR LFSB 292100Z VRB02KT CAVOK 17/14 Q1026 NOSIG=
201409292130 METAR LFSB 292130Z VRB02KT CAVOK 17/14 Q1026 NOSIG=
201409292200 METAR LFSB 292200Z VRB02KT CAVOK 16/14 Q1026 NOSIG=
201409292230 METAR LFSB 292230Z AUTO VRB01KT 9999 NSC 16/14 Q1026=
201409292300 METAR LFSB 292300Z AUTO 19002KT 9999 NSC 16/14 Q1026=
201409292330 METAR LFSB 292330Z AUTO VRB03KT 9999 NSC 15/14 Q1026=
201409300000 METAR LFSB 300000Z AUTO 20002KT 9999 FEW049 BKN094 BKN130
                        15/14 Q1026=
201409300030 METAR LFSB 300030Z AUTO 15001KT 9999 FEW050 BKN062 OVC082
                        15/14 Q1026=
201409300100 METAR LFSB 300100Z AUTO VRB02KT 9999 NSC 15/14 Q1025=
201409300130 METAR LFSB 300130Z AUTO VRB01KT 9999 NSC 15/14 Q1025=
201409300200 METAR LFSB 300200Z 00000KT 9999 FEW050 BKN080 15/14 Q1025
                        NOSIG=
201409300230 METAR LFSB 300230Z VRB01KT 9999 FEW050 BKN080 15/14 Q1025
                        NOSIG=
201409300300 METAR LFSB 300300Z 00000KT 9999 FEW050 BKN075 15/14 Q1025
                        NOSIG=
201409300330 METAR LFSB 300330Z VRB01KT 9999 FEW050 BKN070 15/14 Q1025
                        NOSIG=
201409300400 METAR LFSB 300400Z VRB02KT 9999 FEW050 BKN066 15/14 Q1025
                        NOSIG=
201409300430 METAR LFSB 300430Z 25003KT 9999 FEW050 BKN093 15/14 Q1025
                        NOSIG=
201409300500 METAR LFSB 300500Z 23002KT 9999 FEW050 BKN095 15/14 Q1025
                        NOSIG=
201409300530 METAR LFSB 300530Z 22002KT 9999 FEW050 BKN095 15/14 Q1026
                        NOSIG=
201409300600 METAR LFSB 300600Z 00000KT 9999 FEW046 BKN100 15/14 Q1026
                        NOSIG=
201409300630 METAR LFSB 300630Z 17002KT 9999 FEW050 BKN100 16/15 Q1026
                        NOSIG=
201409300700 METAR LFSB 300700Z VRB01KT 9999 SCT050 BKN100 16/15 Q1026
                        NOSIG=
201409300730 METAR LFSB 300730Z 17003KT 140V200 9999 BKN050 BKN100 17/15
                        Q1026 NOSIG=
201409300800 METAR LFSB 300800Z VRB03KT 9999 BKN053 BKN100 18/15 Q1026
                        NOSIG=
201409300830 METAR LFSB 300830Z VRB03KT 9999 SCT053 BKN073 BKN260 18/15
                        Q1026 NOSIG=
201409300900 METAR LFSB 300900Z VRB02KT 9999 FEW053 BKN073 BKN260 18/15
                        Q1026 NOSIG=
201409300930 METAR LFSB 300930Z 00000KT 9999 SCT050 SCT130 BKN260 19/15
                        Q1026 NOSIG=
201409301000 METAR LFSB 301000Z 00000KT 9999 BKN046 BKN130 BKN260 19/15
                        Q1027 NOSIG=
201409301030 METAR LFSB 301030Z VRB01KT 9999 FEW033 SCT046 BKN140 20/15
                        Q1026 NOSIG=
201409301100 METAR LFSB 301100Z 00000KT 9999 FEW033 BKN053 BKN140 20/14
                        Q1027 NOSIG=
201409301130 METAR LFSB 301130Z VRB02KT 9999 FEW033 BKN060 BKN140 20/14
                        Q1026 NOSIG=
201409301200 METAR LFSB 301200Z VRB01KT 9999 FEW033 BKN060 BKN140 21/15
                        Q1026 NOSIG=
201409301230 METAR LFSB 301230Z VRB02KT 9999 FEW040 BKN060 BKN140 21/14
                        Q1026 NOSIG=
201409301300 METAR LFSB 301300Z 25003KT 190V290 9999 FEW040 BKN046 BKN140
                        21/15 Q1026 NOSIG=
201409301330 METAR LFSB 301330Z VRB02KT 9999 FEW040TCU FEW040 BKN050 BKN150
                        21/15 Q1026 NOSIG=
201409301400 METAR LFSB 301400Z VRB01KT 9999 FEW040TCU FEW040 BKN053 BKN180
                        22/15 Q1026 NOSIG=
201409301430 METAR LFSB 301430Z VRB01KT 9999 FEW040TCU FEW040 BKN060 BKN180
                        22/15 Q1026 NOSIG=
201409301500 METAR LFSB 301500Z 00000KT 9999 FEW040CB FEW040 BKN060 BKN180
                        22/14 Q1025 TEMPO 5000 SHRA=
201409301530 METAR LFSB 301530Z 10003KT 050V130 9999 -SHRA FEW030CB SCT030
                        BKN060 BKN180 21/15 Q1025 TEMPO 5000
                        SHRA=
201409301600 METAR LFSB 301600Z 10005KT 050V140 9000 -SHRA FEW030CB SCT030
                        BKN046 BKN180 20/16 Q1025 TEMPO 5000
                        SHRA=
201409301630 METAR COR LFSB 301630Z 13005KT 090V160 9999 3000S -SHRA SCT030CB
                        SCT030 BKN040 BKN180 18/16 Q1025
                        TEMPO 2000 SHRA=
201409301700 METAR LFSB 301700Z 12006KT 9999 FEW030CB SCT030 BKN040 BKN180
                        18/16 Q1026 RESHRA TEMPO 3000 SHRA=
201409301730 METAR LFSB 301730Z VRB02KT 9999 FEW030TCU SCT033 BKN040 18/16
                        Q1026 RESHRA NOSIG=
201409301800 METAR LFSB 301800Z VRB02KT 9999 -RA SCT033 SCT060 BKN070
                        17/16 Q1026 NOSIG=
201409301830 METAR LFSB 301830Z VRB02KT 9999 FEW033 SCT053 BKN073 17/16
                        Q1026 NOSIG=
201409301900 METAR LFSB 301900Z VRB01KT 9999 FEW050 BKN076 BKN110 17/16
                        Q1026 NOSIG=
201409301930 METAR LFSB 301930Z VRB01KT 8000 FEW033 BKN080 BKN240 16/15
                        Q1026 NOSIG=
201409302000 METAR LFSB 302000Z VRB01KT 8000 FEW033 BKN080 BKN240 15/15
                        Q1026 NOSIG=
201409302030 METAR LFSB 302030Z VRB02KT 4000 BR FEW008 BKN080 BKN240 15/15
                        Q1026 NOSIG=
201409302100 METAR LFSB 302100Z 24002KT 4000 BR SCT023 BKN080 BKN240 15/14
                        Q1026 NOSIG=
201409302130 METAR LFSB 302130Z 29002KT 4000 BR BKN025 BKN031 BKN100 15/15
                        Q1026 NOSIG=
201409302200 METAR LFSB 302200Z 35004KT 330V050 4000 BR FEW005 BKN031
                        15/15 Q1026 NOSIG=
201409302230 METAR LFSB 302230Z AUTO 31002KT 4300 BR BKN007 OVC011 15/15
                        Q1026=
201409302300 METAR LFSB 302300Z AUTO 23002KT 3800 BR OVC012 16/15 Q1026=
201409302330 METAR LFSB 302330Z AUTO VRB02KT 4000 BR FEW013 BKN025 OVC037
                        16/15 Q1026=
201410010000 METAR LFSB 010000Z AUTO VRB02KT 4700 BR FEW022 SCT027 BKN039
                        16/15 Q1026=
201410010030 METAR LFSB 010030Z AUTO VRB01KT 4200 BR FEW017 SCT028 BKN038
                        16/15 Q1026=
201410010100 METAR LFSB 010100Z AUTO VRB03KT 3600 BR FEW011 SCT018 BKN041
                        15/15 Q1026=
201410010130 METAR LFSB 010130Z AUTO VRB02KT 3200 BR BKN006 BKN010 BKN017
                        15/15 Q1026=
201410010200 METAR LFSB 010200Z AUTO 34003KT 320V020 4100 BR OVC005 16/15
                        Q1026=
201410010230 METAR LFSB 010230Z VRB03KT 4000 BR OVC005 16/15 Q1026 NOSIG=
201410010300 METAR LFSB 010300Z VRB02KT 4500 BR OVC005 16/15 Q1026 NOSIG=
201410010330 METAR LFSB 010330Z 34004KT 4500 BR OVC006 16/15 Q1026 NOSIG=
201410010400 METAR LFSB 010400Z 33004KT 300V020 4500 BR OVC005 16/15 Q1026
                        NOSIG=
201410010430 METAR LFSB 010430Z NIL=
201410010435 METAR LFSB 010435Z 34003KT 320V020 0900 R15/P2000 R33/1800N
                        OVC003 16/15 Q1026 NOSIG=
201410010500 METAR COR LFSB 010500Z 33003KT 310V020 3000 BR OVC004 15/15
                        Q1026 NOSIG=
201410010530 METAR LFSB 010530Z 32004KT 300V020 4000 BR OVC005 15/15 Q1026
                        NOSIG=
201410010600 METAR LFSB 010600Z 32005KT 300V020 4500 BR BKN006 BKN012
                        15/14 Q1026 NOSIG=
201410010630 METAR LFSB 010630Z 33005KT 310V020 4500 BR SCT005 OVC012
                        15/14 Q1026 NOSIG=
201410010700 METAR LFSB 010700Z 33004KT 290V020 4000 BR BKN005 BKN012
                        15/15 Q1027 NOSIG=
201410010730 METAR LFSB 010730Z 32005KT 270V020 2500 BR BKN003 BKN007
                        OVC013 15/15 Q1027 NOSIG=
201410010800 METAR LFSB 010800Z 31004KT 270V020 3000 BR FEW003 OVC005
                        16/15 Q1027 NOSIG=
201410010830 METAR COR LFSB 010830Z 32003KT 270V020 4000 BR FEW003 OVC006
                        16/15 Q1027 NOSIG=
201410010900 METAR LFSB 010900Z 03004KT 360V080 4000 BR FEW003 OVC006
                        16/15 Q1027 NOSIG=
201410010930 METAR LFSB 010930Z 04004KT 350V090 4000 BR OVC005 16/15 Q1027
                        NOSIG=
201410011000 METAR LFSB 011000Z VRB03KT 4800 BR OVC006 17/15 Q1027 NOSIG=
201410011030 METAR COR LFSB 011030Z 01003KT 310V070 7000 FEW006 BKN010
                        18/15 Q1027 NOSIG=
201410011100 METAR LFSB 011100Z VRB03KT 8000 FEW006 BKN011 18/15 Q1027
                        NOSIG=
201410011130 METAR LFSB 011130Z 34003KT 250V060 9999 SCT014 19/15 Q1027
                        NOSIG=
201410011200 METAR LFSB 011200Z 36004KT 300V070 9999 FEW018 20/15 Q1027
                        NOSIG=
201410011230 METAR LFSB 011230Z VRB03KT 9999 FEW020 21/14 Q1026 NOSIG=
201410011300 METAR LFSB 011300Z 36004KT 320V060 9999 FEW020 21/14 Q1026
                        NOSIG=
201410011330 METAR LFSB 011330Z 01005KT 340V080 9999 FEW030TCU 21/15 Q1026
                        NOSIG=
201410011400 METAR LFSB 011400Z 01004KT 320V080 9999 FEW030TCU SCT260
                        22/14 Q1026 NOSIG=
201410011430 METAR LFSB 011430Z 35004KT 270V050 9999 FEW033TCU SCT260
                        22/15 Q1026 NOSIG=
201410011500 METAR LFSB 011500Z 35005KT 310V020 9999 FEW033TCU 22/13 Q1026
                        NOSIG=
201410011530 METAR LFSB 011530Z 34005KT 310V020 9999 FEW033TCU 22/14 Q1026
                        NOSIG=
201410011600 METAR COR LFSB 011600Z 36003KT 9999 FEW033TCU 21/14 Q1026
                        NOSIG=
201410011630 METAR LFSB 011630Z 35004KT 320V020 9999 FEW033TCU 20/14 Q1026
                        NOSIG=
201410011700 METAR LFSB 011700Z 31003KT 290V020 9999 FEW033TCU 18/14 Q1026
                        NOSIG=
201410011730 METAR LFSB 011730Z 30006KT 9999 FEW033TCU 16/14 Q1026 NOSIG=
201410011800 METAR LFSB 011800Z 32003KT 310V020 9999 FEW046 16/13 Q1026
                        NOSIG=
201410011830 METAR LFSB 011830Z 31006KT 9999 FEW046 15/14 Q1027 NOSIG=
201410011900 METAR LFSB 011900Z 30004KT 9999 FEW046 15/13 Q1027 NOSIG=
201410011930 METAR LFSB 011930Z 29002KT 9999 SCT053 14/13 Q1027 NOSIG=
201410012000 METAR LFSB 012000Z 32004KT 9999 SCT053 14/13 Q1027 NOSIG=
201410012030 METAR LFSB 012030Z 29003KT 9999 SCT050 13/12 Q1027 NOSIG=
201410012100 METAR LFSB 012100Z 00000KT 9999 SCT050 13/13 Q1028 NOSIG=
201410012130 METAR LFSB 012130Z VRB02KT 9000 SCT050 13/13 Q1028 NOSIG=
201410012200 METAR LFSB 012200Z 00000KT 8000 SCT050 13/12 Q1027 NOSIG=
201410012230 METAR LFSB 012230Z AUTO 00000KT 1800 0600 R15/P2000 R33/P2000
                        BCFG FEW048 13/12 Q1028=
201410012300 METAR LFSB 012300Z AUTO 00000KT 4800 BR BKN050 BKN060 12/11
                        Q1028=
201410012330 METAR LFSB 012330Z AUTO 26003KT 3400 BR FEW052 12/11 Q1028=

201409010015 TAF AMD LFSB 010015Z 0100/0124 VRB03KT 9999 FEW025 BKN030
                      PROB40 TEMPO 0100/0103 5000 -SHRA SCT030TCU
                       PROB40
                      TEMPO 0102/0107 3000 BR SCT003 BKN008
                      BECMG 0107/0109 35005G15KT BKN015
                      BECMG 0109/0112 SCT030
                      PROB40 TEMPO 0109/0112 BKN020TCU SCT035TCU
                       BECMG 0112/0116 CAVOK=
201409010500 TAF LFSB 010500Z 0106/0206 VRB03KT 9999 FEW003 BKN024
                      PROB40 TEMPO 0106/0107 5000 BR SCT003 BKN008
                       BECMG 0107/0109 35005G15KT BKN015
                      BECMG 0109/0112 SCT020
                      PROB40 TEMPO 0109/0112 SCT020TCU SCT035TCU
                       BECMG 0112/0116 CAVOK
                      BECMG 0121/0124 VRB02KT
                      PROB40 TEMPO 0200/0206 BKN045=
201409010736 TAF AMD LFSB 010736Z 0107/0206 VRB03KT 9999 FEW005 BKN013
                      BECMG 0107/0109 35008KT SCT015
                      BECMG 0109/0112 SCT020
                      PROB40 TEMPO 0109/0112 SCT020TCU
                      BECMG 0114/0116 CAVOK
                      BECMG 0121/0124 VRB02KT
                      PROB40 0200/0206 BKN045=
201409011100 TAF LFSB 011100Z 0112/0212 33010KT 9999 FEW030
                      BECMG 0123/0201 VRB03KT SCT040
                      PROB40 TEMPO 0203/0207 5000 MIFG SCT002
                      BECMG 0207/0209 34007KT FEW030 BKN040=
201409011700 TAF LFSB 011700Z 0118/0218 35006KT 9999 FEW040
                      PROB40 0203/0207 VRB03KT 5000 MIFG FEW002
                       BECMG 0207/0210 FEW020 SCT045=
201409012300 TAF LFSB 012300Z 0200/0224 VRB03KT 9999 SCT040
                      PROB30 TEMPO 0200/0207 4000 MIFG
                      TEMPO 0210/0217 34010KT BKN040=
201409020501 TAF LFSB 020501Z 0206/0306 28004KT 9999 FEW015 BKN075
                      TEMPO 0210/0217 35010KT
                      PROB40 0302/0306 4000 BR BKN007=
201409021100 TAF LFSB 021100Z 0212/0312 36010KT 9999 FEW030 BKN080
                      BECMG 0218/0220 30004KT
                      PROB40 0303/0307 4000 BR BKN005 BKN025
                      BECMG 0308/0310 BKN040=
201409021700 TAF LFSB 021700Z 0218/0318 01007KT 9999 FEW035 BKN075
                      BECMG 0220/0222 30004KT
                      PROB40 0303/0308 4000 BR FEW005 BKN025
                      BECMG 0309/0311 BKN040=
201409022300 TAF LFSB 022300Z 0300/0324 VRB03KT 9999 BKN040
                      BECMG 0302/0304 4000 BR SCT003
                      PROB30 0304/0306 0500 BCFG BKN002
                      BECMG 0306/0308 9999 NSW BKN010
                      BECMG 0308/0310 35008KT SCT025 BKN040=
201409030500 TAF LFSB 030500Z 0306/0406 VRB03KT 9999 SCT005 SCT030
                      PROB40 0306/0308 2000 PRFG BKN002
                      BECMG 0308/0310 36008KT SCT015 BKN030
                      TEMPO 0312/0318 FEW030 SCT050
                      BECMG 0400/0402 4000 MIFG FEW002
                      PROB40 0402/0406 0400 BCFG VV///=
201409030610 TAF AMD LFSB 030610Z 0306/0406 34005KT 4000 BCFG SCT003 SCT035
                       BECMG 0306/0308 9999 NSW FEW015 BKN040
                      BECMG 0400/0402 4000 BR
                      PROB40 0403/0406 1000 BCFG=
201409031100 TAF LFSB 031100Z 0312/0412 01005KT 9999 SCT025 BKN045
                      TEMPO 0402/0407 3000 BR SCT003 BKN025
                      BECMG 0409/0412 FEW025=
201409031709 TAF AMD LFSB 031709Z 0318/0418 35005KT 9999 FEW025 BKN045
                      BECMG 0322/0324 3000 BR BKN008
                      PROB40 TEMPO 0401/0407 0800 BCFG BKN002
                      BECMG 0407/0409 8000 NSW SCT015=
201409032300 TAF LFSB 032300Z 0400/0424 34005KT 9999 BKN040
                      TEMPO 0400/0407 3000 BR BKN008
                      PROB40 TEMPO 0402/0407 0800 BCFG BKN003
                      BECMG 0407/0409 SCT020=
201409040500 TAF LFSB 040500Z 0406/0506 VRB03KT 4000 BR BKN005 BKN040
                      BECMG 0406/0408 03005KT 9999 NSW BKN025=
201409041100 TAF LFSB 041100Z 0412/0512 36005KT 9999 FEW021 SCT028
                      BECMG 0412/0414 CAVOK=
201409041700 TAF LFSB 041700Z 0418/0518 02005KT CAVOK
                      PROB40 TEMPO 0500/0507 3000 BR BKN006
                      BECMG 0507/0510 FEW035TCU
                      PROB30 TEMPO 0515/0518 -SHRA FEW050TCU=
201409042300 TAF LFSB 042300Z 0500/0524 VRB03KT CAVOK
                      PROB40 TEMPO 0500/0507 4000 BR
                      BECMG 0510/0512 29007KT FEW035TCU
                      BECMG 0516/0518 VRB03KT=
201409050500 TAF LFSB 050500Z 0506/0606 VRB03KT CAVOK
                      PROB40 TEMPO 0506/0510 5000 -SHRA SCT020TCU
                       BKN025
                      PROB40 TEMPO 0506/0508 3000 BR
                      BECMG 0511/0513 34007KT SCT035TCU
                      BECMG 0518/0520 VRB03KT
                      PROB40 TEMPO 0522/0606 5000 BR=
201409050609 TAF AMD LFSB 050609Z 0506/0606 VRB03KT 9999 FEW040 BKN130
                      PROB30 TEMPO 0506/0510 5000 -SHRA SCT040TCU
                       PROB30
                      TEMPO 0506/0508 BR
                      BECMG 0508/0510 FEW035TCU
                      TEMPO 0512/0520 35006KT
                      TEMPO 0510/0521 FEW040CB
                      PROB30 TEMPO 0510/0521 4000 SHRA
                      TEMPO 0522/0606 4000 BR=
201409051100 TAF LFSB 051100Z 0512/0612 10004KT 9999 FEW035TCU
                      TEMPO 0512/0520 36005KT FEW040CB
                      PROB30 TEMPO 0513/0520 4000 SHRA
                      BECMG 0519/0521 NSC
                      TEMPO 0522/0607 3000 BR
                      PROB30 TEMPO 0522/0606 0500 BCFG BKN001
                      BECMG 0610/0612 FEW040TCU
                      TEMPO 0610/0612 FEW040CB=
201409051700 TAF LFSB 051700Z 0518/0618 02004KT 9999 FEW040CB
                      BECMG 0518/0521 VRB03KT CAVOK
                      TEMPO 0600/0607 3000 BR
                      PROB30 TEMPO 0600/0606 0500 BCFG BKN001
                      BECMG 0610/0612 FEW040CB
                      PROB40 TEMPO 0612/0618 4000 SHRA SCT040CB=
201409052257 TAF AMD LFSB 052257Z 0522/0618 VRB03KT CAVOK
                      TEMPO 0523/0607 2000 BCFG
                      PROB30 TEMPO 0600/0606 0500 BCFG BKN001
                      BECMG 0610/0612 FEW040CB
                      PROB40 TEMPO 0612/0618 4000 SHRA SCT040CB=
201409052300 TAF LFSB 052300Z 0600/0624 VRB03KT CAVOK
                      TEMPO 0600/0607 3000 BR
                      PROB30 TEMPO 0600/0606 0500 BCFG BKN001
                      BECMG 0610/0612 FEW040CB
                      PROB40 TEMPO 0612/0618 4000 SHRA SCT040CB=
201409060500 TAF LFSB 060500Z 0606/0706 VRB03KT CAVOK
                      TEMPO 0606/0608 3000 BCFG BKN003
                      BECMG 0608/0610 SCT025TCU
                      TEMPO 0611/0620 5000 SHRA BKN030CB BKN035TCU
                       BECMG 0700/0704 3000 BR BKN015=
201409060526 TAF AMD LFSB 060526Z 0606/0706 VRB03KT CAVOK
                      BECMG 0608/0610 FEW025TCU
                      PROB40 TEMPO 0611/0620 5000 SHRA BKN030CB
                       BECMG 0700/0704 3000 BR BKN015=
201409061100 TAF LFSB 061100Z 0612/0712 33005KT 9999 FEW050TCU
                      TEMPO 0612/0620 FEW060CB
                      PROB30 TEMPO 0612/0619 4000 SHRA
                      BECMG 0619/0621 NSC
                      TEMPO 0702/0706 4000 MIFG SCT003
                      BECMG 0708/0711 FEW040TCU=
201409061700 TAF LFSB 061700Z 0618/0718 30004KT CAVOK
                      PROB30 TEMPO 0618/0620 FEW055TCU
                      PROB40 TEMPO 0702/0706 5000 MIFG SCT003
                      BECMG 0708/0711 FEW040TCU
                      PROB30 TEMPO 0712/0718 33015KT 5000 SHRA
                       FEW050CB=
201409061925 TAF AMD LFSB 061925Z 0619/0718 30004KT CAVOK
                      TEMPO 0619/0621 FEW050CB
                      PROB40 TEMPO 0700/0706 5000 MIFG
                      BECMG 0708/0711 FEW040TCU
                      PROB30 TEMPO 0712/0718 34008KT 5000 SHRA
                       FEW050CB=
201409062300 TAF AMD LFSB 070448Z 0704/0724 VRB03KT 9999 FEW010 SCT055 BKN180
                       PROB30
                      TEMPO 0704/0707 1200 BCFG BKN003
                      PROB30 TEMPO 0707/0709 -SHRA FEW050TCU BKN055
                       BECMG 0709/0711 FEW030TCU
                      TEMPO 0711/0719 34005KT FEW035CB
                      PROB30 TEMPO 0711/0719 -SHRA
                      BECMG 0719/0721 CAVOK=
201409070448 TAF AMD LFSB 070448Z 0704/0724 VRB03KT 9999 FEW010 SCT055 BKN180
                       PROB30
                      TEMPO 0704/0707 1200 BCFG BKN003
                      PROB30 TEMPO 0707/0709 -SHRA FEW050TCU BKN055
                       BECMG 0709/0711 FEW030TCU
                      TEMPO 0711/0719 34005KT FEW035CB
                      PROB30 TEMPO 0711/0719 -SHRA
                      BECMG 0719/0721 CAVOK=
201409070500 TAF LFSB 070500Z 0706/0806 VRB03KT 9999 FEW010 SCT055 BKN180
                      PROB30 TEMPO 0706/0707 4000 BR BKN003
                      PROB30 TEMPO 0707/0709 -SHRA FEW050TCU BKN055
                       BECMG 0709/0711 FEW030TCU
                      TEMPO 0711/0719 34005KT FEW035CB
                      PROB30 TEMPO 0711/0719 -SHRA
                      BECMG 0719/0721 CAVOK
                      TEMPO 0801/0806 3000 BR=
201409070557 TAF AMD LFSB 070557Z 0706/0806 17003KT 9999 FEW015 SCT060 BKN180
                       PROB40
                      TEMPO 0712/0718 34010KT FEW040CB SCT050
                      TEMPO 0802/0806 3000 BCFG=
201409071103 TAF LFSB 071103Z 0712/0812 33004KT 9999 FEW035 SCT280
                      TEMPO 0712/0718 FEW040CB
                      TEMPO 0802/0807 3000 BCFG FEW002 SCT005
                      TEMPO 0810/0812 FEW030TCU=
201409071700 TAF LFSB 071700Z 0718/0818 33004KT 9999 FEW050 SCT280
                      TEMPO 0802/0807 3000 BCFG SCT002
                      TEMPO 0811/0818 27010KT FEW040CB SCT045=
201409072300 TAF LFSB 072300Z 0800/0824 32004KT CAVOK
                      PROB40 TEMPO 0802/0806 3000 BCFG SCT002
                      TEMPO 0811/0818 FEW050CB=
201409080500 TAF LFSB 080500Z 0806/0906 VRB03KT 9999 FEW015
                      BECMG 0809/0811 33005KT
                      TEMPO 0811/0820 FEW050CB
                      PROB40 TEMPO 0814/0816 21015G25KT 5000 SHRA
                       TEMPO 0902/0906 3000 MIFG SCT002=
201409081100 TAF LFSB 081100Z 0812/0912 34008KT CAVOK
                      TEMPO 0814/0821 FEW050CB BKN080
                      PROB30 0815/0820 4000 SHRA
                      TEMPO 0900/0907 3000 BR=
201409081700 TAF LFSB 081700Z 0818/0918 VRB03KT CAVOK
                      PROB40 TEMPO 0818/0820 4000 TSRA SCT050CB
                       BKN070
                      TEMPO 0902/0907 3000 BR SCT010
                      PROB30 TEMPO 0904/0907 0800 BCFG BKN005
                      BECMG 0909/0911 SCT025
                      TEMPO 0912/0918 4000 SHRA FEW030CB=
201409081718 TAF AMD LFSB 081718Z 0818/0918 34004KT 9999 FEW050
                      TEMPO 0818/0820 FEW050CB
                      PROB40 0902/0906 3000 BCFG FEW002
                      BECMG 0911/0913 FEW045CB
                      PROB30 TEMPO 0915/0918 TSRA=
201409082300 TAF LFSB 082300Z 0900/0924 30004KT 9999 FEW015 SCT050
                      PROB40 0902/0906 3500 BCFG
                      BECMG 0911/0913 FEW040CB
                      PROB30 TEMPO 0915/0918 36012KT TSRA
                      BECMG 0919/0921 SCT045=
201409090500 TAF LFSB 090500Z 0906/1006 30005KT 2500 BCFG BKN003
                      BECMG 0906/0909 9999 SCT015
                      BECMG 0910/0913 SCT030 FEW035CB
                      PROB30 TEMPO 0914/0918 36012KT TSRA
                      BECMG 0919/0921 SCT020 BKN040=
201409090610 TAF AMD LFSB 090610Z 0906/1006 30005KT 0800 BCFG BKN001
                      BECMG 0906/0909 9999 SCT015
                      BECMG 0910/0913 SCT030 FEW035CB
                      PROB30 TEMPO 0914/0918 36012KT TSRA
                      BECMG 0919/0921 SCT020 BKN040=
201409090921 TAF AMD LFSB 090921Z 0909/1006 33005KT 4000 BR BKN005
                      BECMG 0909/0911 9999 NSW SCT015
                      BECMG 0911/0913 SCT030 FEW035CB
                      PROB30 TEMPO 0914/0918 36012KT TSRA
                      BECMG 0919/0921 SCT020 BKN040=
201409091100 TAF LFSB 091100Z 0912/1012 33005KT 9999 SCT030
                      TEMPO 0912/0920 5000 SHRA SCT035TCU
                      PROB30 TEMPO 0914/0918 35010G20KT 4000 TSRA
                       FEW035CB
                      BECMG 0920/0922 SCT020 BKN035=
201409091225 TAF AMD LFSB 091225Z 0912/1012 33005KT 9999 SCT030
                      TEMPO 0912/0920 5000 SHRA SCT035TCU
                      PROB30 TEMPO 0912/0918 35010G20KT 4000 TSRA
                       FEW035CB
                      BECMG 0920/0922 SCT020 BKN035=
201409091700 TAF LFSB 091700Z 0918/1018 30004KT 9999 SCT030
                      TEMPO 0922/1011 SCT015 BKN035
                      BECMG 1011/1013 36010KT=
201409092300 TAF LFSB 092300Z 1000/1024 34005KT 9000 BKN035
                      PROB30 TEMPO 1000/1007 3000 BR BKN014
                      PROB40 1011/1021 35010KT FEW035TCU=
201409100500 TAF LFSB 100500Z 1006/1106 31005KT 9999 BKN014
                      BECMG 1008/1011 BKN025
                      TEMPO 1011/1016 FEW030TCU
                      PROB30 TEMPO 1012/1016 FEW035CB
                      BECMG 1013/1016 SCT050=
201409101100 TAF LFSB 101100Z 1012/1112 34008KT 9999 SCT025 SCT035
                      TEMPO 1012/1016 FEW030TCU
                      TEMPO 1100/1107 5000 BR
                      PROB30 TEMPO 1103/1106 0800 MIFG=
201409101427 TAF AMD LFSB 101427Z 1014/1112 34008KT 9999 SCT025 SCT035
                      TEMPO 1014/1018 FEW030TCU
                      TEMPO 1014/1016 FEW030CB
                      TEMPO 1100/1107 5000 BR
                      PROB30 TEMPO 1103/1106 0800 MIFG=
201409101700 TAF LFSB 101700Z 1018/1118 34006KT 9999 BKN030
                      TEMPO 1102/1107 5000 BR
                      PROB30 TEMPO 1103/1106 0800 MIFG=
201409102300 TAF AMD LFSB 110507Z 1105/1124 34007KT 9999 BKN040
                      TEMPO 1105/1108 4000 BR BKN008=
201409110440 TAF AMD LFSB 110440Z 1104/1124 34007KT 9999 BKN040
                      TEMPO 1104/1108 4000 BR SCT008=
201409110500 TAF LFSB 110500Z 1106/1206 33007KT 9999 BKN040
                      TEMPO 1106/1108 4000 BR SCT010
                      TEMPO 1116/1123 SHRA FEW035TCU
                      TEMPO 1201/1206 4000 BR SCT008
                      PROB40 TEMPO 1203/1206 0800 MIFG=
201409110507 TAF AMD LFSB 110507Z 1105/1124 34007KT 9999 BKN040
                      TEMPO 1105/1108 4000 BR BKN008=
201409110603 TAF AMD LFSB 110603Z 1106/1206 33005KT 4000 BR BKN010
                      BECMG 1108/1110 9999 NSW SCT015
                      TEMPO 1117/1122 SHRA SCT030TCU
                      BECMG 1200/1202 4000 BR BKN010
                      PROB40 1202/1206 0800 FG BKN002=
201409111100 TAF LFSB 111100Z 1112/1212 36007KT 9999 SCT025 SCT060
                      TEMPO 1117/1122 5000 SHRA SCT030TCU
                      BECMG 1122/1124 3000 BR BKN005 BKN013
                      BECMG 1208/1210 9999 NSW BKN020=
201409111700 TAF LFSB 111700Z 1118/1218 33005KT 9999 FEW030TCU
                      TEMPO 1118/1120 5000 SHRA
                      BECMG 1123/1201 3000 BR BKN010
                      TEMPO 1203/1207 OVC002
                      BECMG 1207/1209 9999 NSW SCT020 BKN040
                      TEMPO 1215/1218 5000 RA=
201409112300 TAF AMD LFSB 120416Z 1204/1224 33005KT 9999 BKN010
                      TEMPO 1204/1209 3000 BR OVC003
                      PROB30 TEMPO 1204/1208 VRB03KT 0800 FG VV///
                       BECMG 1207/1209 9999 NSW SCT020 BKN040
                      TEMPO 1212/1224 -RA=
201409120020 TAF AMD LFSB 120020Z 1200/1224 33005KT 9999 BKN010
                      TEMPO 1200/1209 3000 BR OVC005
                      PROB30 TEMPO 1200/1208 0800 FG VV///
                      BECMG 1207/1209 BKN020
                      TEMPO 1209/1224 -RA=
201409120416 TAF AMD LFSB 120416Z 1204/1224 33005KT 9999 BKN010
                      TEMPO 1204/1209 3000 BR OVC003
                      PROB30 TEMPO 1204/1208 VRB03KT 0800 FG VV///
                       BECMG 1207/1209 9999 NSW SCT020 BKN040
                      TEMPO 1212/1224 -RA=
201409120500 TAF LFSB 120500Z 1206/1306 33008KT 5000 BR OVC003
                      TEMPO 1206/1209 3000
                      PROB30 TEMPO 1206/1208 VRB03KT 0500 FG VV///
                       BECMG 1208/1210 9999 NSW SCT020 BKN040
                      TEMPO 1212/1306 -RA BKN020=
201409121100 TAF LFSB 121100Z 1212/1312 33005KT 9999 BKN010 OVC030
                      TEMPO 1212/1306 4000 RA BKN007
                      PROB40 TEMPO 1218/1309 3000 BR BKN002
                      PROB40 TEMPO 1300/1306 0500 FG VV///=
201409121700 TAF LFSB 121700Z 1218/1318 34005KT 9999 FEW010 BKN015 OVC030
                      TEMPO 1218/1304 4000 RA BKN010
                      PROB40 TEMPO 1220/1312 2000 BR BKN002
                      PROB30 TEMPO 1300/1305 0500 FG VV///
                      TEMPO 1312/1318 BKN015TCU OVC040=
201409121840 TAF AMD LFSB 121840Z 1218/1318 VRB02KT 8000 FEW010 BKN013 OVC026
                       TEMPO 1218/1307 3000 -RADZ BR BKN005 BKN010
                       BECMG 1307/1309 BKN020 BKN035
                      PROB40 TEMPO 1312/1318 5000 SHRA SCT025TCU=
201409122300 TAF LFSB 122300Z 1300/1324 VRB02KT 8000 FEW008 BKN013 OVC026
                      TEMPO 1300/1307 3000 -RADZ BR BKN005 BKN010
                       BECMG 1308/1310 BKN020 BKN035
                      PROB40 TEMPO 1312/1318 5000 SHRA SCT025TCU
                       BECMG 1319/1321 BKN002 BKN010=
201409130500 TAF LFSB 130500Z 1306/1406 VRB02KT 8000 BKN010 BKN025
                      TEMPO 1306/1309 2000 -RADZ BR BKN003 OVC006
                       TEMPO 1312/1319 33005KT BKN030
                      PROB40 TEMPO 1314/1319 5000 SHRA
                      BECMG 1320/1322 3000 BR BKN005
                      PROB40 TEMPO 1400/1406 0200 FG VV///=
201409130729 TAF AMD LFSB 130729Z 1307/1406 VRB02KT 8000 BKN010 BKN025
                      TEMPO 1307/1309 2000 -RADZ BR BKN001
                      TEMPO 1312/1319 33005KT BKN030
                      PROB40 TEMPO 1314/1319 5000 SHRA
                      BECMG 1320/1322 3000 BR BKN005
                      PROB40 TEMPO 1400/1406 0200 FG VV///=
201409130905 TAF AMD LFSB 130905Z 1309/1406 VRB02KT 8000 BKN010 BKN025
                      TEMPO 1309/1311 2000 -RADZ BR BKN001
                      TEMPO 1312/1319 33005KT BKN030
                      PROB40 TEMPO 1314/1319 5000 SHRA
                      BECMG 1320/1322 3000 BR BKN005
                      PROB40 TEMPO 1400/1406 0200 FG VV///=
201409131100 TAF LFSB 131100Z 1312/1412 34005KT 9999 BKN025
                      PROB40 TEMPO 1314/1320 5000 SHRA
                      BECMG 1320/1322 3000 BR BKN003
                      PROB40 TEMPO 1400/1408 0300 FG VV///=
201409131158 TAF AMD LFSB 131158Z 1312/1412 34005KT 9999 SCT014 BKN025
                      PROB40 TEMPO 1314/1320 5000 SHRA
                      BECMG 1320/1322 3000 BR BKN003
                      PROB40 TEMPO 1400/1408 0300 FG VV///=
201409131204 TAF AMD LFSB 131204Z 1312/1412 34005KT 9999 BKN014 BKN025
                      PROB40 TEMPO 1314/1320 5000 SHRA
                      BECMG 1320/1322 3000 BR BKN003
                      PROB40 TEMPO 1400/1408 0300 FG VV///=
201409131700 TAF LFSB 131700Z 1318/1418 35005KT 9999 SCT020 BKN040
                      PROB30 TEMPO 1318/1320 SHRA
                      BECMG 1321/1323 2000 BR BKN003
                      PROB40 TEMPO 1401/1408 0300 FG VV///
                      TEMPO 1408/1410 BKN008
                      BECMG 1410/1412 9999 NSW SCT020 BKN040=
201409132300 TAF LFSB 132300Z 1400/1424 35005KT 5000 BR OVC006 BKN040
                      BECMG 1400/1403 2000 BR OVC002
                      PROB40 TEMPO 1401/1408 0300 FG VV///
                      TEMPO 1408/1410 BKN008
                      BECMG 1410/1412 9999 NSW SCT020 BKN040=
201409140500 TAF LFSB 140500Z 1406/1506 34005KT 6000 OVC005
                      TEMPO 1406/1409 2000 BR OVC003
                      BECMG 1409/1412 BKN015
                      TEMPO 1412/1418 -RA BKN025
                      TEMPO 1420/1506 3000 BR BKN002
                      PROB40 TEMPO 1421/1506 0200 FG VV///=
201409140600 TAF AMD LFSB 140600Z 1406/1506 36005KT 2000 BR OVC003
                      PROB40 TEMPO 1406/1407 1500 OVC002
                      BECMG 1408/1410 9999 NSW BKN015
                      PROB30 TEMPO 1412/1418 -RA BKN025
                      BECMG 1418/1421 VRB03KT 3000 BR BKN005
                      BECMG 1421/1424 1500 OVC003
                      TEMPO 1421/1506 0500 FG OVC001
                      PROB40 TEMPO 1421/1506 0200 FG VV///=
201409141031 TAF AMD LFSB 141031Z 1410/1506 36005KT 9999 BKN015
                      TEMPO 1410/1411 BKN014
                      BECMG 1418/1421 VRB03KT 5000 MIFG BR
                      BECMG 1421/1424 1200 BKN004
                      TEMPO 1421/1506 0500 BCFG OVC002
                      PROB40 TEMPO 1421/1506 0200 FG VV///=
201409141100 TAF LFSB 141100Z 1412/1512 35007KT 9999 BKN023
                      BECMG 1418/1421 4000 MIFG BR
                      BECMG 1421/1424 1500 BKN005
                      TEMPO 1421/1506 0500 BCFG OVC002
                      PROB40 TEMPO 1421/1506 0200 FG VV///
                      BECMG 1507/1509 9999 NSW BKN020
                      BECMG 1509/1512 FEW030=
201409141700 TAF LFSB 141700Z 1418/1518 35004KT 9999 FEW030 SCT050
                      PROB40 TEMPO 1420/1424 5000 MIFG BR
                      PROB30 TEMPO 1421/1424 0500 BCFG BKN001
                      BECMG 1500/1503 3000 BR BKN010
                      TEMPO 1500/1507 0500 BCFG OVC002
                      PROB30 TEMPO 1500/1506 0200 FG VV///
                      BECMG 1507/1509 9999 NSW BKN020
                      BECMG 1509/1512 FEW030
                      TEMPO 1512/1517 FEW050TCU=
201409141751 TAF AMD LFSB 141751Z 1418/1518 30003KT CAVOK
                      BECMG 1421/1424 1500 BCFG BKN005
                      TEMPO 1500/1506 0200 FG VV///
                      BECMG 1507/1509 9999 NSW BKN012
                      BECMG 1509/1512 FEW030=
201409142300 TAF AMD LFSB 150229Z 1502/1524 32003KT 0800 FG OVC005
                      PROB40 1502/1506 0100 FG VV///
                      BECMG 1507/1509 9999 NSW BKN012
                      BECMG 1509/1512 FEW030=
201409150155 TAF AMD LFSB 150155Z 1501/1524 32003KT 0800 FG OVC005
                      PROB40 1501/1506 0200 FG VV///
                      BECMG 1507/1509 9999 NSW BKN012
                      BECMG 1509/1512 FEW030=
201409150229 TAF AMD LFSB 150229Z 1502/1524 32003KT 0800 FG OVC005
                      PROB40 1502/1506 0100 FG VV///
                      BECMG 1507/1509 9999 NSW BKN012
                      BECMG 1509/1512 FEW030=
201409150500 TAF LFSB 150500Z 1506/1606 06003KT 0200 FG VV///
                      BECMG 1506/1508 4000 BR BKN014
                      BECMG 1508/1510 9999 NSW FEW020
                      BECMG 1520/1522 3000 BR
                      BECMG 1522/1524 0100 FG VV///=
201409150700 TAF AMD LFSB 150700Z 1507/1606 06003KT 0200 FG VV///
                      BECMG 1507/1509 4000 BR BKN014
                      BECMG 1509/1511 9999 NSW FEW020
                      BECMG 1521/1524 3000 BR
                      BECMG 1600/1602 0100 FG VV///=
201409150930 TAF AMD LFSB 150930Z 1509/1606 34004KT 9999 FEW008
                      BECMG 1521/1524 3000 BR
                      BECMG 1600/1602 0100 FG VV///=
201409151100 TAF LFSB 151100Z 1512/1612 33005KT 9999 FEW025
                      BECMG 1521/1524 3000 BR
                      BECMG 1600/1602 0200 FG VV///
                      BECMG 1606/1608 9999 NSW FEW007=
201409151528 TAF AMD LFSB 151528Z 1515/1612 33005KT 9999 FEW025
                      TEMPO 1515/1517 FEW040CB
                      BECMG 1521/1524 3000 BR
                      BECMG 1600/1602 0200 FG VV///
                      BECMG 1606/1608 9999 NSW FEW007=
201409151700 TAF LFSB 151700Z 1518/1618 33004KT 9999 FEW040
                      BECMG 1521/1524 3000 BR
                      PROB30 TEMPO 1602/1605 0200 FG VV///
                      BECMG 1606/1608 9999 NSW
                      TEMPO 1614/1618 FEW045CB=
201409152300 TAF AMD LFSB 160330Z 1603/1624 VRB03KT 2500 BR BKN003
                      TEMPO 1603/1607 0500 BCFG BKN001
                      PROB40 TEMPO 1604/1607 0150 FG VV///
                      BECMG 1608/1610 9999 NSW SCT020
                      BECMG 1610/1612 FEW030CB
                      BECMG 1618/1620 CAVOK=
201409160330 TAF AMD LFSB 160330Z 1603/1624 VRB03KT 2500 BR BKN003
                      TEMPO 1603/1607 0500 BCFG BKN001
                      PROB40 TEMPO 1604/1607 0150 FG VV///
                      BECMG 1608/1610 9999 NSW SCT020
                      BECMG 1610/1612 FEW030CB
                      BECMG 1618/1620 CAVOK=
201409160500 TAF LFSB 160500Z 1606/1706 VRB03KT 0500 PRFG BKN001
                      TEMPO 1606/1607 0150 FG VV///
                      BECMG 1606/1608 2500 BR BKN003
                      BECMG 1608/1610 9999 NSW SCT020
                      BECMG 1610/1612 FEW040CB
                      BECMG 1618/1620 CAVOK
                      BECMG 1700/1703 3000 BR
                      PROB40 TEMPO 1703/1706 0500 BCFG BKN001=
201409161100 TAF LFSB 161100Z 1612/1712 04004KT 9999 FEW040
                      TEMPO 1614/1617 FEW040CB
                      BECMG 1700/1703 3000 BR
                      PROB40 TEMPO 1703/1706 0500 BCFG BKN001
                      BECMG 1706/1709 9999 NSW FEW030=
201409161700 TAF LFSB 161700Z 1618/1718 VRB03KT 9999 FEW040
                      BECMG 1700/1703 3000 BR
                      PROB30 TEMPO 1703/1706 0500 BCFG BKN001
                      BECMG 1706/1709 9999 NSW
                      BECMG 1711/1713 FEW040CB
                      PROB30 TEMPO 1713/1717 -SHRA SCT050TCU=
201409162300 TAF LFSB 162300Z 1700/1724 VRB03KT 7000 NSC
                      BECMG 1700/1702 3000 BR
                      PROB30 1702/1706 0200 FG VV///
                      BECMG 1706/1709 9999 NSW
                      BECMG 1711/1713 FEW040CB
                      PROB30 TEMPO 1713/1717 09010KT -SHRA
                      BECMG 1717/1720 CAVOK=
201409170500 TAF LFSB 170500Z 1706/1806 VRB03KT 9999 FEW010
                      TEMPO 1711/1718 36010KT FEW050CB
                      TEMPO 1718/1806 FEW040TCU
                      PROB40 TEMPO 1800/1806 5000 -SHRA=
201409171100 TAF LFSB 171100Z 1712/1812 03005KT 9999 FEW030 BKN220
                      PROB30 1712/1718 FEW050CB
                      PROB40 TEMPO 1800/1809 -SHRA
                      BECMG 1810/1812 FEW030TCU=
201409171700 TAF LFSB 171700Z 1718/1818 11005KT 9999 FEW050 BKN120
                      PROB30 1718/1719 FEW055CB
                      PROB40 TEMPO 1800/1809 -SHRA
                      TEMPO 1815/1818 FEW045CB=
201409172300 TAF LFSB 172300Z 1800/1824 11005KT 9999 FEW050 BKN120
                      PROB40 TEMPO 1800/1809 -SHRA FEW050TCU
                      TEMPO 1815/1818 FEW045CB=
201409180500 TAF LFSB 180500Z 1806/1906 12004KT 9999 FEW050 BKN080
                      TEMPO 1806/1811 -SHRA
                      TEMPO 1814/1817 FEW045CB=
201409181100 TAF LFSB 181100Z 1812/1912 12007KT 9999 FEW050 BKN090
                      TEMPO 1812/1817 SHRA SCT050TCU
                      PROB40 TEMPO 1900/1908 SHRA SCT040TCU=
201409181434 TAF AMD LFSB 181434Z 1814/1912 12007KT 9999 FEW050 BKN090
                      TEMPO 1814/1817 SHRA SCT045CB
                      PROB40 TEMPO 1900/1908 SHRA SCT040TCU=
201409181700 TAF LFSB 181700Z 1818/1918 11006KT 9999 FEW050 BKN080
                      PROB40 TEMPO 1818/1918 5000 SHRA SCT045TCU
                       PROB30
                      TEMPO 1912/1918 VRB15G30KT 3000 TSRA SCT040CB=
201409182300 TAF AMD LFSB 190322Z 1903/1924 13004KT CAVOK
                      TEMPO 1903/1908 -SHRA
                      PROB40 TEMPO 1903/1906 1500 BCFG
                      TEMPO 1912/1922 5000 SHRA SCT045TCU
                      PROB30 TEMPO 1914/1920 VRB15G30KT 1500 TSRA
                       BKN030CB
                      TEMPO 1922/1924 -SHRA=
201409190322 TAF AMD LFSB 190322Z 1903/1924 13004KT CAVOK
                      TEMPO 1903/1908 -SHRA
                      PROB40 TEMPO 1903/1906 1500 BCFG
                      TEMPO 1912/1922 5000 SHRA SCT045TCU
                      PROB30 TEMPO 1914/1920 VRB15G30KT 1500 TSRA
                       BKN030CB
                      TEMPO 1922/1924 -SHRA=
201409190500 TAF LFSB 190500Z 1906/2006 13004KT 9999 FEW045 BKN100
                      TEMPO 1909/1922 5000 SHRA SCT035TCU
                      PROB30 TEMPO 1912/1921 VRB15G30KT 1500 TSRA
                       BKN030 SCT035CB
                      TEMPO 1922/2006 -SHRA=
201409191100 TAF LFSB 191100Z 1912/2012 34004KT 9999 FEW045 BKN100
                      TEMPO 1912/1918 5000 SHRA SCT035TCU
                      PROB40 TEMPO 1913/1918 VRB15G30KT 1500 TSRA
                       BKN030 SCT035CB
                      BECMG 1918/1921 13004KT
                      PROB30 TEMPO 1923/2009 SHRA=
201409191133 TAF AMD LFSB 191133Z 1912/2012 13004KT 9999 FEW045 BKN100
                      TEMPO 1912/1918 5000 SHRA SCT035TCU
                      PROB40 TEMPO 1913/1918 VRB15G30KT 1500 TSRA
                       BKN030 SCT035CB
                      PROB30 TEMPO 1923/2009 SHRA=
201409191700 TAF LFSB 191700Z 1918/2018 12003KT 9999 FEW040 BKN080
                      TEMPO 1918/2018 SHRA SCT035TCU
                      TEMPO 2004/2006 5000 MIFG FEW002
                      BECMG 2012/2014 26005KT
                      PROB30 TEMPO 2012/2018 TSRA BKN040 FEW045CB=
201409192300 TAF AMD LFSB 200220Z 2002/2024 12003KT 9999 FEW040 BKN080
                      PROB40 2002/2007 1500 BCFG BKN002
                      BECMG 2012/2014 26005KT
                      TEMPO 2002/2024 5000 -SHRA SCT040CB
                      PROB40 TEMPO 2002/2024 2000 TSRA SCT035CB=
201409200220 TAF AMD LFSB 200220Z 2002/2024 12003KT 9999 FEW040 BKN080
                      PROB40 2002/2007 1500 BCFG BKN002
                      BECMG 2012/2014 26005KT
                      TEMPO 2002/2024 5000 -SHRA SCT040CB
                      PROB40 TEMPO 2002/2024 2000 TSRA SCT035CB=
201409200500 TAF LFSB 200500Z 2006/2106 26003KT 9999 FEW040 BKN080
                      TEMPO 2006/2106 4000 SHRA SCT035CB
                      PROB30 TEMPO 2010/2106 2000 TSRA SCT030CB=
201409200608 TAF AMD LFSB 200608Z 2006/2106 26003KT 9999 FEW040 BKN080
                      TEMPO 2008/2106 -SHRA SCT035TCU
                      PROB40 TEMPO 2012/2106 4000 SHRA SCT030CB
                       PROB30
                      TEMPO 2012/2106 2000 TSRA SCT030CB=
201409200628 TAF AMD LFSB 200628Z 2006/2106 26003KT 9999 FEW040 BKN080
                      TEMPO 2010/2106 -SHRA SCT035TCU
                      PROB40 TEMPO 2012/2018 4000 SHRA SCT030CB
                       PROB30
                      TEMPO 2012/2018 2000 TSRA SCT030CB
                      PROB40 TEMPO 2100/2106 4000 SHRA SCT030CB
                       PROB30
                      TEMPO 2100/2106 2000 TSRA SCT030CB=
201409200837 TAF AMD LFSB 200837Z 2008/2106 26003KT 9999 FEW040 BKN080
                      TEMPO 2012/2106 -SHRA SCT035TCU
                      PROB40 TEMPO 2012/2018 4000 SHRA SCT030CB
                       PROB30
                      TEMPO 2012/2018 2000 TSRA SCT030CB
                      PROB40 TEMPO 2100/2106 4000 SHRA SCT030CB
                       PROB30
                      TEMPO 2100/2106 2000 TSRA SCT030CB=
201409201100 TAF LFSB 201100Z 2012/2112 27008KT 9999 BKN033
                      TEMPO 2013/2021 -SHRA SCT030TCU
                      PROB30 TEMPO 2015/2018 30012KT 3000 TSRA
                       SCT030CB
                      TEMPO 2100/2112 -SHRA SCT030TCU
                      PROB30 TEMPO 2109/2112 3000 TSRA SCT030CB=
201409201254 TAF AMD LFSB 201254Z 2012/2112 27008KT 9999 BKN033
                      TEMPO 2013/2021 -SHRA SCT030TCU
                      PROB30 TEMPO 2015/2018 30012KT 3000 TSRA
                       SCT030CB
                      TEMPO 2100/2112 -SHRA SCT030TCU
                      PROB40 TEMPO 2102/2105 4000 SHRA SCT030CB
                       PROB30
                      TEMPO 2109/2112 3000 TSRA SCT030CB=
201409201700 TAF LFSB 201700Z 2018/2118 22005KT 9999 FEW040TCU
                      TEMPO 2022/2118 -SHRA SCT030TCU
                      PROB40 TEMPO 2102/2105 4000 SHRA SCT030CB
                       PROB40
                      TEMPO 2109/2118 27010G20KT 4000 SHRA
                      PROB30 TEMPO 2109/2118 3000 TSRA SCT030CB=
201409201824 TAF AMD LFSB 201824Z 2018/2118 22005KT CAVOK
                      TEMPO 2021/2118 4000 SHRA SCT030TCU
                      PROB40 TEMPO 2021/2118 1500 TSRA BKN008 SCT030CB
                       PROB30
                      TEMPO 2103/2106 4000 BR BKN003
                      BECMG 2109/2112 26015G25KT=
201409202300 TAF LFSB 202300Z 2100/2124 22005KT 9999 SCT030TCU
                      TEMPO 2100/2114 4000 SHRA
                      TEMPO 2115/2121 5000 RA BKN013 SCT025TCU
                       BKN030
                      PROB40 TEMPO 2100/2118 1500 TSRA BKN008 BKN030CB
                       PROB30
                      TEMPO 2103/2106 4000 BR BKN003
                      BECMG 2107/2109 26012G23KT
                      BECMG 2118/2120 34010KT
                      BECMG 2121/2123 SCT015 SCT040=
201409210500 TAF LFSB 210500Z 2106/2206 23010KT 9999 FEW025TCU BKN053
                      TEMPO 2109/2122 4000 SHRA SCT010 BKN025TCU
                       PROB40
                      TEMPO 2109/2118 26015G25KT 1500 TSRA BKN008
                       BKN020CB
                      BECMG 2119/2121 31005KT
                      BECMG 2200/2203 BKN005
                      PROB40 TEMPO 2203/2206 0800 BCFG BKN001=
201409210608 TAF AMD LFSB 210608Z 2106/2206 23010KT 9999 FEW025TCU BKN053
                      TEMPO 2106/2122 4000 SHRA SCT010 BKN025TCU
                       PROB40
                      TEMPO 2109/2118 26015G25KT 1500 TSRA BKN008
                       BKN020CB
                      BECMG 2119/2121 31005KT
                      BECMG 2200/2203 BKN005
                      PROB40 TEMPO 2203/2206 0800 BCFG BKN001=
201409211100 TAF LFSB 211100Z 2112/2212 28008KT 9999 SCT020 BKN040
                      TEMPO 2112/2202 4000 SHRA SCT010 BKN020TCU
                       PROB40
                      TEMPO 2112/2120 28015G25KT 1500 TSRA BKN010
                       BKN020CB
                      BECMG 2118/2120 34008KT
                      PROB40 TEMPO 2202/2210 BKN008
                      PROB30 TEMPO 2202/2208 0800 BCFG BKN001
                      BECMG 2208/2210 BKN020=
201409211700 TAF LFSB 211700Z 2118/2218 28008KT 9999 SCT020 BKN040
                      TEMPO 2118/2123 4000 SHRA BKN012 BKN020TCU
                       PROB40
                      TEMPO 2118/2120 SCT020CB
                      BECMG 2118/2120 34010KT
                      PROB40 TEMPO 2200/2208 BKN008
                      PROB30 TEMPO 2202/2207 0800 BCFG BKN001=
201409212008 TAF AMD LFSB 212008Z 2120/2218 34008KT 9999 BKN012 BKN040
                      TEMPO 2120/2123 4000 SHRA BKN005 BKN020TCU
                       FEW030CB
                      PROB40 TEMPO 2200/2208 BKN008
                      PROB30 TEMPO 2202/2207 0800 BCFG BKN001=
201409212300 TAF LFSB 212300Z 2200/2224 35007KT 9999 BKN020
                      PROB40 TEMPO 2200/2208 4000 BR BKN005
                      PROB30 TEMPO 2202/2207 0800 BCFG BKN001
                      BECMG 2209/2212 SCT033=
201409220500 TAF LFSB 220500Z 2206/2306 VRB03KT 9999 FEW050 BKN060
                      TEMPO 2206/2208 MIFG
                      BECMG 2208/2210 35006KT SCT030
                      PROB40 TEMPO 2300/2306 4000 BR=
201409221100 TAF LFSB 221100Z 2212/2312 35006KT 9999 SCT033
                      TEMPO 2300/2308 4000 BR
                      PROB40 TEMPO 2304/2307 1200 OVC003=
201409221700 TAF LFSB 221700Z 2218/2318 34005KT 9999 FEW030 SCT055
                      BECMG 2222/2301 4000 BR
                      PROB30 TEMPO 2304/2307 VRB02KT 0600 FG OVC001
                       BECMG 2307/2309 9999 NSW FEW035=
201409222300 TAF LFSB 222300Z 2300/2324 34005KT 8000 FEW050
                      BECMG 2300/2302 4000 BR
                      PROB40 TEMPO 2302/2308 0500 FG VV///
                      BECMG 2308/2310 CAVOK
                      BECMG 2320/2322 4000 BR=
201409230500 TAF LFSB 230500Z 2306/2406 01005KT 3000 BR BKN005
                      TEMPO 2306/2308 0500 FG VV///
                      BECMG 2308/2310 9999 NSW FEW020
                      BECMG 2318/2320 3000 BR BKN005
                      PROB30 TEMPO 2321/2406 0500 BCFG BKN001=
201409231100 TAF LFSB 231100Z 2312/2412 34006KT 9999 FEW020
                      TEMPO 2319/2407 3000 BR BKN004
                      PROB30 TEMPO 2321/2406 0500 BCFG BKN001
                      BECMG 2407/2409 CAVOK=
201409231700 TAF LFSB 231700Z 2318/2418 35005KT CAVOK
                      PROB40 TEMPO 2322/2407 3000 BR BKN004
                      BECMG 2411/2413 FEW035 BKN060
                      PROB30 TEMPO 2414/2418 -RA=
201409232300 TAF LFSB 232300Z 2400/2424 35005KT CAVOK
                      PROB40 TEMPO 2400/2407 3000 BR BKN004
                      BECMG 2411/2413 FEW035 BKN060
                      PROB30 TEMPO 2414/2418 -RA
                      PROB30 TEMPO 2422/2424 3000 BR BKN004=
201409240500 TAF LFSB 240500Z 2406/2506 VRB03KT CAVOK
                      PROB30 TEMPO 2406/2407 4000 BR
                      BECMG 2412/2414 27005G15KT
                      TEMPO 2414/2418 5000 RA
                      BECMG 2503/2506 2000 RA BKN010 OVC025=
201409240617 TAF AMD LFSB 240617Z 2406/2506 VRB03KT CAVOK
                      BECMG 2411/2413 28010KT
                      TEMPO 2413/2416 5000 SHRA FEW040TCU
                      TEMPO 2417/2421 5000 RA
                      TEMPO 2503/2506 2000 -RADZ BKN010 OVC020=
201409240706 TAF AMD LFSB 240706Z 2407/2506 VRB03KT CAVOK
                      BECMG 2411/2413 28010KT
                      PROB40 TEMPO 2413/2416 5000 SHRA FEW040TCU
                       PROB40
                      TEMPO 2417/2421 5000 RA
                      TEMPO 2503/2506 2000 -RADZ BKN010 OVC020=
201409241100 TAF LFSB 241100Z 2412/2512 26008KT CAVOK
                      TEMPO 2417/2420 5000 RA BKN025 FEW030TCU
                       BKN040
                      BECMG 2502/2504 BKN010 BKN020
                      TEMPO 2503/2506 7000 -RA
                      BECMG 2507/2509 SCT020 SCT030=
201409241502 TAF AMD LFSB 241502Z 2415/2512 26008KT CAVOK
                      TEMPO 2416/2420 5000 RA BKN025 FEW030TCU
                       BKN040
                      BECMG 2502/2504 BKN010 BKN020
                      TEMPO 2503/2506 7000 -RA
                      BECMG 2507/2509 SCT020 SCT030=
201409241700 TAF LFSB 241700Z 2418/2518 31005KT CAVOK
                      TEMPO 2418/2420 RA
                      PROB40 TEMPO 2500/2503 3000 BR
                      BECMG 2503/2505 22005KT BKN013 BKN020
                      TEMPO 2505/2507 RA
                      BECMG 2507/2510 SCT023 BKN030
                      BECMG 2513/2515 34010KT=
201409242300 TAF LFSB 242300Z 2500/2524 27005KT 9999 SCT045 BKN060
                      PROB40 TEMPO 2500/2502 3000 BR SCT004
                      BECMG 2502/2504 BKN014 BKN030
                      PROB40 TEMPO 2504/2507 5000 RA
                      BECMG 2507/2509 SCT020 BKN035
                      BECMG 2511/2513 35005KT=
201409250500 TAF LFSB 250500Z 2506/2606 26005KT 9999 SCT025 BKN050
                      PROB30 TEMPO 2506/2508 3000 BR
                      BECMG 2511/2513 36005KT
                      PROB30 TEMPO 2603/2606 3000 BR=
201409251100 TAF LFSB 251100Z 2512/2612 35005KT 9999 BKN030 BKN070
                      BECMG 2518/2520 VRB03KT 4000 BR
                      BECMG 2608/2610 33007KT 9999 SCT025=
201409251700 TAF LFSB 251700Z 2518/2618 VRB02KT CAVOK
                      PROB30 TEMPO 2600/2606 3000 BR
                      BECMG 2609/2611 31005KT=
201409252300 TAF AMD LFSB 260130Z 2601/2624 VRB02KT 8000 MIFG FEW003
                      TEMPO 2601/2607 1000 BCFG
                      PROB30 TEMPO 2603/2607 0200 PRFG BKN001
                      BECMG 2607/2609 CAVOK=
201409252326 TAF AMD LFSB 252326Z 2600/2624 VRB02KT CAVOK
                      PROB40 TEMPO 2600/2607 3000 BR
                      PROB30 TEMPO 2603/2606 0800 BCFG BKN001=
201409260130 TAF AMD LFSB 260130Z 2601/2624 VRB02KT 8000 MIFG FEW003
                      TEMPO 2601/2607 1000 BCFG
                      PROB30 TEMPO 2603/2607 0200 PRFG BKN001
                      BECMG 2607/2609 CAVOK=
201409260500 TAF LFSB 260500Z 2606/2706 VRB02KT 7000 BCFG FEW002
                      PROB30 TEMPO 2606/2607 0500 BCFG BKN001
                      BECMG 2607/2609 CAVOK
                      TEMPO 2611/2618 34005KT
                      BECMG 2620/2622 4000 BR
                      PROB40 TEMPO 2622/2706 0500 BCFG BKN001=
201409261100 TAF LFSB 261100Z 2612/2712 34005KT CAVOK
                      PROB30 2702/2707 4000 MIFG FEW001=
201409261700 TAF LFSB 261700Z 2618/2718 30004KT CAVOK
                      PROB30 2700/2707 4000 MIFG FEW001=
201409262300 TAF LFSB 262300Z 2700/2724 30005KT CAVOK
                      PROB30 TEMPO 2700/2707 VRB01KT 2000 MIFG
                       FEW001=
201409270500 TAF LFSB 270500Z 2706/2806 30005KT CAVOK
                      PROB30 TEMPO 2706/2707 VRB02KT 4000 MIFG
                       FEW001
                      PROB40 TEMPO 2803/2806 4000 MIFG FEW001=
201409270550 TAF AMD LFSB 270550Z 2706/2806 33004KT CAVOK
                      PROB40 2803/2806 5000 MIFG=
201409271101 TAF LFSB 271101Z 2712/2812 34004KT CAVOK
                      PROB40 2803/2807 5000 BCFG=
201409271700 TAF LFSB 271700Z 2718/2818 VRB03KT CAVOK
                      PROB40 2803/2807 5000 BCFG=
201409272300 TAF LFSB 272300Z 2800/2824 13004KT CAVOK
                      PROB30 TEMPO 2800/2807 4000 BCFG=
201409280500 TAF LFSB 280500Z 2806/2906 15005KT CAVOK
                      PROB30 TEMPO 2901/2906 5000 MIFG=
201409281101 TAF LFSB 281101Z 2812/2912 VRB03KT CAVOK
                      PROB30 2901/2906 5000 MIFG=
201409281700 TAF LFSB 281700Z 2818/2918 16004KT CAVOK
                      PROB30 2902/2906 5000 MIFG
                      TEMPO 2915/2918 27010KT SHRA FEW050TCU BKN090=
201409282300 TAF LFSB 282300Z 2900/2924 VRB02KT CAVOK
                      PROB30 TEMPO 2902/2906 5000 MIFG
                      TEMPO 2915/2924 27012KT 5000 SHRA FEW050TCU
                       BKN070=
201409290500 TAF LFSB 290500Z 2906/3006 20005KT CAVOK
                      TEMPO 2911/2915 28010KT
                      PROB40 TEMPO 2915/2918 5000 SHRA FEW053TCU
                       BKN060
                      TEMPO 3002/3006 BKN030=
201409291100 TAF LFSB 291100Z 2912/3012 16005KT 9999 FEW040 SCT100
                      TEMPO 2915/3006 BKN060=
201409291349 TAF AMD LFSB 291349Z 2913/3012 16005KT 9999 FEW040 SCT100
                      TEMPO 2913/2918 28010KT BKN060
                      PROB30 TEMPO 3000/3012 -SHRA=
201409291700 TAF LFSB 291700Z 2918/3018 28005KT 9999 BKN030
                      BECMG 2921/2924 VRB03KT
                      TEMPO 3012/3018 28010KT
                      PROB40 TEMPO 3012/3018 SHRA SCT040TCU=
201409292300 TAF LFSB 292300Z 3000/3024 VRB03KT 9999 FEW045 BKN060
                      TEMPO 3006/3024 -SHRA
                      PROB40 TEMPO 3012/3024 5000 SHRA BKN030 SCT040TCU=
201409300500 TAF LFSB 300500Z 3006/0106 VRB03KT 9999 FEW050 BKN090
                      PROB40 TEMPO 3010/3021 33008KT 5000 SHRA
                       SCT035TCU BKN040
                      BECMG 3023/0101 3000 BCFG BKN005
                      PROB30 TEMPO 0101/0106 0500 FG VV///=
201409301100 TAF LFSB 301100Z 3012/0112 VRB03KT 9999 FEW050 BKN090
                      PROB40 TEMPO 3012/3021 33008KT 5000 SHRA
                       SCT035TCU
                      BECMG 3023/0101 3000 BR BKN005
                      PROB30 TEMPO 0101/0108 0500 FG VV///
                      BECMG 0108/0110 9999 NSW SCT030=
201409301441 TAF AMD LFSB 301441Z 3014/0112 VRB03KT 9999 FEW050 BKN090
                      PROB40 TEMPO 3014/3021 33008KT 5000 SHRA
                       SCT030CB
                      BECMG 3023/0101 3000 BR BKN005
                      PROB30 TEMPO 0101/0108 0500 FG VV///
                      BECMG 0108/0110 9999 NSW SCT030=
201409301612 TAF AMD LFSB 301612Z 3016/0112 VRB03KT 9999 FEW050 BKN090
                      PROB40 TEMPO 3016/3021 33008KT 3000 SHRA
                       SCT030CB
                      BECMG 3023/0101 3000 BR BKN005
                      PROB30 TEMPO 0101/0108 0500 FG VV///
                      BECMG 0108/0110 9999 NSW SCT030=
201409301700 TAF LFSB 301700Z 3018/0118 VRB03KT 9999 SCT040 BKN090
                      TEMPO 3018/3024 -SHRA
                      PROB30 TEMPO 3018/3021 33008KT 4000 SHRA
                       SCT030CB
                      BECMG 3022/3024 4000 BR BKN008
                      PROB30 TEMPO 0102/0108 0500 FG VV///
                      BECMG 0109/0111 9999 NSW SCT030
                      TEMPO 0112/0118 FEW030TCU=
201409302114 TAF AMD LFSB 302114Z 3021/0118 VRB03KT 9999 SCT020 BKN080
                      BECMG 3021/3023 4000 BR BKN008
                      PROB30 TEMPO 0102/0108 0500 FG VV///
                      BECMG 0109/0111 9999 NSW SCT030
                      TEMPO 0112/0118 FEW030TCU=
201409302300 TAF LFSB 302300Z 0100/0124 VRB03KT 4000 BR FEW005 BKN030
                      TEMPO 0100/0108 3000 BKN005
                      PROB30 TEMPO 0102/0108 0300 FG VV///
                      BECMG 0109/0111 9999 NSW SCT030
                      TEMPO 0112/0118 33005KT FEW030TCU=
201410010500 TAF LFSB 010500Z 0106/0206 33005KT 4000 BR OVC003
                      PROB30 TEMPO 0106/0108 0300 FG VV///
                      BECMG 0109/0111 9999 NSW SCT030
                      TEMPO 0112/0118 FEW030TCU
                      BECMG 0122/0201 4000 BR BKN008
                      PROB30 TEMPO 0203/0206 0500 FG VV///=
201410011100 TAF LFSB 011100Z 0112/0212 31005KT 9999 SCT025
                      TEMPO 0112/0118 SCT025TCU
                      PROB30 TEMPO 0121/0122 -SHRA
                      BECMG 0122/0201 3000 BR BKN015
                      PROB30 TEMPO 0200/0208 0500 FG VV///
                      BECMG 0208/0212 SCT025=
201410011700 TAF LFSB 011700Z 0118/0218 36005KT 9999 FEW030TCU
                      BECMG 0122/0201 3000 BR
                      PROB30 TEMPO 0200/0208 0500 FG VV///
                      BECMG 0208/0212 9999 NSW SCT025
                      TEMPO 0212/0215 FEW030TCU=
201410011731 TAF AMD LFSB 011731Z 0118/0218 36005KT 9999 FEW030
                      BECMG 0122/0201 3000 BR BKN008
                      PROB40 TEMPO 0200/0208 0500 FG VV///
                      BECMG 0208/0211 9999 NSW SCT025
                      TEMPO 0212/0215 FEW030TCU=
201410012300 TAF AMD LFSB 020427Z 0204/0224 34004KT 3000 BR BKN008
                      PROB40 TEMPO 0204/0208 0200 FG VV///
                      BECMG 0208/0211 9999 NSW SCT025
                      TEMPO 0212/0215 FEW030TCU
                      BECMG 0222/0224 4000 BR BKN008=

Dossier Metar TAF - 29 et 30/09/2014 - Montpellier

Il est assez intéressant de visualiser l'arrivee et le passage de ces phénomènes météo sur le terrain de Montpellier. Vous trouverez dans cette séquence des Metar, Metar Auto quand la station est fermée, Metar Cor, Metar NIL, TAF, etc.

Voici une séquence complète de METAR et de TAF émise lors d’une journée « mouvementée » du 29 et 30/09/2014 dans le ciel de Montpellier.

On y observera la séquence des METAR et METAR AUTO pendant la fermeture du centre météo, des METAR NIL, des +TSRA et des RETS. Dans les TAF, on trouve des TAF AMD, NSW et NSC, toutes sortes de précipitations plus ou moins violentes accompagnées ou non d’orage.

Metar

METAR LFMT 290030Z AUTO 06007KT 9000 BKN017/// OVC098/// 20/18 Q1024=
METAR LFMT 290100Z AUTO 07007KT 4300 -RA BR NSC 20/18 Q1024=
METAR LFMT 290130Z AUTO 03006KT 6000 FEW018 OVC100 19/18 Q1024=
METAR LFMT 290200Z 04008KT 8000 SCT015 BKN100 19/17 Q1024 NOSIG=
METAR LFMT 290230Z 05008KT 8000 SCT015 BKN100 19/17 Q1023 NOSIG=
METAR LFMT 290300Z 04009KT 9999 FEW015 BKN093 19/16 Q1023 NOSIG=
METAR LFMT 290330Z 05007KT 9999 FEW015 BKN096 19/15 Q1023 NOSIG=
METAR LFMT 290400Z 04008KT 9999 FEW015 BKN096 19/15 Q1023 NOSIG=
METAR LFMT 290430Z 04008KT 9999 FEW015 BKN100 19/15 Q1023 NOSIG=
METAR LFMT 290500Z 03007KT 9999 SCT025 FEW033TCU BKN093 BKN120 19/14 Q1023 NOSIG=
METAR LFMT 290530Z 03008KT 9999 BKN030 FEW033TCU BKN090 19/15 Q1023 NOSIG=
METAR LFMT 290600Z 04009KT 9000 BKN030 SCT033TCU BKN090 18/15 Q1023 NOSIG=
METAR LFMT 290630Z 05009KT 9999 -RA SCT030 SCT033TCU BKN110 18/15 Q1023 NOSIG=
METAR LFMT 290700Z 04009KT 7000 -RA FEW030 SCT060TCU BKN100 18/16 Q1023 NOSIG=
METAR LFMT 290730Z 04011KT 8000 -RA FEW036 FEW060TCU BKN083 BKN100 18/15 Q1023 NOSIG=
METAR LFMT 290800Z 03010KT 8000 -RA FEW028 BKN053 FEW060TCU BKN080 18/15 Q1023 NOSIG=
METAR LFMT 290830Z 05014KT 6000 -RA SCT023 FEW033CB BKN040 BKN080 18/16 Q1023 NOSIG=
METAR LFMT 290900Z 06015KT 7000 -RA FEW020 SCT026 FEW033CB BKN036 18/16 Q1023 NOSIG=
METAR LFMT 290930Z 08016KT 6000 -RA FEW011 SCT020 FEW026CB BKN033 18/17 Q1023 NOSIG=
METAR LFMT 291000Z 11019KT 9000 SCT020 BKN026 FEW030CB 21/19 Q1023 NOSIG=
METAR LFMT 291030Z 13019KT 7000 -RA SCT020 BKN026 FEW033CB 21/19 Q1023 NOSIG=
METAR LFMT 291100Z 12021KT 8000 SCT020 BKN030 FEW033CB 21/19 Q1023 NOSIG=
METAR LFMT 291130Z NIL=
METAR LFMT 291135Z 13021KT 9999 FEW016 SCT021 FEW033CB BKN040 22/20 Q1023 NOSIG=
METAR LFMT 291200Z VRB06KT 9999 -RA BKN022 BKN026 SCT033CB 19/16 Q1024 NOSIG=
METAR LFMT 291230Z VRB06G17KT 8000 RA SCT013 OVC021 FEW033CB 18/16 Q1023 NOSIG=
METAR LFMT 291300Z 01013KT 1500 +RA BR BKN006 BKN013 BKN020 FEW026CB 18/17 Q1023 TEMPO +TSRA=
METAR LFMT 291330Z 36004KT 290V040 0300 R30/1200U +RA BKN005 BKN013 BKN019 SCT026CB 17/17 Q1024 TEMPO +TSRA=
METAR LFMT 291400Z VRB03KT 0300 R30/0800U +RA FG BKN005 BKN010 BKN015 SCT026CB 17/17 Q1024 TEMPO +TSRA=
METAR COR LFMT 291405Z 07003KT 030V200 0300 R30/1000N +TSRA FG BKN005 BKN010 BKN015 SCT026CB 17/17 Q1024 TEMPO +TSRA=
METAR LFMT 291430Z NIL=
METAR LFMT 291449Z 04012KT 0300 R30/0900U +TSRA FG BKN005 BKN010 BKN015 SCT026CB 18/17 Q1024 TEMPO +TSRA=
METAR LFMT 291500Z 36011KT 0300 R30/0900U +TSRA FG BKN005 BKN010 BKN015 SCT026CB 18/17 Q1024 TEMPO +TSRA=
METAR LFMT 291530Z 36012KT 350V050 0600 R30/1200U +RA FG BKN005 BKN010 BKN015 SCT026CB 18/18 Q1024 RETS TEMPO +TSRA=
METAR LFMT 291600Z 08012KT 1200 R30/1800U +RA BR BKN010 BKN015 BKN020 SCT026CB 20/19 Q1024 RETS TEMPO +TSRA=
METAR COR LFMT 291613Z 10015KT 3000 RA BR BKN010 BKN015 BKN020 SCT026CB 19/18 Q1024 TEMPO +TSRA=
METAR LFMT 291630Z 10014KT 4000 RA BR BKN010 BKN015 BKN020 SCT026CB 19/18 Q1024 TEMPO +TSRA=
METAR LFMT 291700Z 10011KT 8000 -RA SCT010 BKN016 BKN020 SCT026CB 19/17 Q1024 TEMPO +TSRA=
METAR LFMT 291730Z 08013KT 6000 -RA FEW010 BKN016 BKN020 FEW026CB 20/19 Q1024=
METAR LFMT 291800Z 03007KT 6000 -RA FEW010 BKN016 BKN023 FEW033CB 20/18 Q1024=
METAR COR LFMT 291830Z 03010KT 4500 RA BR FEW010 BKN023 BKN030 FEW033CB 19/18 Q1024=
METAR LFMT 291900Z 05007KT 6000 RA BKN010 BKN016 BKN030 FEW033CB 20/19 Q1024=
METAR LFMT 291930Z 03005KT 8000 -RA SCT010 BKN023 BKN030 FEW033CB 19/19 Q1025=
METAR LFMT 292000Z 02006KT 9999 SCT016 BKN030 SCT033TCU 19/19 Q1025=
METAR LFMT 292030Z 02005KT 9999 SCT016 BKN033 20/19 Q1025=
METAR LFMT 292100Z 03005KT 8000 SCT016 BKN043 20/19 Q1025=
METAR LFMT 292130Z 04006KT 8000 BKN016 FEW033TCU BKN050 20/19 Q1025=
METAR LFMT 292200Z 04007KT 9999 BKN016 SCT026TCU 19/19 Q1024=
METAR LFMT 292230Z 04006KT 9999 SCT013 BKN016 FEW026CB 20/19 Q1025=
METAR LFMT 292300Z 05008KT 9999 SCT013 BKN016 FEW026CB 20/19 Q1024=
METAR LFMT 292330Z 08009KT 9000 -RA SCT013 BKN016 FEW026CB 19/18 Q1025=
METAR LFMT 300000Z 07006KT 6000 -RA SCT013 BKN016 BKN033 FEW040CB 19/18 Q1025=
METAR LFMT 300030Z 08003KT 3000 -RA BR SCT013 BKN016 BKN033 FEW040CB 19/18 Q1025=
METAR LFMT 300100Z 03004KT 8000 -RA SCT013 BKN016 BKN033 FEW040CB 19/18 Q1025=
METAR LFMT 300130Z 05005KT 7000 -RA SCT013 BKN016 BKN033 FEW040TCU 19/18 Q1025=
METAR LFMT 300200Z 05008KT 7000 -RA SCT013 BKN016 BKN033 FEW040TCU 18/17 Q1025=
METAR LFMT 300230Z 05009KT 7000 -RA SCT016 BKN023 BKN110 18/17 Q1025=
METAR LFMT 300300Z 04008KT 9999 -RA SCT016 BKN023 BKN110 18/17 Q1024=
METAR LFMT 300330Z 03006KT 9999 -RA BKN033 18/17 Q1024=
METAR LFMT 300400Z 02005KT 9999 BKN033 18/16 Q1024=
METAR LFMT 300430Z 03006KT 9999 BKN033 18/16 Q1024=
METAR LFMT 300500Z 01004KT 9999 BKN033 18/16 Q1024=
METAR LFMT 300530Z 36006KT 9999 BKN033 18/16 Q1024=
METAR LFMT 300600Z 36007KT 9999 BKN033 18/17 Q1025 NOSIG=
METAR LFMT 300630Z 35007KT CAVOK 18/17 Q1025 NOSIG=
METAR LFMT 300700Z 01008KT 9999 FEW040 OVC050 18/17 Q1025 NOSIG=
METAR LFMT 300730Z 01008KT 9999 FEW046 BKN050 BKN070 18/17 Q1025 NOSIG=
METAR LFMT 300800Z 02008KT 9999 SCT046 BKN070 19/17 Q1025 NOSIG=
METAR LFMT 300830Z 02009KT 9999 FEW033 SCT053 BKN076 19/17 Q1025 NOSIG=
METAR LFMT 300900Z 01009KT 9999 FEW033 SCT053 BKN076 20/17 Q1025 NOSIG=
METAR LFMT 300930Z 36009KT 9999 FEW033 BKN053 20/17 Q1025 NOSIG=
METAR LFMT 301000Z 02009KT 9999 FEW033 BKN053 BKN100 21/17 Q1025 NOSIG=
METAR LFMT 301030Z 01010KT 9999 FEW033 SCT053 BKN100 21/17 Q1025 NOSIG=
METAR LFMT 301100Z 02008KT 9999 FEW033 SCT053 BKN110 22/16 Q1025 NOSIG=
METAR LFMT 301130Z 02009KT 350V060 9999 FEW033 SCT046 23/17 Q1025 NOSIG=
METAR LFMT 301200Z 04009KT 9999 FEW033 BKN046 BKN120 22/16 Q1024 NOSIG=
METAR LFMT 301230Z 03008KT 9999 FEW033 BKN046 BKN100 23/16 Q1024 NOSIG=
METAR LFMT 301300Z 06006KT 9999 FEW027 BKN050 23/16 Q1024 NOSIG=
METAR LFMT 301330Z 06007KT 9999 FEW027 BKN050 BKN093 23/16 Q1024 NOSIG=
METAR LFMT 301400Z 03006KT 360V070 9999 FEW027 SCT050 BKN100 23/16 Q1024 NOSIG=
METAR LFMT 301430Z 04008KT 9999 SCT027 SCT053 BKN100 23/16 Q1024 NOSIG=
METAR LFMT 301500Z 05008KT 9999 SCT027 SCT053 BKN110 22/16 Q1024 NOSIG=
METAR LFMT 301530Z 05007KT 9999 FEW027 SCT053 BKN110 22/16 Q1024 NOSIG=
METAR LFMT 301600Z 04007KT 9999 FEW027 SCT053 BKN190 22/16 Q1024 NOSIG=
METAR LFMT 301630Z 05008KT 9999 FEW027 SCT046 BKN190 22/16 Q1024 NOSIG=
METAR LFMT 301700Z 05009KT 9999 FEW027 BKN110 BKN190 21/16 Q1024 NOSIG=
METAR LFMT 301730Z 03004KT 9999 FEW033 BKN120 BKN190 21/16 Q1024 NOSIG=
METAR LFMT 301800Z 04004KT 9999 SCT033 BKN120 BKN190 20/16 Q1024 NOSIG=
METAR LFMT 301830Z 35004KT 330V040 9999 SCT033 BKN046 BKN120 20/16 Q1024 NOSIG=
METAR LFMT 301900Z 34005KT 9999 FEW033 BKN048 BKN120 20/16 Q1024 NOSIG=
METAR LFMT 301930Z 33004KT 9999 FEW033 SCT049 BKN120 20/16 Q1024 NOSIG=
METAR LFMT 302000Z 34004KT 9999 SCT049 SCT120 19/16 Q1025 NOSIG=
METAR LFMT 302030Z 35004KT CAVOK 19/16 Q1025 NOSIG=
METAR LFMT 302100Z 36004KT CAVOK 19/16 Q1024 NOSIG=
METAR LFMT 302130Z 01004KT CAVOK 19/16 Q1024 NOSIG=
METAR LFMT 302200Z 34003KT CAVOK 18/16 Q1025 NOSIG=
METAR LFMT 302230Z VRB03KT CAVOK 18/15 Q1025 NOSIG=
METAR LFMT 302300Z 30004KT CAVOK 18/15 Q1025 NOSIG=
METAR LFMT 302330Z AUTO 32004KT 9999 NSC 18/15 Q1024=

Taf

TAF AMD LFMT 280230Z 2802/2824 02008KT CAVOK
         TEMPO 2802/2809 BKN010
         PROB40 TEMPO 2802/2809 BKN003
         BECMG 2810/2812 14010KT
         BECMG 2818/2820 BKN010 OVC090=
TAF LFMT 280500Z 2806/2906 02008KT CAVOK
         TEMPO 2806/2809 BKN006
         BECMG 2810/2812 14010KT
         TEMPO 2818/2903 BKN010 OVC090
         BECMG 2900/2902 04005KT
         PROB30 TEMPO 2903/2906 -RA BKN015=
TAF LFMT 281100Z 2812/2912 11011KT 9999 SCT019 FEW050TCU
         BECMG 2818/2821 04005KT BKN010 OVC090
         PROB30 TEMPO 2821/2906 4000 -RA OVC010
         BECMG 2910/2912 NSW NSC=
TAF LFMT 281700Z 2818/2918 14010KT 9999 SCT022 FEW040TCU
         BECMG 2818/2821 04005KT BKN010 OVC090
         PROB30 TEMPO 2821/2906 4000 -RA OVC010
         BECMG 2910/2912 NSW NSC
         BECMG 2912/2915 12011KT=
TAF LFMT 282300Z 2900/2924 12010KT 9000 NSC
         PROB30 TEMPO 2900/2906 4000 -RA OVC010
         BECMG 2908/2910 BKN010
         PROB30 TEMPO 2912/2924 12013G23KT TSRA BKN050CB=
TAF LFMT 290500Z 2906/3006 04007KT 9000 FEW015 BKN040
         TEMPO 2910/3006 4000 RA OVC010
         PROB40 TEMPO 2912/2924 TSRA BKN010CB BKN050=
TAF AMD LFMT 290601Z 2906/3006 04007KT 9000 FEW015 BKN040
         TEMPO 2906/3006 3000 RA OVC010 SCT020TCU
         PROB40 TEMPO 2912/2924 TSRA BKN010CB BKN050=
TAF AMD LFMT 290807Z 2908/3006 04010KT 9000 FEW015 BKN040
         TEMPO 2908/3006 2000 RA BR OVC010 SCT020TCU
         PROB40 TEMPO 2908/2924 VRB15G25KT TSRA SCT020CB BKN050=
TAF LFMT 291100Z 2912/3012 10015KT 9000 SCT015 BKN020 BKN040
         TEMPO 2912/2924 11025G35KT 0500 +RA FG OVC008 SCT020TCU
         PROB40
         TEMPO 2912/2920 TSRA SCT020CB
         TEMPO 3000/3012 3000 RA BR OVC010 SCT020TCU=
TAF AMD LFMT 291204Z 2912/3012 12015KT 9000 SCT015 BKN020 BKN040
          TEMPO 2912/2924 04015KT 0500 RA FG OVC008 SCT020TCU
         PROB40 TEMPO 2912/2920 VRB20G30KT TSRA SCT020CB
         TEMPO 3000/3012 3000 RA BR OVC010 SCT020TCU=
TAF AMD LFMT 291407Z 2914/3012 12015KT 9000 SCT015 BKN020 BKN040
          TEMPO 2914/2924 VRB05KT 0300 +RA FG OVC005 SCT020TCU
          PROB40
         TEMPO 2914/2920 VRB15G25KT TSRA SCT020CB
         TEMPO 3000/3012 3000 RA BR OVC010 SCT020TCU=
TAF LFMT 291700Z 2918/3018 12015KT 7000 -RA BKN015 BKN020 BKN040
          TEMPO 2918/2924 VRB15G25KT RA OVC005 SCT020TCU
         PROB40 TEMPO 2918/2924 0300 TS +RA FG OVC003 SCT020CB
          TEMPO 3000/3012 3000 RA BR OVC010 SCT020TCU
         TEMPO 3012/3018 TSRA SCT020CB=
TAF LFMT 292300Z 3000/3024 04005KT 7000 -RA BKN015 BKN020 BKN040
          TEMPO 3000/3012 1500 RA BR OVC005 SCT020TCU
         PROB30 TEMPO 3000/3004 VRB15G35KT 0300 TS +RA FG OVC003
          SCT020CB
         TEMPO 3012/3018 TS SHRA SCT020CB
         BECMG 3018/3021 NSW BKN040=
TAF LFMT 300500Z 3006/0106 04005KT 9999 OVC020
         TEMPO 3006/3012 3000 RA BR OVC004 SCT020TCU
         PROB30 TEMPO 3012/3017 TSRA SCT020CB
         BECMG 0100/0102 NSW NSC=
TAF LFMT 301100Z 3012/0112 01012KT 9999 FEW035 BKN053 BKN100
         PROB30 TEMPO 3015/3019 5000 TSRA SCT040CB BKN050
         BECMG 3023/0101 31005KT NSC
         PROB30 TEMPO 0102/0107 4000 BR=
TAF LFMT 301700Z 3018/0118 04010KT 9999 SCT026 BKN060
         BECMG 0100/0102 32005KT NSC
         TEMPO 0102/0107 4000 BR
         BECMG 0110/0113 SCT045TCU=
TAF LFMT 302300Z 0100/0124 32005KT CAVOK
         TEMPO 0113/0116 24005KT=
TAF LFMT 010500Z 0106/0206 34005KT CAVOK
         TEMPO 0112/0117 22005KT 9999 NSC=
TAF LFMT 011100Z 0112/0212 34005KT CAVOK
         TEMPO 0112/0117 22005KT 9999 NSC
         BECMG 0206/0208 04010KT=
TAF LFMT 011700Z 0118/0218 34005KT CAVOK
         BECMG 0206/0208 04010KT
         TEMPO 0213/0217 20010KT=
TAF LFMT 012300Z 0200/0224 31006KT CAVOK
         BECMG 0206/0208 04010KT
         TEMPO 0213/0217 20010KT=

SIGMET

Lot 1

Exemples de SIGMETS non commentés, mis en page pour plus de facilité.

FIR LFMM MARSEILLE

LFMM SIGMET 3 VALID 070600/070800 LFPW-
LFMM MARSEILLE FIR/UIR
EMBD TS OBS AT 0600Z WI N4230 E00830 - N4230 E00530 - N4315 E00630 - N4300 E00900 TOP FL380 STNR NC=

FIR LFFF PARIS

LFFF SIGMET 3 VALID 070630/070800 LFPW- 
LFFF PARIS FIR/UIR EMBD TS OBS AT 0630Z WI N5015 E00015 - N5100 E00145 - N5100 E00215 - N5000 E00100 TOP FL250 MOV NE 35KT NC=

LFFF SIGMET 2 VALID 070600/071000 LFPW- 
LFFF PARIS FIR/UIR SEV TURB FCST N OF N4900 AND W OF E00015 FL180/260 MOV NE 30KT NC=

FIR LFRR BREST

LFRR SIGMET 2 VALID 070600/071000 LFPW- 
LFRR BREST FIR/UIR SEV TURB FCST N OF LINE N4730 W00800 - N4900 W00015 FL180/260 MOV NE 30KT NC= 

LFMM SIGMET 6 VALID 111600/112000 LFPW-
LFMM MARSEILLE FIR/UIR SEV MTW FCST E OF E00845 FL030/180 STNR NC=

LFMM SIGMET 5 VALID 111515/111700 LFPW-
LFMM MARSEILLE FIR/UIR EMBD TS OBS WI N4630 E00615 - N4630 E00700 - N4515 E00700 - N4515 E00500 TOP FL270 STNR NC=

LFMM SIGMET 4 VALID 111400/111800 LFPW-
LFMM MARSEILLE FIR/UIR SEV TURB FCST WI N4500 E00245 - N4630 E00300 - N4630 E00700 - N4415 E00700 FL180/370 STNR NC=

LFMM SIGMET 1 VALID 151200/151600 LFPW-
LFMM MARSEILLE FIR/UIR SEV TURB OBS WI N4515 E00515 - N4245 E00515 - N4245 E00400 - N4515 E00415 SFC/FL050 STNR INTSF=

LFMM SIGMET 8 VALID 211600/211800 LFPW-
LFMM MARSEILLE FIR/UIR SEV TURB FCST WI N4315 E00415 - N4345 E00400 - N4315 E00545 - N4245 E00545 SFC/FL040 STNR WKN=

LFMM SIGMET 7 VALID 211600/212000 LFPW-
LFMM MARSEILLE FIR/UIR SEV TURB FCST WI N4315 E00230 - N4600 E00300 - N4530 E00500 SFC/FL100 STNR WKN=

LFMM SIGMET 6 VALID 211200/211600 LFPW-
LFMM MARSEILLE FIR/UIR SEV TURB FCST WI N4245 E00430 - N4330 E00400 - N4345 E00530 - N4300 E00630 SFC/FL040 STNR NC=

LFMM SIGMET 5 VALID 211200/211600 LFPW-
LFMM MARSEILLE FIR/UIR SEV TURB FCST WI N4245 E00230 - N4600 E00300 - N4515 E00430 SFC/FL080 STNR NC=

Lot 2

FIR EBBU BRUXELLES GAMET: EBBU GAMET VALID 240600/241200 EBBR- EBBU BRUSSELS FIR BLW FL100 SECN I SFC VIS (?=5KM): 06/10 2000-5000 M RA RADZ IN EXT W AND ALONG FRENCH BORDER IN WSW EBBU 06/08 1500-4000 M BR INLAND SIG CLD: 06/10 BKN 300/ABV10000 FT AGL IN EXT W AND ALONG FRENCH BORDER IN WSW EBBU 10/12 ISOL TCU 2000/ABV10000 FT AGL SECN II PSYS: 06. COL OVER EBBU. L 1003 HPA OVER NORTH ATLANTIC WITH ASSOCIATED WAVING OCCLUSION LYING ACROSS EAST UK TO N OF FRANCE, MOVING SLOWLY NORTH WARDS AND INFLUENCING MAINLY OUR WESTERN PART. AHEAD OF IT, ADVECTION OF POTENTIALLY UNSTABLE MILD CONTINENTAL AIR FROM S. SFC WSPD (?=30KT): 03-07 KT, 10-15 KT IN VICINITY OF TCU=


WSFI31 EFHK 021343 CCA EFIN SIGMET 1 VALID 021343/021500 EFHK- EFIN FINLAND FIR EMBD TS OBS AT EFHK TOP FL150 MOV SSE 10KT NC=

WSFR34 LFPW 020927 LFMM SIGMET 2 VALID 020930/021130 LFPW- LFMM MARSEILLE FIR/UIR EMBD TSGR FCST WI N4430 E00700 - N4400 E00700 - N4330 E00830 - N4245 E00700 - N4400 E00615 TOP FL300 MOV SW 10KT NC=

WSFR34 LFPW 020932 LFMM SIGMET 3 VALID 021000/021400 LFPW- LFMM MARSEILLE FIR/UIR SEV TURB FCST WI N4130 E00430 - N4200 E00430 - N4215 E00230 - N4300 E00230 - N4445 E00400 - N4300 E00700 SFC/FL050 STNR NC=

WSFR34 LFPW 021104 LFMM SIGMET 4 VALID 021130/021330 LFPW- LFMM MARSEILLE FIR/UIR EMBD TSGR FCST WI N4400 E00700 - N4315 E00945 - N4145 E00945 - N4315 E00745 - N4300 E00600 - N4400 E00600 TOP FL300 STNR NC=

WSFR34 LFPW 021324 LFMM SIGMET 5 VALID 021330/021500 LFPW- LFMM MARSEILLE FIR/UIR EMBD TS FCST WI N4400 E00715 - N4315 E00945 - N4215 E00945 - N4300 E00815 - N4200 E00700 - N4300 E00600 TOP FL300 STNR NC=

WSFR34 LFPW 021403 LFMM SIGMET 6 VALID 021400/021800 LFPW- LFMM MARSEILLE FIR/UIR SEV TURB FCST WI N4130 E00430 - N4200 E00430 - N4215 E00230 - N4300 E00230 - N4500 E00430 - N4300 E00700 SFC/FL050 STNR NC=

WSFR34 LFPW 021503 LFMM SIGMET 7 VALID 021500/021700 LFPW- LFMM MARSEILLE FIR/UIR EMBD TS FCST WI N4300 E00800 - N4200 E00700 - N4215 E00615 - N4330 E00730 TOP FL300 MOV E 20KT NC=

WSFR34 LFPW 021630 LFMM SIGMET 8 VALID 021700/021900 LFPW- LFMM MARSEILLE FIR/UIR EMBD TS FCST WI N4115 E00900 - N4115 E00800 - N4045 E00800 - N4115 E00600 - N4245 E00615 TOP FL300 MOV S 20KT NC=

WSIY31 LIIB 020850 LIMM SIGMET 03 VALID 020900/021300 LIMM- LIMM MILANO FIR EMBD TS OBS MAINLY LIGURIAN AREA AND E PADANIAN PLAIN/ADRIATIC COASTS CB TOP FL340 STNR NC. LIMM MILANO FIR SEV TURB FCST S PART AT THE FIR BORDER FL220/370 MOV S WKN=

WSIY31 LIIB 021245 LIMM SIGMET 04 VALID 021300/021700 LIMM- LIMM MILANO FIR EMBD TS OBS S AND E PART OF FIR CB TOP FL340 STNR NC. LIMM MILANO FIR SEV TURB FCST S PART AT THE FIR BORDER FL220/370 MOV S WKN=

WSIY31 LIIB 021650 LIMM SIGMET 05 VALID 021700/022100 LIMM- LIMM MILANO FIR EMBD TS OBS S AND E PART OF FIR CB TOP FL330 MOV SE NC=

WSIY32 LIIB 020852 LIRR SIGMET 03 VALID 020900/021300 LIMM- LIRR ROMA FIR EMBD TS FCST N PART OF FIR CB TOP FL340 STNR NC. LIRR ROMA FIR EMBD TS FCST CENTRAL/S THYRRENIAN COASTS CB TOP FL250 MOV E NC. LIRR ROMA FIR SEV TURB FCST ENTIRE FIR FL220/370 MOV SE NC=

WSIY32 LIIB 021248 LIRR SIGMET 04 VALID 021300/021700 LIMM- LIRR ROMA FIR EMBD TS OBS N PART OF FIR CB TOP FL340 STNR NC. LIRR ROMA FIR EMBD TS FCST CENTRAL/S THYRRENIAN AREA CB TOP FL250 MOV E NC. LIRR ROMA FIR SEV TURB FCST ENTIRE FIR FL220/370 MOV SE NC=

WSIY32 LIIB 021652 LIRR SIGMET 05 VALID 021700/022100 LIMM- LIRR ROMA FIR EMBD TS OBS N PART OF FIR CB TOP FL330 MOV SE NC. LIRR ROMA FIR EMBD TS FCST CENTRAL/S THYRRENIAN AREA CB TOP FL250 MOV ESE NC. LIRR ROMA FIR SEV TURB FCST ENTIRE FIR FL220/370 STNR NC=

WSIY33 LIIB 021252 LIBB SIGMET 01 VALID 021300/021700 LIMM- LIBB BRINDISI FIR EMBD TS FCST N PART OF FIR AND APPENNINIAN AREA CB TOP FL340 EXTENDING CENTRAL/S PART NC=

WSIY33 LIIB 021655 LIBB SIGMET 02 VALID 021700/022100 LIMM- LIBB BRINDISI FIR EMBD TS FCST N PART OF FIR AND APPENNINIAN AREA CB TOP FL330 EXTENDING CENTRAL/S PART NC. LIBB BRINDISI FIR SEV TURB FCST MAINLY CENTRAL/S PART OF FIR FL220/370 STNR NC=

WSNT21 EGRR 021743 EGGX SIGMET 01 VALID 021845/022200 EGRR- EGGX SHANWICK FIR EMBD TS OBS WI N4830 W03000 - N4830 W02900 - N4500 W02900 - N4500 W03000 - N4830 W03000 TOP FL300 MOV NE 30KT NC=

WSOS31 LOWW 021350 LOVV SIGMET 1 VALID 021400/021500 LOWW- LOVV WIEN FIR SQL TS OBS WI N4830 E01430 - N4815 E01500 - N4830 E01545 - N4845 E01475 TOP FL350 MOV NW WKN=

WSOS31 LOWW 021445 LOVV SIGMET 2 VALID 021445/021500 LOWW- LOVV WIEN FIR CNL SIGMET 1 021400/021500=

WSRH31 LDZM 020655 LDZO SIGMET 2 VALID 020700/020900 LDZA- LDZO ZAGREB FIR EMBD TS OBS W OF E015 TOP FL320 STNR NC=

WSRH31 LDZM 021150 LDZO SIGMET 3 VALID 021200/021600 LDZA- LDZO ZAGREB FIR FRQ TS FCST N OF N43 TOP FL350 STNR NC=

WSRH31 LDZM 021740 LDZO SIGMET 4 VALID 021740/021900 LDZA- LDZO ZAGREB FIR EMBD TS OBS S OF N46 W OF E017 AND N OF N45 TOP FL380 MOV W NC=

WSRM31 LUKK 021055 LUUU SIGMET 1 VALID 021200/021600 LUKK- LUUU CHISINAU FIR FRQ TS FCST ENTIRE FIR TOP FL360 STNR INTSF=

WSRO31 LROM 020926 LRBB SIGMET 01 VALID 021000/021300 LROM- LRBB BUCURESTI FIR EMBD TS FCST WI N47 E022-N45 E23-N45 E27-N48 E27 -N48 E23-N47 E022 TOP FL320 STNR INTSF=

WSRO31 LROM 020926 CCY LRBB SIGMET 01 VALID 021000/021300 LROM- LRBB BUCURESTI FIR EMBD TS FCST WI N47 E022-N45 E023-N45 E027-N48 E027-N48 E023-N47 E022 TOP FL320 STNR INTSF=

WSRO31 LROM 021247 LRBB SIGMET 02 VALID 021300/021500 LROM- LRBB BUCURESTI FIR EMBD TS FCST TOP FL330 STNR NC=

WSRO31 LROM 021443 LRBB SIGMET 03 VALID 021500/021700 LROM- LRBB BUCURESTI FIR EMBD TS FCST S OF N47 TOP FL330 STNR WKN=

AIRMET

Exemples de AIRMET non commentés.

FIR LSAS SWITZERLAND
AIRMET: LSAS AIRMET 5 VALID 070700/071100 LSZH- LSAS SWITZERLAND FIR MOD TURB FCST W PART OF SWITZERLAND 3000FT/FL080 STNR NE=

AIRMET: LSAS AIRMET 3 VALID 070435/070800 LSZH- LSAS SWITZERLAND FIR MOD TURB FCST ALPS SFC/FL140 STNR INTSF=

GAMET

Lot 1

Voici un lot de prévisions GAMET prises le même jour pour différents pays d’Europe (même jour que les Airmet ci-dessus).

LSAS GAMET VALID 070600/071200 LSZH-

WESTERN SWITZERLAND
SECN I
	ICE: MOD ABV FL100
	TURB: MOD SFC/FL080
SECN II
	W/T: 5000FT 220/40KT PS10 10000FT 240/50KT PS00
	FZLVL: FL100 MNM
	QNH: 1010 HPA

EASTERN SWITZERLAND
SECN I
	ICE: LCA MOD ABV FL095 
	TURB: LCA MOD SFC/FL080
SECN II 
	W/T: 5000FT 200/20KT PS09 10000FT 240/40KT MS01 
	FZLVL: FL095 MNM 
	QNH: 1009 HPA 

WESTERN ALPINE SWITZERLAND 
SECN I 
	ICE: LCA MOD ABV FL100 
	TURB: LCA MOD SFC/FL140 
	MTW: 09/12 LCA MOD FL080/FL140 
SECN II 
	W/T: 8000FT 200/20KT PS03 13000FT 250/35KT MS07 
	FZLVL: FL100 

EASTERN ALPINE SWITZERLAND 
SECN I 
	TURB: LCA MOD SFC/FL140 
	MTW: 09/12 LCA MOD FL080/FL140 
SECN II 
	W/T: 8000FT 190/20KT PS03 13000FT 260/30KT MS07 
	FZLVL: FL095 

SOUTHERN SWITZERLAND 
SECN I 
	ICE: LCA MOD FL080/FL160 
SECN II 
	W/T: 5000FT 170/10KT PS06 10000FT 220/20KT MS03 
	FZLVL: FL085 MNM 
	QNH: 1016 HPA=
_
GAMET: LSAS GAMET VALID 070300/070900 LSZH- 

WESTERN SWITZERLAND
SECN I 
	ICE: MOD ABV FL100 
	TURB: MOD SFC/FL080 
SECN II 
	W/T: 5000FT 220/30KT PS10 10000FT 250/40KT PS00 
	FZLVL: FL100 MNM 
	QNH: 1010 HPA 

EASTERN SWITZERLAND 
SECN I 
	ICE: LCA MOD ABV FL095 
	TURB: LCA MOD SFC/FL080 
SECN II 
	W/T: 5000FT 200/20KT PS09 10000FT 250/25KT MS01 
	FZLVL: FL095 MNM 
	QNH: 1009 HPA 

WESTERN ALPINE SWITZERLAND 
SECN I 
	ICE: LCA MOD ABV FL095 
	TURB: LCA MOD SFC/FL140 
SECN II 
	W/T: 8000FT 200/20KT PS03 13000FT 260/35KT MS07 
	FZLVL: FL095 

EASTERN ALPINE SWITZERLAND 
SECN I 
	TURB: LCA MOD SFC/FL140 
SECN II 
	W/T: 8000FT 200/20KT PS03 13000FT 260/30KT MS07 
	FZLVL: FL095 

SOUTHERN SWITZERLAND 
SECN I 
	ICE: LCA MOD FL080/FL160 
SECN II 
	W/T: 5000FT 150/10KT PS06 10000FT 230/20KT MS04 
	FZLVL: FL080 MNM 
	QNH: 1016 HPA=

Lot 2

FIR EBBU BRUXELLES GAMET: EBBU GAMET VALID 240600/241200 EBBR- EBBU BRUSSELS FIR BLW FL100 SECN I SFC VIS (?=5KM): 06/10 2000-5000 M RA RADZ IN EXT W AND ALONG FRENCH BORDER IN WSW EBBU 06/08 1500-4000 M BR INLAND SIG CLD: 06/10 BKN 300/ABV10000 FT AGL IN EXT W AND ALONG FRENCH BORDER IN WSW EBBU 10/12 ISOL TCU 2000/ABV10000 FT AGL SECN II PSYS: 06. COL OVER EBBU. L 1003 HPA OVER NORTH ATLANTIC WITH ASSOCIATED WAVING OCCLUSION LYING ACROSS EAST UK TO N OF FRANCE, MOVING SLOWLY NORTH WARDS AND INFLUENCING MAINLY OUR WESTERN PART. AHEAD OF IT, ADVECTION OF POTENTIALLY UNSTABLE MILD CONTINENTAL AIR FROM S. SFC WSPD (?=30KT): 03-07 KT, 10-15 KT IN VICINITY OF TCU=

Dossier MTO GAFOR

Il s’agit d’un dossier météo pour un vol sur la région nord-est France le 05/10/2014. Nous vous donnons pour ce faire les prévisions GAFOR France de ce jour, ansi que les informations météo plus « classiques » de ce même jour.

L’idée de l’exercice est de décoder et interpréter ces prévisions GAFOR, et de les recouper avec les autres informations. Cela devrait vous aider à vous familiariser avec.

GAFOR - 05/10/2014 à 06:00 UTC

GAFOR LFRN 0915
BBBB
20/29 O=

GAFOR LFPB 0915
BBBB
35 O TEMPO 0915 D1 LOC M1 ISOL M2 RA
38 O LOC D1 TEMPO 0912 M1 ISOL M2 RA=

GAFOR LFSB 0915
BBBB
44 46 47 49 52 D1 TEMPO 0915 X SHRA
45 48 M5 LOC X FG BECMG 0911 O TEMPO 1115 D3 SHRA 
50 51 53 O TEMPO 1215 X TSRA=

GAFOR LFBD 0915
BBBB
55 57 61 D1 LOC O BECMG 0912 O LOC D1 BECMG 1215 O
56 60 64 65 O 
58 59 62 63 M1 LOC M5 RA BECMG 0912 D1 LOC MON M5 RA
66 D1 LOC MON X RA=

GAFOR LFLY 0915
BBBB
70/72 M2 ST TEMPO 0915 M5 TSRA
73 D3 TEMPO 0915 M5 ST DZRA
74/77 O TEMPO 0915 D3 SHRA LOC M4 TSRA
78 79 O LOC MON TEMPO 1115 M4 TSRA=

METAR/TAF - 05/10/2014 - France

LFBZ BIARRITZ-BAYONNE-ANGLET
METAR: LFBZ 050900Z 11005KT 070V150 9999 FEW030 BKN046 14/10 Q1022 NOSIG=
TAF LONG: LFBZ 050500Z 0506/0606 VRB03KT 9999 SCT015 BKN030
   PROB30 TEMPO 0506/0509 3000 -RA BKN010 
   BECMG 0509/0512 02008KT SCT025 
   BECMG 0515/0518 CAVOK 
   BECMG 0521/0524 15008KT 
   PROB30 TEMPO 0600/0606 4000 BR=

LFBY DAX-SEYRESSE
METAR: LFBY 050900Z AUTO 03005KT 360V060 9999 // NCD 14/09 Q1022=

LFBM MONT-DE-MARSAN
METAR: LFBM 050900Z AUTO VRB03KT 9999 NSC 14/10 Q1022=
TAF LONG: LFBM 050500Z 0506/0606 30005KT 9999 SCT040 
   PROB40 TEMPO 0506/0508 2000 BCFG 
   TEMPO 0604/0606 2000 BCFG=

LFBC CAZAUX
METAR: LFBC 050900Z AUTO 36010KT 9999 NSC 15/07 Q1021=
TAF LONG: LFBC 050500Z 0506/0606 35005KT 9999 SCT025 PROB30 TEMPO 0506/0507 4000 BR=

LFBD BORDEAUX-MERIGNAC
METAR: LFBD 050900Z AUTO 35009KT 9999 NSC 14/09 Q1021=
TAF LONG: LFBD 050500Z 0506/0612 32010KT 9999 SCT025 
   BECMG 0509/0512 02005KT CAVOK 
   BECMG 0609/0612 21010KT=

LFBT TARBES LOURDES PYRENEES
METAR: LFBT 050900Z AUTO 18003KT 150V210 9999 OVC026 12/08 Q1022=
TAF LONG: LFBT 050500Z 0506/0606 28010KT 9999 BKN030 
   PROB30 TEMPO 0506/0508 3000 -RA BKN010 
   BECMG 0509/0512 32005KT 
   BECMG 0518/0521 CAVOK 
   PROB30 TEMPO 0600/0606 4000 BR=

LFBP PAU-PYRENEES
METAR: LFBP 050900Z 00000KT 9999 FEW021 BKN033 14/09 Q1021 NOSIG=
TAF LONG: LFBP 050500Z 0506/0606 27005KT 9999 BKN030 
   BECMG 0512/0515 CAVOK 
   BECMG 0600/0603 11008KT=

LFMK CARCASSONNE-SALVAZA
METAR: LFMK 050900Z AUTO 28014KT 9999 FEW022 BKN062 15/09 Q1020=
TAF LONG: AMD LFMK 050554Z 0506/0606 27015KT 9999 FEW030 BKN080 
   TEMPO 0510/0514 27020G34KT 
   BECMG 0512/0514 CAVOK=

LFMP PERPIGNAN-RIVESALTES
METAR: LFMP 050900Z 31019KT 9999 FEW026 SCT100 18/10 Q1017 TEMPO 0507/0512 30020G35KT=
TAF LONG: LFMP 050500Z 0506/0606 29010KT 9999 -RA SCT050 BKN075 
   TEMPO 0506/0512 30015G35KT 
   BECMG 0510/0512 9999 NSC 
   BECMG 0517/0520 BKN030=

LFBO TOULOUSE-BLAGNAC
METAR: LFBO 050900Z AUTO 27007KT 230V310 9999 FEW021 15/10 Q1020=
TAF LONG: LFBO 050500Z 0506/0612 28010KT 9999 BKN014 
   BECMG 0507/0509 SCT020 SCT040 
   BECMG 0515/0518 04005KT 
   BECMG 0608/0610 14010KT=

LFMU BEZIERS-VIAS
METAR: LFMU 050900Z AUTO 27010KT 9999 NSC 17/09 Q1017=
TAF LONG: AMD LFMU 050549Z 0506/0606 28015G34KT CAVOK 
   BECMG 0511/0514 32010KT=

LEBL BARCELONA
METAR: LEBL 050900Z 34004KT 260V040 9999 FEW018 19/15 Q1017 NOSIG=
TAF LONG: AMD LEBL 050811Z 0508/0606 32005KT 9999 SCT010 TX22/0513Z TN17/0606Z 
   PROB30 TEMPO 0508/0509 4000 TSRA FEW020CB BKN025 
   TEMPO 0509/0520 FEW020CB 
   BECMG 0511/0514 13010KT 
   TEMPO 0512/0518 14015KT 
   BECMG 0520/0522 VRB03KT=

LEGR GRANADA/FEDERICO GARCIA LORCA GRANADA-JAEN
METAR: LEGR 050900Z 00000KT 9999 FEW050 20/14 Q1019=
TAF LONG: LEGR 050800Z 0509/0609 VRB03KT CAVOK TX29/0515Z TN11/0606Z 
   PROB30 TEMPO 0514/0518 SCT040TCU=

LEJR JEREZ
METAR: LEJR 050900Z VRB01KT CAVOK 20/16 Q1017 NOSIG=
TAF LONG: LEJR 050500Z 0506/0606 VRB02KT CAVOK TX30/0515Z TN14/0606Z 
   PROB30 TEMPO 0506/0507 3000 BR 
   TEMPO 0514/0518 26010KT=

LEMD MADRID/BARAJAS
METAR: LEMD 050900Z 02008KT 350V070 CAVOK 19/11 Q1018 NOSIG=
TAF LONG: LEMD 050500Z 0506/0612 02008KT CAVOK TX25/0514Z TN11/0606Z 
   BECMG 0512/0514 22008KT PROB40 
   TEMPO 0514/0520 22008G18KT=

LEMG MALAGA
METAR: LEMG 050900Z 00000KT 9999 FEW030 23/18 Q1016 NOSIG=
TAF LONG: LEMG 050500Z 0506/0606 30004KT 9999 FEW015 TX25/0512Z TN17/0506Z 
   PROB30 TEMPO 0506/0508 4000 BR BKN006 
   BECMG 0509/0511 13009KT 
   BECMG 0519/0522 VRB02KT 
   TEMPO 0600/0606 3000 BR BKN005=

LEZL SEVILLA
METAR: LEZL 050900Z 05004KT 020V080 CAVOK 22/14 Q1016 NOSIG=
TAF LONG: LEZL 050800Z 0509/0609 VRB03KT CAVOK TX30/0515Z TN16/0606Z 
   TEMPO 0515/0520 23010KT=

SIGMET - 05/10/2014

FIR LFMM MARSEILLE

SIGMET: LFMM SIGMET 4 VALID 050800/051000 LFPW- LFMM MARSEILLE FIR/UIR EMBD TS OBS WI N4030 E00430 - N4200 E00430 - N4300 E00600 - N4030 E00600 TOP FL340 MOV E 10KT NC=

FIR LECB BARCELONA

SIGMET: LECB SIGMET 6 VALID 050730/050930 LEVA- LECB BARCELONA FIR/UIR EMBD TS OBS AT 0730Z WI N42 E00430 - N42 E00210 - N3920 W00040 - N3820 E00020 - N4010 E00430 TOP FL380 MOV SSE NC=

METAR/TAF - 05/10/2014 - Nord-est France

LFST STRASBOURG-ENTZHEIM
METAR: LFST 050830Z AUTO VRB02KT 3500 BR OVC003 12/12 Q1016=
TAF LONG: AMD LFST 050708Z 0507/0606 VRB03KT 3000 BR SCT040 
   TEMPO 0507/0509 0200 BCFG VV/// 
   BECMG 0509/0511 9999 NSW 
   PROB40 TEMPO 0511/0518 02015KT 5000 SHRA FEW030TCU 
   BECMG 0600/0603 4000 BR=

LFSD DIJON-LONGVIC
METAR: LFSD 050900Z AUTO 03004KT 7000 BKN004/// BKN012/// OVC074/// ///CB 14/14 Q1015=
TAF LONG: AMD LFSD 050816Z 0508/0606 VRB02KT 9999 BKN040 
   TEMPO 0508/0510 VRB15KT 1500 SHRA BKN014 SCT030CB OVC040 
   TEMPO 0510/0521 4000 RA BKN006 OVC020 
   PROB40 0602/0606 0200 FG VV///=

LFSI SAINT-DIZIER-ROBINSON
METAR: LFSI 050900Z AUTO 35002KT 1700 BR VV/// 14/14 Q1016=
TAF LONG: LFSI 050800Z 0509/0609 34005KT 4000 BR OVC004 
   PROB40 TEMPO 0509/0515 6000 OVC010 
   TEMPO 0509/0602 1500 RADZ OVC002 
   BECMG 0608/0609 8000 NSW BKN010=

LFSO NANCY-OCHEY
METAR: LFSO 050900Z AUTO VRB03KT 4000 BR OVC002/// ///TCU 13/13 Q1016=
TAF LONG: LFSO 050800Z 0509/0609 06004KT 4000 RA BKN004 BKN015 
   BECMG 0509/0510 7000 NSW 
   TEMPO 0510/0515 BKN020 
   BECMG 0516/0518 3000 DZ BKN005=

LFSX LUXEUIL-ST-SAUVEUR
METAR: LFSX 050900Z AUTO VRB02KT 9999 SCT004 OVC086 14/12 Q1015=
TAF LONG: LFSX 050800Z 0509/0609 07004KT 4000 RA SCT004 BKN040 TEMPO 0510/0516 SCT015 BKN020 BECMG 0516/0520 3000 DZ BKN005=

LFOK CHALONS-VATRY
METAR: LFOK 050830Z AUTO 36013KT 7000 -RA OVC004/// ///TCU 12/11 Q1017=
TAF LONG: LFOK 050500Z 0506/0606 36010KT 9999 OVC008 
   BECMG 0518/0521 VRB02KT 
   BECMG 0603/0606 17010KT 
   TEMPO 0506/0606 3000 DZRA OVC003=

LFQB TROYES-BARBEREY
METAR: LFQB 050830Z AUTO 34006KT 9999 RA OVC005/// ///TCU 12/11 Q1016=

LFSB BALE-MULHOUSE
METAR: LFSB 050900Z 15005KT 110V200 9000 FEW025 BKN250 16/13 Q1016 BECMG FEW025TCU=
TAF LONG: AMD LFSB 050548Z 0506/0606 20004KT 3000 BR FEW030 BKN200 
   PROB30 TEMPO 0506/0507 1200 BCFG 
   BECMG 0507/0509 9999 NSW FEW030TCU 
   TEMPO 0508/0521 5000 SHRA SCT030TCU FEW035CB 
   PROB40 TEMPO 0515/0518 VRB15G25KT 1500 TSRA BKN025 SCT035CB 
   PROB40 TEMPO 0521/0606 1500 -RA BR BKN005=

LFGJ DOLE-TAVAUX
METAR: LFGJ 050830Z AUTO 35006KT 9000 FEW005/// OVC032/// ///CB 15/14 Q1015=
TAF COURT: LFGJ 050800Z 0509/0518 36004KT 6000 BKN030TCU 
   TEMPO 0509/0518 2000 RA BR BKN005 BKN025CB 
   PROB40 TEMPO 0509/0516 VRB05G15KT 1200 +TSRA 
   BECMG 0515/0518 21008KT BKN008 OVC015=

LFJL METZ NANCY-LORRAINE
METAR: LFJL 050830Z AUTO VRB03KT 3100 BR OVC002/// ///TCU 12/11 Q1016=
TAF LONG: AMD LFJL 050835Z 0508/0606 VRB03KT 3000 BR BKN002 
   BECMG 0508/0510 8000 NSW BKN030 
   PROB40 TEMPO 0509/0521 5000 RA BKN008 SCT040TCU 
   BECMG 0521/0524 BKN008=

SIGMET - 05/10/2014

FIR LFMM MARSEILLE

SIGMET: LFMM SIGMET 4 VALID 050800/051000 LFPW- LFMM MARSEILLE FIR/UIR EMBD TS OBS WI N4030 E00430 - N4200 E00430 - N4300 E00600 - N4030 E00600 TOP FL340 MOV E 10KT NC=


Ensemble des cartes Temsi et Wintem de cette journée :

Gamet

Ensemble de Gamet pris sur quelques pays voisins, et le même jour, le 24/09/2014

Belgique

Le 24/09/2014

GAMET 
EBBU GAMET VALID 241800/250000 EBBR-
EBBU BRUSSELS FIR BLW FL100

SECN I
SFC VIS (<=5KM):        4000M RA
SIGWX:                  18/22 ISOL TS.
SIG CLD:                18/22 ISOL TCU/CB 2000/ABV10000FT AGL.
SIGMETS APPLICABLE:     1

SECN II
PSYS:                   18. L 1000 HPA OVER SCANDINAVIA WITH ASSOCIATED
                        COLD FRONT OVER NORTHSEA, LEAVING EBBU DURING
                        THE PERIOD. IT IS FOLLOWED BY A TROUGH 
                        TRIGGERING INSTABILITY FOR THE FIRST PART OF 
                        THE NIGHT.
                        
SFC WSPD (<=30KT):      08-10KT. COAST 12-14KT 
WIND/T:                 1000 FT 270/15-20KT +11C
                        2000 FT 280/15-20KT +09C
                        5000 FT 290/20-25KT +03C
                        10000 FT 270/25KT   -06C
SFC VIS (>5KM):         07-10KM
CLD:                    SCT-BKN CU SC 3000/6000FT AGL
                        BKN ST SC 1200/6000FT AGL
FZLVL:                  7000FT AGL
MNM QNH:                1011 HPA
OTLK:                   FM 00 TL 06 Z
                         
                        SIG CLD: 00/06   BKN ST 800/4000FT AGL IN 
                        SE EBBU.  =

Allemagne

Le 24/09/2014

GAMET 
EDGG GAMET VALID 241500/242100 EDZF-
LANGEN FIR BLW FL150

SECN I
SFC VIS : 4000 M TSRA BR
SIGWX   : ISOL TS NW PART
MT OBSC : ABV 1500-2000 FT AMSL NW PART
          ABV 3000 FT AMSL S PART
SIG CLD : ISOL TCU/CB 3000/XXX FT AGL NW PART
ICE     : MOD ABV FL070 NW PART
          MOD ABV FL090 SE PART
SIGMET APPLICABLE: AT TIME OF ISSUE NIL

SECN II
PSYS    : 18 L 1003 HPA SOUTHERN SCANDINAVIA MOV NE INTSF
          18 WAVING COLD FRONT DENMARK-GERMAN BIGHT-BELGIUM-NORTHERN
FRANCE MOV SE 15 KT NC
WIND/T  : 2000 FT AMSL 250/15KT PS13
          5000 FT AMSL 280/15KT PS05
          FL100        260/25KT MS03
CLD     : BKN/OVC SC/CU/AC 2000-3000/XXX FT AMSL NW PART
          SCT/BKN CU/SC/AS 1500-2500/XXX FT AMSL S PART
FZLVL   : FL070 NW PART
          FL090 SE PART
MNM QNH : 15/17 1009 HPA
          17/19 1009 HPA
          19/21 1009 HPA

CHECK GAFOR (VIS AND CLD BASE), AIRMET AND SIGMET-INFORMATION=

Suisse

Le 24/09/2014

GAMET 
LSAS GAMET VALID 241500/242100 LSZH-

WESTERN SWITZERLAND
SECN I
ICE: LCA MOD ABV FL085
TURB: LCA MOD 3000 FT AMSL/FL080
SECN II
W/T:  5000FT 250/25KT PS08   10000FT  250/25KT MS02
FZLVL: FL085
MNM QNH: 1014 HPA

EASTERN SWITZERLAND
SECN I
ICE: LCA MOD ABV FL085
TURB: LCA MOD 3000 FT AMSL/FL100
SECN II
W/T: 5000FT 270/30KT PS08   10000FT  250/25KT MS02
FZLVL: FL085
MNM QNH: 1013 HPA

WESTERN ALPINE SWITZERLAND
SECN I
ICE: LCA MOD ABV FL085
SECN II
W/T: 8000FT 260/15KT PS01   13000FT  260/15KT MS07
FZLVL: FL085

EASTERN ALPINE SWITZERLAND
SECN I
ICE: LCA MOD ABV FL085
SECN II
W/T: 8000FT 270/15KT PS01   13000FT 230/15KT MS07
FZLVL: FL090

SOUTHERN SWITZERLAND
SECN I
HAZARDOUS WX NIL
SECN II
W/T: 5000FT 180/05KT PS07   10000FT VRB/05KT MS01
FZLVL: FL090
MNM QNH: 1015 HPA  =

AIRMET

Les AIRMET qui vont avec ! Le 24/09/2014

AIRMET 
LSAS AIRMET 1 VALID 241400/241700 LSZH-
LSAS SWITZERLAND FIR MOD ICE FCST W PART OF SWITZERLAND
                 FL090/FL180 MOV E NC=

Airmet

ToDo

Snowtam

ToDo

Dossiers MTO

Dossier météo OPMET France basse couche

Extrait de Aéroweb. Comme il s'agit d'un dossier couvrant la France, des informations météo des pays limitrophes sont aussi donnés par le système. On obvient donc les TAF Metar Sigmet France, ainsi que _

Dossier : FRANCE BASSES COUCHES Date : Mardi 7 Octobre 2014 à 13H19 UTC.

LFBD BORDEAUX-MERIGNAC METAR: LFBD 071300Z AUTO 25017KT 9999 SCT038 SCT050 BKN062 21/12 Q1010= TAF LONG: LFBD 071100Z 0712/0818 22015KT 9999 BKN030 BKN060 TEMPO 0712/0714 22020G30KT BECMG 0714/0716 CAVOK TEMPO 0805/0818 -RA BKN040=

LFBL LIMOGES-BELLEGARDE METAR: LFBL 071300Z AUTO 21017G27KT 9999 BKN024/// BKN030/// OVC042/// ///CB 17/13 Q1009= TAF LONG: LFBL 071100Z 0712/0812 20010KT 9999 BKN016 TEMPO 0712/0717 23015G28KT PROB30 TEMPO 0714/0718 4000 SHRA BKN012 SCT026TCU TEMPO 0806/0812 32018G30KT 3000 -RA BKN005=

LFBO TOULOUSE-BLAGNAC METAR: LFBO 071300Z AUTO VRB02KT 9999 BKN038 23/14 Q1011= TAF LONG: LFBO 071100Z 0712/0818 VRB03KT 9999 SCT040 BECMG 0813/0815 CAVOK BECMG 0722/0724 15006KT 9999 FEW013 TEMPO 0800/0809 BKN012=

LFBT TARBES LOURDES PYRENEES METAR: LFBT 071300Z AUTO 05005KT 010V090 9999 BKN037 22/14 Q1011= TAF LONG: LFBT 071100Z 0712/0812 09005KT CAVOK TEMPO 0718/0803 12010KT=

LFBZ BIARRITZ-BAYONNE-ANGLET METAR: LFBZ 071300Z 35007KT 330V060 9999 FEW032 BKN066 BKN083 22/13 Q1010 NOSIG= TAF LONG: LFBZ 071100Z 0712/0812 VRB02KT 9999 FEW033 BKN065 BECMG 0718/0720 12010KT BECMG 0800/0803 18010G20KT PROB30 TEMPO 0806/0812 -SHRA BKN015=

LFLC CLERMONT-FERRAND-AUVERGNE CLERMONT CCER METAR: LFLC 071300Z 23017KT 200V260 9999 FEW050 SCT066 BKN260 20/10 Q1010 NOSIG= TAF LONG: LFLC 071100Z 0712/0812 23010KT 9999 SCT035 BKN100 BECMG 0718/0721 CAVOK TEMPO 0809/0812 18015G25KT=

LFLL LYON SAINT-EXUPERY METAR: LFLL 071300Z 20015G27KT 9999 VCSH FEW036TCU SCT073 BKN090 22/15 Q1010 NOSIG= TAF LONG: AMD LFLL 071206Z 0712/0818 18015KT CAVOK TEMPO 0712/0717 18018G30KT BECMG 0719/0721 20005KT PROB40 TEMPO 0712/0803 SHRA SCT010 SCT030TCU PROB30 TEMPO 0712/0721 4000 TSRA SCT025CB BECMG 0804/0806 18015KT TEMPO 0806/0817 18020G35KT=

LFLY LYON-BRON METAR: LFLY 071300Z AUTO 19017KT 9999 BKN032/// BKN043/// OVC054/// ///CB 21/15 Q1010= TAF LONG: AMD LFLY 071203Z 0712/0812 18015KT 9999 SCT045 SCT100 TEMPO 0712/0718 18020G33KT BECMG 0718/0720 20005KT TEMPO 0712/0804 -SHRA SCT010 SCT050TCU PROB40 TEMPO 0712/0723 4000 SHRA FEW045CB BECMG 0804/0806 18015KT TEMPO 0806/0812 18020G35KT=

LFKB BASTIA-PORETTA METAR: LFKB 071300Z 12010KT 9999 FEW026 SCT180 BKN230 23/18 Q1015 NOSIG= TAF LONG: LFKB 071100Z 0712/0812 14012G25KT 9999 FEW026 SCT180 BKN230 BECMG 0718/0720 22006KT TEMPO 0802/0808 BKN010 TX24/0712Z TN15/0803Z=

LFKJ AJACCIO-NAPOLEON-BONAPARTE METAR: LFKJ 071300Z 26012KT 9999 FEW046 BKN260 26/16 Q1015 NOSIG= TAF LONG: LFKJ 071100Z 0712/0812 27006KT 9999 FEW040 SCT090 BKN260 TEMPO 0712/0715 25010KT BECMG 0717/0719 04005KT NSC=

LFMK CARCASSONNE-SALVAZA METAR: LFMK 071300Z AUTO VRB03KT 9999 NSC 24/15 Q1010= TAF LONG: LFMK 071100Z 0712/0812 09010KT 9999 NSC BECMG 0719/0721 BKN030=

LFML MARSEILLE-PROVENCE METAR: LFML 071300Z 15028KT 9999 FEW026 SCT053 BKN250 25/18 Q1011 NOSIG= TAF LONG: LFML 071100Z 0712/0818 10015KT 9999 SCT040 BKN100 TEMPO 0712/0721 15017G27KT 4000 SHRA FEW013CB BKN015 BECMG 0809/0811 14020G30KT SCT100 TX25/0713Z TN18/0803Z=

LFMN NICE-COTE D'AZUR METAR: LFMN 071300Z 08010KT 9999 FEW033 BKN100 22/16 Q1014 NOSIG= TAF LONG: LFMN 071100Z 0712/0818 05010KT 9999 BKN030 TEMPO 0712/0812 SHRA SCT015 BKN030 BECMG 0812/0814 09010KT SCT030=

LFMP PERPIGNAN-RIVESALTES METAR: LFMP 071300Z 11004KT 070V170 9999 SCT026 BKN300 24/17 Q1010 NOSIG= TAF LONG: LFMP 071100Z 0712/0812 08005KT 9999 SCT016 BKN300 PROB40 TEMPO 0721/0805 OVC010=

LFMT MONTPELLIER-MEDITERRANNEE METAR: LFMT 071230Z 13010KT 9999 SCT033 BKN260 23/18 Q1010 NOSIG= TAF LONG: LFMT 071100Z 0712/0812 04010KT 9999 SCT015 SCT030 BKN100 BECMG 0712/0714 12010KT BECMG 0716/0718 04010KT BECMG 0719/0721 14015KT TEMPO 0718/0723 8000 SHRA BKN015TCU BKN100 BECMG 0721/0723 8000 RA=

LFOP ROUEN-VALLEE DE SEINE METAR: LFOP 071300Z AUTO 21016KT 9999 FEW027 BKN035 OVC044 14/09 Q1002= TAF LONG: LFOP 071100Z 0712/0812 23015KT 9999 SCT025 BKN040 TEMPO 0712/0717 22015G25KT 4000 SHRA BKN015TCU PROB30 TEMPO 0712/0714 23020G35KT 2000 TSRA BKN013CB BECMG 0719/0722 OVC007 TEMPO 0802/0812 16017G27KT 5000 RADZ OVC003=

LFOT TOURS VAL DE LOIRE METAR: LFOT 071300Z AUTO 22011KT 190V250 9999 SCT011/// SCT024/// BKN064/// ///TCU 16/13 Q1005= TAF COURT: LFOT 071100Z 0712/0721 20012KT 9999 SCT025 BKN040 TEMPO 0712/0721 24017G33KT 4000 SHRA BKN010 BKN025TCU=

LFPB PARIS-LE BOURGET METAR: LFPB 071300Z AUTO 25012KT 9999 FEW037 BKN068 OVC078 15/08 Q1004= TAF LONG: LFPB 071100Z 0712/0812 22012KT 9999 FEW015 BKN060 TEMPO 0712/0716 22015G25KT 5000 SHRA SCT015TCU PROB40 TEMPO 0714/0716 22020G35KT 2500 SHRA BKN015TCU BECMG 0722/0724 16005KT BKN010 TEMPO 0802/0810 4000 -RA BKN005 PROB40 TEMPO 0806/0810 2500 RA BKN004 BECMG 0810/0812 20015G25KT BKN014=

LFPN TOUSSUS-LE-NOBLE METAR: LFPN 071300Z AUTO 23010KT 9999 FEW032 BKN066 OVC090 14/09 Q1004= TAF COURT: LFPN 071100Z 0712/0721 23015G25KT 9999 SCT030 SCT050 TEMPO 0712/0718 23020G30KT 2000 SHRA SCT008 SCT020CB BKN035=

LFPG PARIS-CHARLES DE GAULLE METAR: LFPG 071300Z 24013G24KT 200V260 9999 FEW031 BKN063 15/08 Q1004 NOSIG= TAF LONG: AMD LFPG 071203Z 0712/0818 22012KT 9999 FEW015 BKN060 TEMPO 0712/0716 22015G25KT 5000 SHRA SCT015TCU PROB40 TEMPO 0714/0716 22020G35KT 2500 SHRA BKN015TCU BECMG 0722/0724 16005KT BKN010 TEMPO 0802/0810 4000 -RA BKN005 PROB40 TEMPO 0806/0810 2500 RA BKN004 BECMG 0812/0814 20015G25KT BKN016 PROB30 TEMPO 0814/0817 -SHRA SCT015TCU TX17/0714Z TN11/0800Z=

LFPO PARIS-ORLY METAR: LFPO 071300Z 24010KT 200V260 9999 -RA FEW031 FEW036TCU SCT055 BKN073 14/10 Q1004 NOSIG= TAF LONG: LFPO 071100Z 0712/0818 23015G25KT 9999 SCT030 SCT050 TEMPO 0712/0718 23020G30KT 2000 SHRA SCT008 SCT020CB BKN035 BECMG 0721/0724 16005KT SCT008 BKN100 TEMPO 0800/0806 6000 -DZ BKN008 BECMG 0806/0809 4000 RA BKN010 BKN040 BECMG 0812/0814 20015G25KT SCT025 SCT050 TEMPO 0814/0818 6000 -SHRA BKN030=

LFQQ LILLE-LESQUIN METAR: LFQQ 071300Z 22016KT 9999 SCT035 BKN150 14/08 Q1001 NOSIG= TAF LONG: LFQQ 071100Z 0712/0818 22015KT 9999 SCT025 BKN040 TEMPO 0712/0719 4000 SHRA BKN015TCU PROB30 TEMPO 0712/0718 22020G40KT 2000 TSRA BKN013CB BECMG 0720/0723 16010KT OVC007 TEMPO 0805/0812 16017G27KT 5000 RADZ OVC003 BECMG 0812/0814 16015G25KT BKN020 PROB30 TEMPO 0814/0818 4000 SHRA BKN015TCU=

LFRB BREST-BRETAGNE METAR: COR LFRB 071300Z 25013KT 230V300 9999 SCT027 15/08 Q1002 NOSIG= TAF LONG: LFRB 071100Z 0712/0818 27012KT 9999 SCT030 SCT060 TEMPO 0712/0815 5000 SHRA SCT015TCU BKN022 BECMG 0806/0809 20020G35KT=

LFRK CAEN-CARPIQUET METAR: LFRK 071300Z AUTO 24016KT 9999 ///CB 15/08 Q1002= TAF COURT: LFRK 071100Z 0712/0721 22013KT 9999 BKN030 TEMPO 0712/0717 23015G28KT 4000 SHRA BKN025TCU PROB30 TEMPO 0712/0715 3000 TSRA BKN020CB=

LFRS NANTES ATLANTIQUE METAR: LFRS 071300Z 23014KT 9999 SCT026 BKN082 17/10 Q1005 NOSIG= TAF LONG: LFRS 071100Z 0712/0818 24012KT 9999 SCT025 SCT040 TEMPO 0712/0716 24015G25KT 4000 SHRA BKN020TCU BECMG 0801/0803 18010G20KT 5000 -RA BKN012 BECMG 0809/0811 22020G35KT 9999 NSW BKN018 TEMPO 0811/0818 4000 SHRA SCT020TCU=

LFSB BALE-MULHOUSE METAR: LFSB 071300Z 10003KT 050V140 9999 FEW015 BKN043 14/13 Q1010 NOSIG= TAF LONG: LFSB 071100Z 0712/0812 26010KT 9999 FEW020 BKN040 PROB40 TEMPO 0712/0718 4000 SHRA FEW015 BKN030TCU TEMPO 0718/0809 5000 -RA=

LFSD DIJON-LONGVIC METAR: LFSD 071300Z AUTO 20009KT 9999 NSC 15/14 Q1009= TAF LONG: LFSD 071100Z 0712/0812 20013KT 9999 SCT015 SCT100 TEMPO 0712/0718 FEW025TCU BECMG 0722/0724 18003KT PROB40 TEMPO 0803/0809 0500 FG VV/// BECMG 0810/0812 FEW040TCU=

LFST STRASBOURG-ENTZHEIM METAR: LFST 071300Z AUTO 18009KT 160V220 9999 FEW022 OVC100 16/13 Q1009= TAF LONG: LFST 071100Z 0712/0812 19010KT 9999 FEW025 SCT050 BKN060 TEMPO 0712/0724 5000 -RA FEW020 SCT025TCU BKN050 TEMPO 0806/0812 -RA BKN025=

EGJJ JERSEY METAR: EGJJ 071250Z 25020KT 9999 FEW020CB 15/08 Q1001 NOSIG= TAF COURT: EGJJ 071053Z 0712/0721 22018G30KT 9999 SCT025 TEMPO 0712/0714 7000 SHRA BKN012CB PROB30 TEMPO 0712/0714 5000 TSRAGS=

LSGG GENEVE METAR: LSGG 071250Z 21010KT 170V260 9999 FEW030 BKN100 20/13 Q1011 NOSIG= TAF LONG: LSGG 071125Z 0712/0818 23010KT 9999 FEW030 SCT050 BKN100 TX19/0714Z TN13/0805Z TX21/0814Z TEMPO 0715/0806 6000 RA SCT020 BKN040 PROB40 TEMPO 0718/0803 2000 +TSRA SCT020CB BKN030 BECMG 0720/0722 VRB03KT PROB40 0803/0808 0800 FG VV003 BECMG 0808/0810 FEW030 BKN200 BECMG 0811/0813 23010KT=

Sigmets

== FIR LFMM MARSEILLE SIGMET: LFMM SIGMET 6 VALID 071200/071400 LFPW- LFMM MARSEILLE FIR/UIR EMBD TS OBS AT 1200Z WI N4215 E00700 - N4230 E00630 - N4330 E00745 - N4300 E00830 TOP FL390 STNR NC=

FIR LFFF PARIS SIGMET: LFFF SIGMET 9 VALID 071250/071500 LFPW- LFFF PARIS FIR/UIR SEV ICE OBS AT 1250Z WI N5030 E00345 - N5000 E00500 - N4745 E00115 - N4915 E00045 FL080/220 MOV NE 30KT NC=

SIGMET: LFFF SIGMET 8 VALID 071245/071400 LFPW- LFFF PARIS FIR/UIR CNL SIGMET 7 071220/071400=

SIGMET: LFFF SIGMET 7 VALID 071220/071400 LFPW- LFFF PARIS FIR/UIR SEV ICE OBS AT 1220Z WI N5015 E00330 - N4945 E00430 - N4730 E00030 - N4900 E00030 FL080/180 MOV NE 30KT NC=

SIGMET: LFFF SIGMET 6 VALID 071200/071400 LFPW- LFFF PARIS FIR/UIR SEV TURB FCST NW OF LINE N4900 W00015 - N5030 E00330 FL190/300 MOV NE 40KT WKN=

Airmet sur la Suisse

FIR LSAS SWITZERLAND AIRMET: LSAS AIRMET 9 VALID 071300/071700 LSZH- LSAS SWITZERLAND FIR MOD TURB FCST W PART OF SWITZERLAND 3000FT/FL080 STNR NC=

AIRMET: LSAS AIRMET 8 VALID 071200/071400 LSZH- LSAS SWITZERLAND FIR MOD TURB FCST ALPS SFC/FL140 STNR NC=

Gamet sur la Suisse

Observez le chevauchement des périodes de validité.

LSAS GAMET VALID 071200/071800 LSZH-

WESTERN SWITZERLAND 

SECN I 
SIGWX: 16/18 ISOL TS SIG 
CLD: ISOL TCU 
ICE: LCA MOD ABV FL100 
TURB: MOD SFC/FL080 

SECN II 
W/T: 5000FT 220/40KT PS11 10000FT 240/45KT PS00 
FZLVL: FL100 MNM 
QNH: 1010 HPA 

EASTERN SWITZERLAND 

SECN I 
ICE: LCA MOD ABV FL100 
TURB: LCA MOD SFC/FL080 

SECN II 
W/T: 5000FT 230/30KT PS12 10000FT 240/45KT PS00 
FZLVL: FL100 MNM 
QNH: 1010 HPA 

WESTERN ALPINE SWITZERLAND 

SECN I 

SIG CLD: 14/18 ISOL TCU 
ICE: LCA MOD ABV FL100 
TURB: LCA MOD SFC/FL140 

SECN II 

W/T: 8000FT 200/20KT PS03 13000FT 240/35KT MS05 
FZLVL: FL105 

EASTERN ALPINE SWITZERLAND 

SECN I 

SFC GUSTS: 30KT 
TURB: LCA MOD SFC/FL140 
MTW: LCA MOD FL100/FL140 

SECN II 

W/T: 8000FT 190/20KT PS05 13000FT 240/35KT MS04 
FZLVL: FL100 

SOUTHERN SWITZERLAND 

SECN I 

ICE: LCA MOD ABV FL090 

SECN II 

W/T: 5000FT 160/05KT PS07 10000FT 200/25KT PS00 
FZLVL: FL100 MNM 
QNH: 1017 HPA=


LSAS GAMET VALID 070900/071500 LSZH-

WESTERN SWITZERLAND 

SECN I 

SIG CLD: 14/15 ISOL TCU 
ICE: LCA MOD ABV FL100 
TURB: MOD SFC/FL080 

SECN II 

W/T: 5000FT 220/45KT PS10 10000FT 240/50KT PS00 
FZLVL: FL100 MNM 
QNH: 1010 HPA 

EASTERN SWITZERLAND 

SECN I 

ICE: LCA MOD ABV FL100 
TURB: LCA MOD SFC/FL080 

SECN II 

W/T: 5000FT 230/20KT PS11 10000FT 240/40KT PS00 
FZLVL: FL100 MNM 
QNH: 1009 HPA 

WESTERN ALPINE SWITZERLAND 

SECN I 

SIG CLD: 14/15 ISOL TCU 
ICE: LCA MOD ABV FL100 
TURB: LCA MOD SFC/FL140 SECN II 
W/T: 8000FT 200/20KT PS03 13000FT 250/35KT MS07 
FZLVL: FL105 

EASTERN ALPINE SWITZERLAND 

SECN I 

SFC GUSTS: 30KT 
TURB: LCA MOD SFC/FL140 
MTW: LCA MOD FL100/FL140 

SECN II 

W/T: 8000FT 190/20KT PS04 13000FT 250/30KT MS05 
FZLVL: FL100 

SOUTHERN SWITZERLAND 

SECN I 

ICE: LCA MOD ABV FL090 

SECN II 

W/T: 5000FT 170/10KT PS07 10000FT 220/25KT MS02 
FZLVL: FL090 MNM 
QNH: 1017 HPA=

Dossier météo OPMET Europe du sud

Pas mal d'exemples d'Opmet différents. Cette fois ci, je ne les ai pas mis en forme...

Dossier : EUROPE DU SUD Date : Mardi 7 Octobre 2014 à 13H50 UTC.

LFPG PARIS-CHARLES DE GAULLE METAR: LFPG 071330Z 21013KT 9999 -RA FEW031 BKN067 BKN076 15/08 Q1004 NOSIG= TAF LONG: AMD LFPG 071203Z 0712/0818 22012KT 9999 FEW015 BKN060 TEMPO 0712/0716 22015G25KT 5000 SHRA SCT015TCU PROB40 TEMPO 0714/0716 22020G35KT 2500 SHRA BKN015TCU BECMG 0722/0724 16005KT BKN010 TEMPO 0802/0810 4000 -RA BKN005 PROB40 TEMPO 0806/0810 2500 RA BKN004 BECMG 0812/0814 20015G25KT BKN016 PROB30 TEMPO 0814/0817 -SHRA SCT015TCU TX17/0714Z TN11/0800Z=

LFPO PARIS-ORLY METAR: LFPO 071330Z 23010KT 180V250 9999 -RA FEW033 BKN063 14/10 Q1004 NOSIG= TAF LONG: LFPO 071100Z 0712/0818 23015G25KT 9999 SCT030 SCT050 TEMPO 0712/0718 23020G30KT 2000 SHRA SCT008 SCT020CB BKN035 BECMG 0721/0724 16005KT SCT008 BKN100 TEMPO 0800/0806 6000 -DZ BKN008 BECMG 0806/0809 4000 RA BKN010 BKN040 BECMG 0812/0814 20015G25KT SCT025 SCT050 TEMPO 0814/0818 6000 -SHRA BKN030=

LFQQ LILLE-LESQUIN METAR: LFQQ 071330Z 22015KT 9999 FEW038 SCT056 15/08 Q1001 NOSIG= TAF LONG: LFQQ 071100Z 0712/0818 22015KT 9999 SCT025 BKN040 TEMPO 0712/0719 4000 SHRA BKN015TCU PROB30 TEMPO 0712/0718 22020G40KT 2000 TSRA BKN013CB BECMG 0720/0723 16010KT OVC007 TEMPO 0805/0812 16017G27KT 5000 RADZ OVC003 BECMG 0812/0814 16015G25KT BKN020 PROB30 TEMPO 0814/0818 4000 SHRA BKN015TCU=

LFMN NICE-COTE D'AZUR METAR: LFMN 071330Z 09015KT 9999 FEW030 BKN100 BKN210 22/16 Q1014 NOSIG= TAF LONG: LFMN 071100Z 0712/0818 05010KT 9999 BKN030 TEMPO 0712/0812 SHRA SCT015 BKN030 BECMG 0812/0814 09010KT SCT030=

LFML MARSEILLE-PROVENCE METAR: LFML 071330Z 13017KT 9999 FEW026 SCT050 BKN250 25/18 Q1011 NOSIG= TAF LONG: LFML 071100Z 0712/0818 10015KT 9999 SCT040 BKN100 TEMPO 0712/0721 15017G27KT 4000 SHRA FEW013CB BKN015 BECMG 0809/0811 14020G30KT SCT100 TX25/0713Z TN18/0803Z=

LFLY LYON-BRON METAR: LFLY 071330Z AUTO 19016KT 9999 FEW030 SCT050 BKN064 21/16 Q1010= TAF LONG: AMD LFLY 071203Z 0712/0812 18015KT 9999 SCT045 SCT100 TEMPO 0712/0718 18020G33KT BECMG 0718/0720 20005KT TEMPO 0712/0804 -SHRA SCT010 SCT050TCU PROB40 TEMPO 0712/0723 4000 SHRA FEW045CB BECMG 0804/0806 18015KT TEMPO 0806/0812 18020G35KT=

LFLL LYON SAINT-EXUPERY METAR: LFLL 071330Z 20015KT 9999 FEW030 FEW040TCU SCT070 BKN090 22/15 Q1010 NOSIG= TAF LONG: AMD LFLL 071206Z 0712/0818 18015KT CAVOK TEMPO 0712/0717 18018G30KT BECMG 0719/0721 20005KT PROB40 TEMPO 0712/0803 SHRA SCT010 SCT030TCU PROB30 TEMPO 0712/0721 4000 TSRA SCT025CB BECMG 0804/0806 18015KT TEMPO 0806/0817 18020G35KT=

LFBO TOULOUSE-BLAGNAC METAR: LFBO 071330Z AUTO 36005KT 320V050 9999 FEW034 BKN045 23/14 Q1011= TAF LONG: LFBO 071100Z 0712/0818 VRB03KT 9999 SCT040 BECMG 0813/0815 CAVOK BECMG 0722/0724 15006KT 9999 FEW013 TEMPO 0800/0809 BKN012=

LFBD BORDEAUX-MERIGNAC METAR: LFBD 071330Z AUTO 25013KT 9999 FEW035 BKN060 BKN072 21/14 Q1010= TAF LONG: LFBD 071100Z 0712/0818 22015KT 9999 BKN030 BKN060 TEMPO 0712/0714 22020G30KT BECMG 0714/0716 CAVOK TEMPO 0805/0818 -RA BKN040=

EINN SHANNON METAR: EINN 071330Z 21009KT 9999 SCT026 SCT100 14/03 Q0994 NOSIG= TAF LONG: EINN 071100Z 0712/0812 18010KT 9999 FEW020 TEMPO 0712/0718 SHRA SCT017CB BECMG 0716/0719 14015KT TEMPO 0720/0724 14016G27KT TEMPO 0720/0812 5000 SHRA BKN010 BKN018CB=

EGLL LONDON HEATHROW METAR: COR EGLL 071320Z 24015KT 9999 FEW043 15/05 Q0997 NOSIG= TAF LONG: EGLL 071057Z 0712/0818 23010KT 9999 SCT025 PROB30 TEMPO 0712/0717 25015G25KT 8000 SHRA BECMG 0723/0802 13010KT PROB40 TEMPO 0802/0816 7000 SHRA BKN010 BECMG 0809/0812 20010KT TEMPO 0810/0816 21015G25KT=

EDDF FRANKFURT/MAIN METAR: EDDF 071320Z 20012KT 9999 FEW015 SCT026 BKN110 17/13 Q1007 NOSIG= TAF LONG: EDDF 071100Z 0712/0818 19008KT 9999 SCT030 TEMPO 0712/0716 18015G25KT SHRA BKN025TCU BECMG 0801/0803 13004KT BECMG 0811/0813 19006KT TEMPO 0812/0818 4000 RA BKN009=

EBBR BRUSSELS/BRUSSELS-NATIONAL METAR: EBBR 071320Z 23013KT 210V280 9999 SCT025 14/08 Q1001 TEMPO 4000 SHRA= TAF LONG: EBBR 071110Z 0712/0818 23015KT 9999 SCT020 BKN035 TEMPO 0712/0717 23020G30KT 4000 SHRA PROB30 TEMPO 0712/0716 VRB25G35KT 2500 TSRA BECMG 0807/0809 17010G20KT TEMPO 0809/0812 4000 RA BKN007=

LIRN NAPOLI/CAPODICHINO METAR: LIRN 071320Z 19009KT 150V220 9999 FEW030TCU SCT045 24/17 Q1018= TAF LONG: LIRN 071100Z 0712/0812 22010KT 9999 SCT040 BECMG 0716/0718 VRB05KT=

LIML MILANO/LINATE METAR: LIML 071320Z 06004KT 030V090 1500 RA BR BKN004 BKN030 15/15 Q1018 NOSIG= TAF LONG: LIML 071100Z 0712/0812 VRB05KT 3000 BR SCT020 BKN040 TEMPO 0718/0724 RA=

LMML LUQA AIRPORT METAR: LMML 071315Z 02008KT 9999 SCT025 26/18 Q1018 NOSIG= TAF LONG: LMML 071100Z 0712/0812 35010KT 9999 FEW015 BECMG 0717/0720 VRB05KT PROB30 TEMPO 0720/0806 9000 BKN012=

LBSF SOFIA METAR: LBSF 071330Z 09004MPS 8000 FEW023 SCT033 BKN070 16/13 Q1021 NOSIG= TAF LONG: LBSF 071032Z 0712/0812 11006MPS 9999 SCT020 BKN030 TEMPO 0712/0718 5000 RA SCT010 OVC030 BECMG 0722/0724 VRB02MPS 6000 OVC015 TEMPO 0800/0806 3000 BR SCT005 BECMG 0807/0809 06005MPS 9999 SCT025 BKN040=

LRBS BUCURESTI/BANEASA-AUREL VLAICU METAR: LRBS 071330Z 04012KT 010V080 1500 -RADZ BR BKN004 13/12 Q1024 R07/29//95 NOSIG= TAF LONG: LRBS 071100Z 0712/0812 05014KT 3000 -RADZ BR BKN005 OVC015 TEMPO 0712/0718 1500 -RADZ BR BECMG 0721/0723 5000 -RA BR BKN015 OVC035 BECMG 0806/0808 9999 NSW BKN030=

LCLK LARNAKA/INTL METAR: LCLK 071330Z 19008KT 170V230 9999 FEW030 28/18 Q1016 NOSIG= TAF LONG: LCLK 071130Z 0712/0812 19011KT 9999 FEW030 BECMG 0717/0720 32006KT BECMG 0810/0812 19011KT=

LROP BUCURESTI/HENRI COANDA METAR: LROP 071330Z 05013KT 2000 -RADZ BR FEW003 BKN005 OVC007 12/12 Q1024 R88/29//95 NOSIG= TAF LONG: LROP 071100Z 0712/0812 05014KT 3000 -RADZ BR BKN005 OVC015 TEMPO 0712/0718 1500 -RADZ BR BECMG 0721/0723 5000 -RA BR BKN015 OVC035 BECMG 0806/0808 9999 NSW BKN030=

LCPH PAFOS/INTL METAR: LCPH 071330Z 27009KT 9999 FEW030 27/20 Q1017= TAF LONG: LCPH 071130Z 0712/0812 28011KT 9999 FEW030 BECMG 0717/0720 02006KT BECMG 0809/0812 27010KT=

LTBA ISTANBUL/ATATURK METAR: LTBA 071320Z 23004KT CAVOK 23/12 Q1021 NOSIG= TAF LONG: LTBA 071040Z 0712/0818 VRB02KT CAVOK BECMG 0714/0718 02012KT FEW040 BKN100 PROB40 0801/0805 4000 BR=

LTBJ IZMIR/ADNAN MENDERES METAR: LTBJ 071320Z 01010KT 9999 SCT030 28/13 Q1018 NOSIG= TAF LONG: LTBJ 071040Z 0712/0812 35009KT 9999 FEW030 BECMG 0715/0718 CAVOK BECMG 0803/0806 FEW030 BKN100=

LLBG TEL-AVIV/BEN GURION AIRPORT METAR: LLBG 071320Z 33010KT CAVOK 30/19 Q1014 NOSIG RMK FEW140= TAF LONG: LLBG 071106Z 0712/0812 32010KT CAVOK BECMG 0715/0717 01005KT BECMG 0719/0721 09004KT BECMG 0807/0809 33010KT TX29/0712Z TN19/0803Z=

LGEL ELEFSIS (MIL) METAR: COR LGEL 071320Z 32007KT 9999 -TSRA FEW020CB FEW025TCU BKN030 OVC070 20/15 Q1020 RMK CB SW 12KM= TAF LONG: LGEL 071100Z 0712/0812 VRB05KT 9999 SCT025 SCT070 PROB30 TEMPO 0712/0718 5000 RA BKN025 BKN070 TEMPO 0712/0718 3000 TSRA FEW018CB BKN025 BKN070 BECMG 0804/0806 36008KT=

LGIR IRAKLION/NIKOS KAZANTZAKIS METAR: LGIR 071320Z 08006KT 9999 FEW025 SCT180 26/20 Q1018 NOSIG= TAF LONG: LGIR 071100Z 0712/0812 VRB03KT 9999 FEW025 PROB30 TEMPO 0712/0718 5000 RA SCT025 BKN080=

LGTS THESSALONIKI/MAKEDONIA METAR: LGTS 071320Z 33004KT 9999 FEW010 SCT025 BKN080 21/16 Q1019 NOSIG= TAF LONG: LGTS 071100Z 0712/0812 11008KT 7000 FEW010 BKN030 TEMPO 0712/0812 3000 RA SCT008 BKN025 PROB40 TEMPO 0713/0806 2000 TSRA SCT006 FEW018CB BKN025 BECMG 0718/0720 34010KT 9999=

Pas de METAR, TAF, SPECI pour : LIMR LTBL LTBW LGAT LGRD

FIR LFFF PARIS SIGMET: LFFF SIGMET 9 VALID 071250/071500 LFPW- LFFF PARIS FIR/UIR SEV ICE OBS AT 1250Z WI N5030 E00345 - N5000 E00500 - N4745 E00115 - N4915 E00045 FL080/220 MOV NE 30KT NC=

SIGMET: LFFF SIGMET 8 VALID 071245/071400 LFPW- LFFF PARIS FIR/UIR CNL SIGMET 7 071220/071400=

SIGMET: LFFF SIGMET 7 VALID 071220/071400 LFPW- LFFF PARIS FIR/UIR SEV ICE OBS AT 1220Z WI N5015 E00330 - N4945 E00430 - N4730 E00030 - N4900 E00030 FL080/180 MOV NE 30KT NC=

SIGMET: LFFF SIGMET 6 VALID 071200/071400 LFPW- LFFF PARIS FIR/UIR SEV TURB FCST NW OF LINE N4900 W00015 - N5030 E00330 FL190/300 MOV NE 40KT WKN=

FIR LFMM MARSEILLE SIGMET: LFMM SIGMET 6 VALID 071200/071400 LFPW- LFMM MARSEILLE FIR/UIR EMBD TS OBS AT 1200Z WI N4215 E00700 - N4230 E00630 - N4330 E00745 - N4300 E00830 TOP FL390 STNR NC=

FIR EISN SHANNON SIGMET: EISN SIGMET 01 VALID 071257/071500 EINN- EISN SHANNON FIR/UIR FRQ TS FCST W OF W01030 TOP FL300 MOV NE AT 25KT NC=

FIR EGTT LONDON SIGMET: EGTT SIGMET 05 VALID 071330/071630 EGRR- EGTT LONDON FIR EMBD TS FCST SE OF LINE N5000 W00200 - N5100 W00200 - N5100 E00130 TOP FL230 MOV NE 30KT WKN=

SIGMET: EGTT SIGMET 04 VALID 071000/071400 EGRR- EGTT LONDON FIR EMBD TS FCST SW OF LINE N5220 W00530 - N4945 W00315 TOP FL230 MOV NE 25KT NC=

FIR EDGG LANGEN GAMET: EDGG GAMET VALID 070900/071500 EDZF- LANGEN FIR BLW FL150 SECN I SFC VIS : 09/12 3500 M RA E-PART SIGWX : ISOL TS MT OBSC : 09/12 ABV 2000 FT AMSL E-PART ABV 2500 FT AMSL SIG CLD : 09/12 BKN 800/XXX FT AGL NE-PART ISOL TCU/CB 1500/XXX FT AGL ICE : MOD FL080/XXX TURB : MOD SFC/FL060 SIGMET APPLICABLE: AT TIME OF ISSUE NIL SECN II PSYS : 12 L 988 HPA NORTH SEA MOV E NC 12 OCCLUSION LINE EDHL-EDDE-LFSB MOV NE WKN WIND/T : 2000 FT AMSL 210/30KT PS14 5000 FT AMSL 240/35KT PS07 FL100 230/65KT MS02 CLD : 09/12 BKN SC/AC/CI 3500/XXX FT AMSL SCT/BKN CU/SC/AC 4000/XXX FT AMSL FZLVL : FL080 N-PART FL100 S-PART MNM QNH : 09/11 1000 HPA 11/13 1000 HPA 13/15 1001 HPA CHECK GAFOR (VIS AND CLD BASE), AIRMET AND SIGMET-INFORMATION=

FIR EBBU BRUXELLES SIGMET: COR EBBU SIGMET 2 VALID 071200/071600 EBBR- EBBU BRUSSELS FIR SEV TURB FCST W OF LINE N5079 E00315 - N5122 E00380 FL230/370 MOV NE 30KT NC=

SIGMET: COR EBBU SIGMET 2 VALID 071200/071600 EBBR- EBBU BRUSSELS FIR SEV TURB FCST W OF LINE N5079 E00315 - N5120 E00395 FL230/370 MOV NE 30KT NC=

SIGMET: COR EBBU SIGMET 2 VALID 071200/071600 EBBR- EBBU BRUSSELS FIR SEV TURB FCST W OF LINE N5079 E00315 - N5120 E00395 FL230/370 MOV NE 30KT NC=

SIGMET: COR EBBU SIGMET 2 VALID 071200/071600 EBBR- EBBU BRUSSELS FIR SEV TURB FCST N OF LINE N5079 E00315 - N5120 E00390 FL230/370 MOV NE 30KT NC=

SIGMET: EBBU SIGMET 2 VALID 071200/071600 EBBR- EBBU BRUSSELS FIR SEV TURB FCST W OF LINE N5079 E00315 - N5120 E00390 FL230/370 MOV NE 30KT NC=

GAMET: EBBU GAMET VALID 071200/071800 EBBR- EBBU BRUSSELS FIR BLW FL100 SECN I SFC VIS (?=5KM): 4000 M RA SIGWX: ISOL TS SIG CLD: OCNL CB 1500/ABV10000FT AGL TURB: MOD SFC/FL050 SECN II PSYS: 12 H 1040 HPA OVER NW OF RUSSIA. L 972 HPA W OF IRELAND. IN BETWEEN, ADVECTION OF UNSTABLE MARITIME AIR IN A RATHER STRONG SW'LY FLOW. SFC WSPD (?=30KT): 12/16 10-15 KT, 18-28 KT IN COASTAL AREA 16/18 07-11 KT, 15-25 KT IN COASTAL AREA WIND/T: 1000 FT 230/25 KT PS14 2000 FT 230/30 KT PS11 5000 FT 12/16 240/40 KT PS04 16/18 240/30 KT PS04 10000 FT 240/50 KT MS06 SFC VIS (?5KM): 10 KM 6-8 KM RA CLD: SCT TO BKN CU SC AC 2500/ABV10000FT AGL FZLVL: 6500FT AGL MNM QNH: 998 HPA OTLK: FM 18 TL 24 Z SIG CLD: 18/19 ISOL CB 1500/ABV10000FT AGL SFC VIS: 18/19 4000 M RA TURB: 18/21 MOD SFC/040=

FIR LIRR ROMA AIRMET: LIRR AIRMET 04 VALID 071145/071445 LIMM- LIRR ROMA FIR ISOL TS OBS/FCST CENTRAL/S TYRRHENIAN AND IONIAN AREA CB TOP FL370 STNR NC.=

FIR LIMM MILANO SIGMET: LIMM SIGMET 04 VALID 071145/071445 LIMM- LIMM MILANO FIR EMBD TS OBS LIGURIAN SEA CB TOP FL330 MOV ENE NC=

AIRMET: LIMM AIRMET 04 VALID 071245/071445 LIMM- LIMM MILANO FIR MT OBSC OBS ALPS AND APPENNINIAN AREAS MAINLY CENTRAL/W PART STNR NC. LIMM MILANO FIR ISOL TS OBS LIGURIAN SEA CB TOP FL330 MOV NE NC. LIMM MILANO FIR SFC VIS 1500/4000 M RA BR OBS CENTRAL/W PO VALLEY AND LIGURIAN AREA STNR NC.=

FIR LMMM MALTA SIGMET: LMMM SIGMET 3 VALID 071026/071426 LMML- MALTA FIR EMBD TS OBS AND FCST E OF E017 TOP FL370 MOV N TO NE NC=

FIR LBSR SOFIA GAMET: LBSR GAMET VALID 071200/071800 LBSR- LBSR SOFIA FIR/1 BLW FL150 SECN I SFC VIS: 3000M RA W OF E024 MT OBSC: GLOBALLY SIG CLD: 12/15 ISOL TCU 4000/18000 FT AGL S OF N42 ICE: MOD ICE FL110/150 SECN II PSYS: 12 H1023 SFC WIND: 5MPS AND 10MPS E OF E027 WIND/T: 2000 FT NIL MPS NIL 5000 FT 250/03 MPS PS10 10000 FT 250/07 MPS PS00 CLD: SCT/BKN SC/CU/AS 2000/28000 FT AGL FZLVL: 9000 FT AMSL MNM QNH: 1018 HPA VA: NIL=

FIR LTBB ISTANBUL SIGMET: LTBB SIGMET 1 VALID 071146/071546 LTBA- LTBB ISTANBUL FIR OBSC TS OBS AT 1128Z LTBJ MOV NE INTSF=

AIRMET: LTBB AIRMET 3 VALID 071150/071550 LTBA- LTBB ISTANBUL FIR OCNL TS FCST NORTH AEGEAN AND SOUTH MARMARA REGION=

FIR LGGG ATHINAI SIGMET: LGGG SIGMET 4 VALID 071045/071445 LGAT- LGGG ATHINAI FIR/UIR FRQ TS OBS W OF E02400 AND S OF N4000 MOV ENE NC=

GAMET: LGGG GAMET 071200/071800 LGAT- ATHINAI FIR/1 BLW FL150 SECN I SFC WSPD : HAZARDOUS WX NIL SFC VIS : LOC 2000-5000M RA OR TSRA SIGWX : ISOL TS MT OBSC : LOC MT PASSES SIG CLD(AGL): ISOL/EMBD CB 1600-35000FT, ISOL/EMBD TCU 1800-20000FT, MTW : HAZARDOUS WX NIL TURB : LOC MOD ABV 3000FT ICE : LOC MOD ABV 1500FT SIGMET APPLICABLE: 4 SECN II PSYS : WIND/T(MSL) : 2000FT 12/16: 17020KT PS18 16/18: CYCLONIC10KT PS18, 5000FT 12/16: 20030KT PS14 16/18: CYCLONIC15KT PS13, 10000FT 23035KT PS01, CLD (AGL) : BKN/OVC ACAS 7000-14000FT, BKN LOC OVC CUSC 2000-7000FT LOC SCT ST 0200-1500FT FZLVL : 10500FT MNM QNH : 1019HPA VA : NIL=

GAMET: LGGG GAMET 071200/071800 LGAT- ATHINAI FIR/2 BLW FL150 SECN I SFC WSPD : HAZARDOUS WX NIL SFC VIS : LOC 1000-5000M RA OR TSRA SIGWX : ISOL TS MT OBSC : LOC MT PASSES SIG CLD(AGL): OCNL/EMBD CB 1600-35000FT, ISOL/EMBD TCU 1800-20000FT, MTW : HAZARDOUS WX NIL TURB : HAZARDOUS WX NIL ICE : LOC MOD ABV 12000FT SIGMET APPLICABLE: 4 SECN II PSYS : WIND/T(MSL) : 2000FT 12/16: 20020KT PS23 16/18: 20010KT PS20, 5000FT 12/16: 18025KT PS15 16/18: 18015KT PS15, 10000FT 24020 PS02 CLD (AGL) : BKN/OVC ACAS 7000-14000FT, BKN LOC OVC CUSC 2000-7000FT LOC SCT ST 0200-1500FT FZLVL : 11000FT MNM QNH : 1020HPA VA : NIL=

GAMET: LGGG GAMET 070600/071200 LGAT- ATHINAI FIR/1 BLW FL150 SECN I SFC WSPD : HAZARDOUS WX NIL SFC VIS : LOC 1000-5000M RA OR TSRA SIGWX : ISOL TS MT OBSC : LOC MT PASSES SIG CLD(AGL): OCNL/EMBD CB 1600-35000FT, ISOL/EMBD TCU 1800-20000FT, MTW : HAZARDOUS WX NIL TURB : LOC MOD ABV 2000FT ICE : LOC MOD ABV 11500FT SIGMET APPLICABLE: 1 SECN II PSYS : WIND/T(MSL) : 2000FT VRB10KT PS14 18030KT PS18 (SW PART), 5000FT 22030KT PS11, 10000FT 23030KT PS01, CLD (AGL) : BKN/OVC ACAS 7000-14000FT, BKN LOC OVC CUSC 2000-7000FT LOC SCT ST 0200-1500FT FZLVL : 10500FT MNM QNH : 1017HPA VA : NIL=

Dossier MTO - France et limitrophe - 19-01-2015 - 0900UTC

Un dossier plutôt complet, avec des Optmet (Metar, Metar Auto, Taf, Gamet, Airmet, Sigmet, Gafor, ...), des cartes (Wintem, Temsi, fronts), images satellite et radar, etc. Vous trouverez ici tout ce qui était disponible le 19-01-2015 à 0900UTC (disons les éléments principaux), ni plus, ni moins.

Dossier MTO - France et limitrophe - 19-01-2015 - 0900UTC

Idéal pour l'étude des dossiers MTO !

Outils personnels